<?xml version='1.0' encoding='UTF-8'?><gpx version="1.1" creator="JPX - https://github.com/jenetics/jpx" xmlns="http://www.topografix.com/GPX/1/1"><trk><trkseg><trkpt lat="43.9822817" lon="11.6837287"><ele>521.0</ele><time>2026-04-18T10:19:36.909Z</time></trkpt><trkpt lat="43.9823386" lon="11.6837793"><ele>521.0</ele><time>2026-04-18T10:19:44.111Z</time></trkpt><trkpt lat="43.9824097" lon="11.6837267"><ele>521.0</ele><time>2026-04-18T10:19:48.991Z</time></trkpt><trkpt lat="43.9825183" lon="11.6836298"><ele>521.0</ele><time>2026-04-18T10:20:14.082Z</time></trkpt><trkpt lat="43.9825392" lon="11.6835469"><ele>521.0</ele><time>2026-04-18T10:20:22.057Z</time></trkpt><trkpt lat="43.9824941" lon="11.6834852"><ele>521.0</ele><time>2026-04-18T10:20:32.024Z</time></trkpt><trkpt lat="43.9824651" lon="11.6833824"><ele>521.5</ele><time>2026-04-18T10:20:40.011Z</time></trkpt><trkpt lat="43.9824469" lon="11.6832962"><ele>522.0</ele><time>2026-04-18T10:20:47.035Z</time></trkpt><trkpt lat="43.9824328" lon="11.6832052"><ele>522.5</ele><time>2026-04-18T10:20:53.088Z</time></trkpt><trkpt lat="43.9824336" lon="11.6831171"><ele>523.0</ele><time>2026-04-18T10:20:59.106Z</time></trkpt><trkpt lat="43.9824369" lon="11.6830194"><ele>523.5</ele><time>2026-04-18T10:21:04.99Z</time></trkpt><trkpt lat="43.9824426" lon="11.6829064"><ele>524.0</ele><time>2026-04-18T10:21:11.09Z</time></trkpt><trkpt lat="43.9825358" lon="11.6826907"><ele>529.1428571428571</ele><time>2026-04-18T10:21:27.097Z</time></trkpt><trkpt lat="43.9825432" lon="11.6827802"><ele>534.2857142857143</ele><time>2026-04-18T10:21:31.086Z</time></trkpt><trkpt lat="43.9825655" lon="11.6826874"><ele>539.4285714285714</ele><time>2026-04-18T10:21:40.913Z</time></trkpt><trkpt lat="43.9825966" lon="11.6825948"><ele>544.5714285714286</ele><time>2026-04-18T10:21:46.098Z</time></trkpt><trkpt lat="43.9826379" lon="11.6825227"><ele>549.7142857142858</ele><time>2026-04-18T10:22:01.104Z</time></trkpt><trkpt lat="43.9826294" lon="11.6824326"><ele>554.8571428571429</ele><time>2026-04-18T10:22:09.078Z</time></trkpt><trkpt lat="43.9826315" lon="11.6823326"><ele>560.0</ele><time>2026-04-18T10:22:19.046Z</time></trkpt><trkpt lat="43.9825976" lon="11.6822582"><ele>560.2857142857143</ele><time>2026-04-18T10:22:25.011Z</time></trkpt><trkpt lat="43.9825624" lon="11.6821749"><ele>560.5714285714286</ele><time>2026-04-18T10:22:35.945Z</time></trkpt><trkpt lat="43.9824983" lon="11.6821352"><ele>560.8571428571429</ele><time>2026-04-18T10:22:43.087Z</time></trkpt><trkpt lat="43.9825414" lon="11.6820496"><ele>561.1428571428571</ele><time>2026-04-18T10:23:07.011Z</time></trkpt><trkpt lat="43.9825787" lon="11.6819759"><ele>561.4285714285714</ele><time>2026-04-18T10:23:14.047Z</time></trkpt><trkpt lat="43.9826081" lon="11.6818862"><ele>561.7142857142858</ele><time>2026-04-18T10:23:22.045Z</time></trkpt><trkpt lat="43.982604" lon="11.6817985"><ele>562.0</ele><time>2026-04-18T10:23:31.018Z</time></trkpt><trkpt lat="43.9825307" lon="11.6818364"><ele>556.4285714285714</ele><time>2026-04-18T10:23:38.025Z</time></trkpt><trkpt lat="43.9824687" lon="11.6818974"><ele>550.8571428571429</ele><time>2026-04-18T10:24:03.004Z</time></trkpt><trkpt lat="43.9824045" lon="11.6818975"><ele>545.2857142857142</ele><time>2026-04-18T10:24:16.113Z</time></trkpt><trkpt lat="43.9823545" lon="11.6819676"><ele>539.7142857142858</ele><time>2026-04-18T10:24:30.07Z</time></trkpt><trkpt lat="43.9822902" lon="11.6819311"><ele>534.1428571428571</ele><time>2026-04-18T10:24:38.069Z</time></trkpt><trkpt lat="43.9822618" lon="11.6818444"><ele>528.5714285714286</ele><time>2026-04-18T10:24:43.088Z</time></trkpt><trkpt lat="43.9822263" lon="11.6817508"><ele>523.0</ele><time>2026-04-18T10:24:48.01Z</time></trkpt><trkpt lat="43.9822337" lon="11.6816607"><ele>522.8571428571428</ele><time>2026-04-18T10:24:55.046Z</time></trkpt><trkpt lat="43.982218" lon="11.6815698"><ele>522.7142857142857</ele><time>2026-04-18T10:25:04.077Z</time></trkpt><trkpt lat="43.9821513" lon="11.6815467"><ele>522.5714285714286</ele><time>2026-04-18T10:25:11.112Z</time></trkpt><trkpt lat="43.9820961" lon="11.6814821"><ele>522.4285714285713</ele><time>2026-04-18T10:25:21.108Z</time></trkpt><trkpt lat="43.9820595" lon="11.6814107"><ele>522.2857142857142</ele><time>2026-04-18T10:25:30.112Z</time></trkpt><trkpt lat="43.9820108" lon="11.6813495"><ele>522.1428571428571</ele><time>2026-04-18T10:25:46.105Z</time></trkpt><trkpt lat="43.9819707" lon="11.6812586"><ele>522.0</ele><time>2026-04-18T10:25:51.034Z</time></trkpt><trkpt lat="43.9819362" lon="11.681181"><ele>522.8571428571429</ele><time>2026-04-18T10:25:54.967Z</time></trkpt><trkpt lat="43.9818937" lon="11.6810962"><ele>523.7142857142857</ele><time>2026-04-18T10:26:01.118Z</time></trkpt><trkpt lat="43.9818367" lon="11.6810394"><ele>524.5714285714286</ele><time>2026-04-18T10:26:10.049Z</time></trkpt><trkpt lat="43.9817817" lon="11.6809848"><ele>525.4285714285714</ele><time>2026-04-18T10:26:22.011Z</time></trkpt><trkpt lat="43.981743" lon="11.6809149"><ele>526.2857142857143</ele><time>2026-04-18T10:26:31.04Z</time></trkpt><trkpt lat="43.9818093" lon="11.6808348"><ele>527.1428571428571</ele><time>2026-04-18T10:26:59.069Z</time></trkpt><trkpt lat="43.9818781" lon="11.6808268"><ele>528.0</ele><time>2026-04-18T10:27:04.14Z</time></trkpt><trkpt lat="43.9819318" lon="11.6807777"><ele>528.0</ele><time>2026-04-18T10:27:15.017Z</time></trkpt><trkpt lat="43.9818412" lon="11.6807844"><ele>528.0</ele><time>2026-04-18T10:27:21.995Z</time></trkpt><trkpt lat="43.9817998" lon="11.6808552"><ele>528.0</ele><time>2026-04-18T10:27:30.017Z</time></trkpt><trkpt lat="43.9817823" lon="11.6809931"><ele>528.0</ele><time>2026-04-18T10:27:52.081Z</time></trkpt><trkpt lat="43.9817353" lon="11.6809288"><ele>528.0</ele><time>2026-04-18T10:28:04.04Z</time></trkpt><trkpt lat="43.981713" lon="11.6807809"><ele>528.0</ele><time>2026-04-18T10:28:12.014Z</time></trkpt><trkpt lat="43.9817026" lon="11.6806842"><ele>528.0</ele><time>2026-04-18T10:28:17.057Z</time></trkpt><trkpt lat="43.9816537" lon="11.6806061"><ele>528.0</ele><time>2026-04-18T10:28:23.051Z</time></trkpt><trkpt lat="43.9816037" lon="11.6805374"><ele>528.0</ele><time>2026-04-18T10:28:30.075Z</time></trkpt><trkpt lat="43.9815989" lon="11.6804469"><ele>528.0</ele><time>2026-04-18T10:28:39.105Z</time></trkpt><trkpt lat="43.981627" lon="11.6803641"><ele>528.0</ele><time>2026-04-18T10:28:51.109Z</time></trkpt><trkpt lat="43.9816905" lon="11.6804047"><ele>528.0</ele><time>2026-04-18T10:28:57.87Z</time></trkpt><trkpt lat="43.9816819" lon="11.6805002"><ele>528.0</ele><time>2026-04-18T10:29:05.022Z</time></trkpt><trkpt lat="43.981695" lon="11.6805912"><ele>528.0</ele><time>2026-04-18T10:29:13.049Z</time></trkpt><trkpt lat="43.981687" lon="11.6806821"><ele>528.0</ele><time>2026-04-18T10:29:22.148Z</time></trkpt><trkpt lat="43.9817597" lon="11.680707"><ele>528.0</ele><time>2026-04-18T10:29:28.007Z</time></trkpt><trkpt lat="43.9818242" lon="11.6807202"><ele>528.0</ele><time>2026-04-18T10:29:33.05Z</time></trkpt><trkpt lat="43.9818935" lon="11.6806928"><ele>528.0</ele><time>2026-04-18T10:29:43.908Z</time></trkpt><trkpt lat="43.9818624" lon="11.6805699"><ele>528.0</ele><time>2026-04-18T10:30:23.911Z</time></trkpt><trkpt lat="43.981861" lon="11.680478"><ele>528.0</ele><time>2026-04-18T10:30:29.098Z</time></trkpt><trkpt lat="43.9819119" lon="11.6804184"><ele>528.0</ele><time>2026-04-18T10:30:34.025Z</time></trkpt><trkpt lat="43.9819693" lon="11.6803741"><ele>528.0</ele><time>2026-04-18T10:30:45.049Z</time></trkpt><trkpt lat="43.9820408" lon="11.6803623"><ele>528.0</ele><time>2026-04-18T10:30:54.079Z</time></trkpt><trkpt lat="43.982106" lon="11.680351"><ele>528.0</ele><time>2026-04-18T10:31:05.888Z</time></trkpt><trkpt lat="43.9821702" lon="11.6803126"><ele>528.0</ele><time>2026-04-18T10:31:13.078Z</time></trkpt><trkpt lat="43.9822331" lon="11.6802876"><ele>528.0</ele><time>2026-04-18T10:31:22.112Z</time></trkpt><trkpt lat="43.9822965" lon="11.6802795"><ele>528.0</ele><time>2026-04-18T10:31:33.014Z</time></trkpt><trkpt lat="43.9823621" lon="11.6802999"><ele>528.0</ele><time>2026-04-18T10:31:45.103Z</time></trkpt><trkpt lat="43.9824233" lon="11.6802699"><ele>528.0</ele><time>2026-04-18T10:31:57.102Z</time></trkpt><trkpt lat="43.9824752" lon="11.6802139"><ele>528.0</ele><time>2026-04-18T10:32:05.028Z</time></trkpt><trkpt lat="43.9825287" lon="11.6801517"><ele>528.0</ele><time>2026-04-18T10:32:13.003Z</time></trkpt><trkpt lat="43.9825849" lon="11.6800972"><ele>528.0</ele><time>2026-04-18T10:32:19.1Z</time></trkpt><trkpt lat="43.982628" lon="11.6800239"><ele>528.0</ele><time>2026-04-18T10:32:27.068Z</time></trkpt><trkpt lat="43.9826499" lon="11.679937"><ele>528.0</ele><time>2026-04-18T10:32:37.043Z</time></trkpt><trkpt lat="43.9826741" lon="11.6798476"><ele>532.8333333333334</ele><time>2026-04-18T10:32:47.128Z</time></trkpt><trkpt lat="43.9827189" lon="11.6797682"><ele>537.6666666666666</ele><time>2026-04-18T10:32:55.103Z</time></trkpt><trkpt lat="43.9827528" lon="11.6796898"><ele>542.5</ele><time>2026-04-18T10:33:03.99Z</time></trkpt><trkpt lat="43.9826302" lon="11.6797205"><ele>547.3333333333333</ele><time>2026-04-18T10:33:08.027Z</time></trkpt><trkpt lat="43.9826939" lon="11.6796734"><ele>552.1666666666666</ele><time>2026-04-18T10:33:15.994Z</time></trkpt><trkpt lat="43.9827637" lon="11.6796074"><ele>557.0</ele><time>2026-04-18T10:33:20.088Z</time></trkpt><trkpt lat="43.9828095" lon="11.6795365"><ele>557.0</ele><time>2026-04-18T10:33:24.035Z</time></trkpt><trkpt lat="43.9828418" lon="11.6794561"><ele>557.0</ele><time>2026-04-18T10:33:27.107Z</time></trkpt><trkpt lat="43.9828675" lon="11.6793751"><ele>557.0</ele><time>2026-04-18T10:33:31.072Z</time></trkpt><trkpt lat="43.9828996" lon="11.6792983"><ele>557.0</ele><time>2026-04-18T10:33:42.096Z</time></trkpt><trkpt lat="43.9829663" lon="11.6792843"><ele>557.0</ele><time>2026-04-18T10:33:49.014Z</time></trkpt><trkpt lat="43.9829906" lon="11.6792023"><ele>557.0</ele><time>2026-04-18T10:34:01.093Z</time></trkpt><trkpt lat="43.983019" lon="11.6791196"><ele>557.0</ele><time>2026-04-18T10:34:11.062Z</time></trkpt><trkpt lat="43.9830616" lon="11.6790458"><ele>555.5714285714286</ele><time>2026-04-18T10:34:19.975Z</time></trkpt><trkpt lat="43.9830971" lon="11.678961"><ele>554.1428571428571</ele><time>2026-04-18T10:34:28.067Z</time></trkpt><trkpt lat="43.9831399" lon="11.6788884"><ele>552.7142857142857</ele><time>2026-04-18T10:34:36.04Z</time></trkpt><trkpt lat="43.9831598" lon="11.6788052"><ele>551.2857142857142</ele><time>2026-04-18T10:34:42.994Z</time></trkpt><trkpt lat="43.9831815" lon="11.6787129"><ele>549.8571428571428</ele><time>2026-04-18T10:34:49.092Z</time></trkpt><trkpt lat="43.9831737" lon="11.6786205"><ele>548.4285714285714</ele><time>2026-04-18T10:34:54.017Z</time></trkpt><trkpt lat="43.983142" lon="11.6785365"><ele>547.0</ele><time>2026-04-18T10:35:01.054Z</time></trkpt><trkpt lat="43.9831323" lon="11.6784426"><ele>545.5714285714286</ele><time>2026-04-18T10:35:09.042Z</time></trkpt><trkpt lat="43.9831001" lon="11.6783345"><ele>544.1428571428571</ele><time>2026-04-18T10:35:24.053Z</time></trkpt><trkpt lat="43.9830661" lon="11.6782503"><ele>542.7142857142857</ele><time>2026-04-18T10:35:30.034Z</time></trkpt><trkpt lat="43.9830316" lon="11.6781702"><ele>541.2857142857142</ele><time>2026-04-18T10:35:37.07Z</time></trkpt><trkpt lat="43.9830095" lon="11.678088"><ele>539.8571428571429</ele><time>2026-04-18T10:35:43.051Z</time></trkpt><trkpt lat="43.9829884" lon="11.6779985"><ele>538.4285714285713</ele><time>2026-04-18T10:35:50.088Z</time></trkpt><trkpt lat="43.982998" lon="11.677898"><ele>537.0</ele><time>2026-04-18T10:36:00.056Z</time></trkpt><trkpt lat="43.9830215" lon="11.6778082"><ele>535.8571428571428</ele><time>2026-04-18T10:36:07.091Z</time></trkpt><trkpt lat="43.983049" lon="11.6777293"><ele>534.7142857142857</ele><time>2026-04-18T10:36:14.047Z</time></trkpt><trkpt lat="43.9831073" lon="11.6776727"><ele>533.5714285714286</ele><time>2026-04-18T10:36:22.103Z</time></trkpt><trkpt lat="43.9831694" lon="11.6776482"><ele>532.4285714285713</ele><time>2026-04-18T10:36:28.083Z</time></trkpt><trkpt lat="43.9832341" lon="11.6776561"><ele>531.2857142857142</ele><time>2026-04-18T10:36:35.119Z</time></trkpt><trkpt lat="43.9832927" lon="11.6776114"><ele>530.1428571428571</ele><time>2026-04-18T10:36:47.082Z</time></trkpt><trkpt lat="43.9833506" lon="11.6775708"><ele>529.0</ele><time>2026-04-18T10:36:56.071Z</time></trkpt><trkpt lat="43.9834365" lon="11.6774929"><ele>535.5</ele><time>2026-04-18T10:37:31.996Z</time></trkpt><trkpt lat="43.9834685" lon="11.6774153"><ele>542.0</ele><time>2026-04-18T10:37:39.031Z</time></trkpt><trkpt lat="43.9835367" lon="11.6774466"><ele>548.5</ele><time>2026-04-18T10:38:52.039Z</time></trkpt><trkpt lat="43.9834698" lon="11.6773271"><ele>555.0</ele><time>2026-04-18T10:39:05.058Z</time></trkpt><trkpt lat="43.9834557" lon="11.6772355"><ele>561.5</ele><time>2026-04-18T10:39:08.107Z</time></trkpt><trkpt lat="43.9834651" lon="11.6771318"><ele>568.0</ele><time>2026-04-18T10:39:15.131Z</time></trkpt><trkpt lat="43.9834753" lon="11.6770376"><ele>568.0</ele><time>2026-04-18T10:39:21.007Z</time></trkpt><trkpt lat="43.9834913" lon="11.6769433"><ele>568.0</ele><time>2026-04-18T10:39:28.047Z</time></trkpt><trkpt lat="43.9834812" lon="11.6768509"><ele>568.0</ele><time>2026-04-18T10:39:37.078Z</time></trkpt><trkpt lat="43.9834683" lon="11.6767608"><ele>568.0</ele><time>2026-04-18T10:39:48.1Z</time></trkpt><trkpt lat="43.9834963" lon="11.6766819"><ele>568.0</ele><time>2026-04-18T10:39:54.081Z</time></trkpt><trkpt lat="43.9834684" lon="11.6765903"><ele>568.0</ele><time>2026-04-18T10:40:02.056Z</time></trkpt><trkpt lat="43.983451" lon="11.6765049"><ele>568.0</ele><time>2026-04-18T10:40:14.019Z</time></trkpt><trkpt lat="43.9834276" lon="11.6764185"><ele>568.4285714285714</ele><time>2026-04-18T10:40:21.055Z</time></trkpt><trkpt lat="43.9834107" lon="11.6763266"><ele>568.8571428571428</ele><time>2026-04-18T10:40:32.078Z</time></trkpt><trkpt lat="43.9834075" lon="11.676237"><ele>569.2857142857142</ele><time>2026-04-18T10:40:40.053Z</time></trkpt><trkpt lat="43.9833967" lon="11.6761449"><ele>569.7142857142857</ele><time>2026-04-18T10:40:47.089Z</time></trkpt><trkpt lat="43.9833385" lon="11.6760961"><ele>570.1428571428571</ele><time>2026-04-18T10:40:53.831Z</time></trkpt><trkpt lat="43.9832833" lon="11.6760518"><ele>570.5714285714286</ele><time>2026-04-18T10:41:01.045Z</time></trkpt><trkpt lat="43.9832647" lon="11.6759662"><ele>571.0</ele><time>2026-04-18T10:41:07.025Z</time></trkpt><trkpt lat="43.9831915" lon="11.6759333"><ele>566.5714285714286</ele><time>2026-04-18T10:41:27.078Z</time></trkpt><trkpt lat="43.9831733" lon="11.6760208"><ele>562.1428571428571</ele><time>2026-04-18T10:41:32.994Z</time></trkpt><trkpt lat="43.9831476" lon="11.6761263"><ele>557.7142857142857</ele><time>2026-04-18T10:41:40.051Z</time></trkpt><trkpt lat="43.9831135" lon="11.6762059"><ele>553.2857142857142</ele><time>2026-04-18T10:41:45.994Z</time></trkpt><trkpt lat="43.9830446" lon="11.6761934"><ele>548.8571428571428</ele><time>2026-04-18T10:41:51.009Z</time></trkpt><trkpt lat="43.9831002" lon="11.6761519"><ele>544.4285714285714</ele><time>2026-04-18T10:42:16.089Z</time></trkpt><trkpt lat="43.983142" lon="11.6760802"><ele>540.0</ele><time>2026-04-18T10:42:20.076Z</time></trkpt><trkpt lat="43.9830879" lon="11.6761318"><ele>540.0</ele><time>2026-04-18T10:43:29.093Z</time></trkpt><trkpt lat="43.9831488" lon="11.6760503"><ele>540.0</ele><time>2026-04-18T10:43:46.098Z</time></trkpt><trkpt lat="43.9831833" lon="11.6759565"><ele>540.0</ele><time>2026-04-18T10:43:50.086Z</time></trkpt><trkpt lat="43.9831625" lon="11.675873"><ele>540.0</ele><time>2026-04-18T10:44:53.989Z</time></trkpt><trkpt lat="43.9831206" lon="11.6757766"><ele>540.0</ele><time>2026-04-18T10:45:43.057Z</time></trkpt><trkpt lat="43.9830842" lon="11.6757022"><ele>540.0</ele><time>2026-04-18T10:45:46.106Z</time></trkpt><trkpt lat="43.9830028" lon="11.6756204"><ele>540.0</ele><time>2026-04-18T10:46:07.098Z</time></trkpt><trkpt lat="43.982958" lon="11.6755539"><ele>540.0</ele><time>2026-04-18T10:46:14.016Z</time></trkpt><trkpt lat="43.9828861" lon="11.6755743"><ele>540.0</ele><time>2026-04-18T10:46:26.994Z</time></trkpt><trkpt lat="43.9830058" lon="11.6755771"><ele>540.0</ele><time>2026-04-18T10:46:41.991Z</time></trkpt><trkpt lat="43.9828571" lon="11.6755079"><ele>540.0</ele><time>2026-04-18T10:46:55.096Z</time></trkpt><trkpt lat="43.9828032" lon="11.6754597"><ele>540.0</ele><time>2026-04-18T10:47:02.016Z</time></trkpt><trkpt lat="43.9827536" lon="11.6753987"><ele>540.0</ele><time>2026-04-18T10:47:13.059Z</time></trkpt><trkpt lat="43.9827331" lon="11.6755014"><ele>540.0</ele><time>2026-04-18T10:47:25.079Z</time></trkpt><trkpt lat="43.9825891" lon="11.6755304"><ele>540.0</ele><time>2026-04-18T10:47:34.029Z</time></trkpt><trkpt lat="43.9825944" lon="11.6754401"><ele>540.0</ele><time>2026-04-18T10:47:53.01Z</time></trkpt><trkpt lat="43.982629" lon="11.6753597"><ele>540.0</ele><time>2026-04-18T10:48:08.023Z</time></trkpt><trkpt lat="43.9826461" lon="11.6755001"><ele>540.0</ele><time>2026-04-18T10:48:19.047Z</time></trkpt><trkpt lat="43.9826578" lon="11.6755902"><ele>540.0</ele><time>2026-04-18T10:48:29.132Z</time></trkpt><trkpt lat="43.9827269" lon="11.6756358"><ele>540.0</ele><time>2026-04-18T10:48:34.997Z</time></trkpt><trkpt lat="43.9827824" lon="11.6755855"><ele>540.0</ele><time>2026-04-18T10:48:55.929Z</time></trkpt><trkpt lat="43.9828157" lon="11.675504"><ele>540.0</ele><time>2026-04-18T10:48:59.038Z</time></trkpt><trkpt lat="43.9828643" lon="11.675433"><ele>540.0</ele><time>2026-04-18T10:49:08.975Z</time></trkpt><trkpt lat="43.9828018" lon="11.6753555"><ele>540.0</ele><time>2026-04-18T10:49:20.508Z</time></trkpt><trkpt lat="43.9827453" lon="11.675298"><ele>542.4285714285714</ele><time>2026-04-18T10:49:27.576Z</time></trkpt><trkpt lat="43.9827192" lon="11.6752158"><ele>544.8571428571428</ele><time>2026-04-18T10:49:37.036Z</time></trkpt><trkpt lat="43.982723" lon="11.6751235"><ele>547.2857142857142</ele><time>2026-04-18T10:49:50.995Z</time></trkpt><trkpt lat="43.9826581" lon="11.6750698"><ele>549.7142857142857</ele><time>2026-04-18T10:50:09.051Z</time></trkpt><trkpt lat="43.9826124" lon="11.6750002"><ele>552.1428571428571</ele><time>2026-04-18T10:50:16.088Z</time></trkpt><trkpt lat="43.9826188" lon="11.6749106"><ele>554.5714285714286</ele><time>2026-04-18T10:50:23.934Z</time></trkpt><trkpt lat="43.9826832" lon="11.6748711"><ele>557.0</ele><time>2026-04-18T10:50:29.074Z</time></trkpt><trkpt lat="43.9827425" lon="11.6748236"><ele>557.0</ele><time>2026-04-18T10:50:45.971Z</time></trkpt><trkpt lat="43.9827794" lon="11.6747472"><ele>557.0</ele><time>2026-04-18T10:50:56.079Z</time></trkpt><trkpt lat="43.9827931" lon="11.6746581"><ele>557.0</ele><time>2026-04-18T10:51:06.165Z</time></trkpt><trkpt lat="43.9828161" lon="11.6745756"><ele>557.0</ele><time>2026-04-18T10:51:14.021Z</time></trkpt><trkpt lat="43.9828088" lon="11.674483"><ele>557.0</ele><time>2026-04-18T10:51:22.114Z</time></trkpt><trkpt lat="43.9828374" lon="11.6743467"><ele>557.0</ele><time>2026-04-18T10:51:42.05Z</time></trkpt><trkpt lat="43.9828339" lon="11.6742505"><ele>557.0</ele><time>2026-04-18T10:51:49.087Z</time></trkpt><trkpt lat="43.9828283" lon="11.6741475"><ele>558.7142857142858</ele><time>2026-04-18T10:51:57.06Z</time></trkpt><trkpt lat="43.9828584" lon="11.6740649"><ele>560.4285714285714</ele><time>2026-04-18T10:52:11.016Z</time></trkpt><trkpt lat="43.9828404" lon="11.6739724"><ele>562.1428571428571</ele><time>2026-04-18T10:52:21.101Z</time></trkpt><trkpt lat="43.9827918" lon="11.6739064"><ele>563.8571428571429</ele><time>2026-04-18T10:52:30.014Z</time></trkpt><trkpt lat="43.9827446" lon="11.6738473"><ele>565.5714285714286</ele><time>2026-04-18T10:52:37.089Z</time></trkpt><trkpt lat="43.9826892" lon="11.6737856"><ele>567.2857142857143</ele><time>2026-04-18T10:52:44.088Z</time></trkpt><trkpt lat="43.9826385" lon="11.6736851"><ele>569.0</ele><time>2026-04-18T10:53:00.036Z</time></trkpt><trkpt lat="43.9825887" lon="11.6736204"><ele>570.4285714285714</ele><time>2026-04-18T10:53:07.073Z</time></trkpt><trkpt lat="43.9825614" lon="11.6735348"><ele>571.8571428571429</ele><time>2026-04-18T10:53:13.054Z</time></trkpt><trkpt lat="43.9825533" lon="11.6734441"><ele>573.2857142857142</ele><time>2026-04-18T10:53:21.028Z</time></trkpt><trkpt lat="43.9825057" lon="11.6733767"><ele>574.7142857142858</ele><time>2026-04-18T10:53:29.121Z</time></trkpt><trkpt lat="43.9824555" lon="11.6732959"><ele>576.1428571428571</ele><time>2026-04-18T10:53:35.101Z</time></trkpt><trkpt lat="43.9824199" lon="11.6732092"><ele>577.5714285714286</ele><time>2026-04-18T10:53:43.115Z</time></trkpt><trkpt lat="43.9823844" lon="11.6731308"><ele>579.0</ele><time>2026-04-18T10:53:49.993Z</time></trkpt><trkpt lat="43.9823293" lon="11.6730628"><ele>574.5714285714286</ele><time>2026-04-18T10:53:57.031Z</time></trkpt><trkpt lat="43.9822806" lon="11.6730073"><ele>570.1428571428571</ele><time>2026-04-18T10:54:04.067Z</time></trkpt><trkpt lat="43.9822334" lon="11.6729335"><ele>565.7142857142858</ele><time>2026-04-18T10:54:11.112Z</time></trkpt><trkpt lat="43.9822252" lon="11.6728458"><ele>561.2857142857142</ele><time>2026-04-18T10:54:18.023Z</time></trkpt><trkpt lat="43.9821973" lon="11.6727651"><ele>556.8571428571429</ele><time>2026-04-18T10:54:26.094Z</time></trkpt><trkpt lat="43.9821817" lon="11.6726749"><ele>552.4285714285714</ele><time>2026-04-18T10:54:35.027Z</time></trkpt><trkpt lat="43.9822067" lon="11.6725935"><ele>548.0</ele><time>2026-04-18T10:54:43.002Z</time></trkpt><trkpt lat="43.98226" lon="11.6725385"><ele>548.0000000000001</ele><time>2026-04-18T10:54:50.026Z</time></trkpt><trkpt lat="43.9823104" lon="11.6724788"><ele>548.0</ele><time>2026-04-18T10:54:58.013Z</time></trkpt><trkpt lat="43.9823446" lon="11.6723933"><ele>548.0</ele><time>2026-04-18T10:55:08.099Z</time></trkpt><trkpt lat="43.9823815" lon="11.6723119"><ele>548.0</ele><time>2026-04-18T10:55:16.072Z</time></trkpt><trkpt lat="43.982408" lon="11.6722294"><ele>548.0</ele><time>2026-04-18T10:55:27.097Z</time></trkpt><trkpt lat="43.9823699" lon="11.6721555"><ele>548.0000000000001</ele><time>2026-04-18T10:55:39.997Z</time></trkpt><trkpt lat="43.9824308" lon="11.6721191"><ele>548.0</ele><time>2026-04-18T10:56:34.068Z</time></trkpt><trkpt lat="43.9824529" lon="11.6720197"><ele>548.4285714285714</ele><time>2026-04-18T10:56:52.128Z</time></trkpt><trkpt lat="43.9824204" lon="11.671936"><ele>548.8571428571429</ele><time>2026-04-18T10:56:59.994Z</time></trkpt><trkpt lat="43.9823754" lon="11.6718669"><ele>549.2857142857142</ele><time>2026-04-18T10:57:07.021Z</time></trkpt><trkpt lat="43.9823539" lon="11.6717817"><ele>549.7142857142858</ele><time>2026-04-18T10:57:16.051Z</time></trkpt><trkpt lat="43.9823331" lon="11.6716952"><ele>550.1428571428571</ele><time>2026-04-18T10:57:25.081Z</time></trkpt><trkpt lat="43.9823033" lon="11.6716063"><ele>550.5714285714286</ele><time>2026-04-18T10:57:35.05Z</time></trkpt><trkpt lat="43.9822914" lon="11.6715163"><ele>551.0</ele><time>2026-04-18T10:57:43.051Z</time></trkpt><trkpt lat="43.9822468" lon="11.6714539"><ele>550.9999999999999</ele><time>2026-04-18T10:57:50.06Z</time></trkpt><trkpt lat="43.982199" lon="11.6713914"><ele>551.0</ele><time>2026-04-18T10:57:59.09Z</time></trkpt><trkpt lat="43.9822027" lon="11.6712961"><ele>551.0</ele><time>2026-04-18T10:58:13.014Z</time></trkpt><trkpt lat="43.9821684" lon="11.6712146"><ele>551.0</ele><time>2026-04-18T10:58:20.165Z</time></trkpt><trkpt lat="43.9821312" lon="11.6711338"><ele>551.0</ele><time>2026-04-18T10:58:29.053Z</time></trkpt><trkpt lat="43.982117" lon="11.6710436"><ele>550.9999999999999</ele><time>2026-04-18T10:58:38.044Z</time></trkpt><trkpt lat="43.9820916" lon="11.6709569"><ele>551.0</ele><time>2026-04-18T10:58:48.11Z</time></trkpt><trkpt lat="43.9820835" lon="11.6708555"><ele>552.0</ele><time>2026-04-18T10:58:54.092Z</time></trkpt><trkpt lat="43.9820677" lon="11.6707685"><ele>553.0</ele><time>2026-04-18T10:59:03.036Z</time></trkpt><trkpt lat="43.9820293" lon="11.6709561"><ele>554.0</ele><time>2026-04-18T10:59:14.02Z</time></trkpt><trkpt lat="43.9820751" lon="11.6708756"><ele>555.0</ele><time>2026-04-18T10:59:31.026Z</time></trkpt><trkpt lat="43.9821123" lon="11.6707942"><ele>556.0</ele><time>2026-04-18T10:59:37.029Z</time></trkpt><trkpt lat="43.9821557" lon="11.6707161"><ele>557.0</ele><time>2026-04-18T10:59:41.509Z</time></trkpt><trkpt lat="43.9821745" lon="11.6706306"><ele>557.0</ele><time>2026-04-18T10:59:46.059Z</time></trkpt><trkpt lat="43.9821975" lon="11.6705275"><ele>557.0</ele><time>2026-04-18T10:59:51.103Z</time></trkpt><trkpt lat="43.982236" lon="11.6704564"><ele>557.0</ele><time>2026-04-18T10:59:56.027Z</time></trkpt><trkpt lat="43.9822742" lon="11.6703799"><ele>557.0</ele><time>2026-04-18T11:00:02.008Z</time></trkpt><trkpt lat="43.9823287" lon="11.6703207"><ele>557.0</ele><time>2026-04-18T11:00:14.034Z</time></trkpt><trkpt lat="43.9823492" lon="11.670231"><ele>557.0</ele><time>2026-04-18T11:00:22.063Z</time></trkpt><trkpt lat="43.9823636" lon="11.6701334"><ele>557.0</ele><time>2026-04-18T11:00:29.099Z</time></trkpt><trkpt lat="43.9824193" lon="11.6700728"><ele>556.7142857142858</ele><time>2026-04-18T11:00:38.011Z</time></trkpt><trkpt lat="43.9824251" lon="11.6699761"><ele>556.4285714285714</ele><time>2026-04-18T11:01:02.246Z</time></trkpt><trkpt lat="43.9824052" lon="11.669877"><ele>556.1428571428571</ele><time>2026-04-18T11:01:07.061Z</time></trkpt><trkpt lat="43.9823884" lon="11.6697833"><ele>555.8571428571429</ele><time>2026-04-18T11:01:15.036Z</time></trkpt><trkpt lat="43.982394" lon="11.6696877"><ele>555.5714285714286</ele><time>2026-04-18T11:01:23.012Z</time></trkpt><trkpt lat="43.9823968" lon="11.6695904"><ele>555.2857142857143</ele><time>2026-04-18T11:01:30.045Z</time></trkpt><trkpt lat="43.9823777" lon="11.6695008"><ele>555.0</ele><time>2026-04-18T11:01:38.02Z</time></trkpt><trkpt lat="43.9823936" lon="11.6694133"><ele>554.75</ele><time>2026-04-18T11:01:51.038Z</time></trkpt><trkpt lat="43.9824085" lon="11.6693183"><ele>554.5</ele><time>2026-04-18T11:01:57.969Z</time></trkpt><trkpt lat="43.9824348" lon="11.6692363"><ele>554.25</ele><time>2026-04-18T11:02:07.068Z</time></trkpt><trkpt lat="43.9822801" lon="11.6691298"><ele>554.0</ele><time>2026-04-18T11:02:13.913Z</time></trkpt><trkpt lat="43.9813835" lon="11.668367"><ele>554.4</ele><time>2026-04-18T11:02:15.066Z</time></trkpt><trkpt lat="43.9814552" lon="11.6683124"><ele>554.8</ele><time>2026-04-18T11:02:19.001Z</time></trkpt><trkpt lat="43.9816071" lon="11.6683771"><ele>555.2</ele><time>2026-04-18T11:02:21.113Z</time></trkpt><trkpt lat="43.9816974" lon="11.6684329"><ele>555.6</ele><time>2026-04-18T11:02:22.052Z</time></trkpt><trkpt lat="43.9817595" lon="11.6684658"><ele>556.0</ele><time>2026-04-18T11:02:24.044Z</time></trkpt><trkpt lat="43.9819028" lon="11.6685889"><ele>555.5</ele><time>2026-04-18T11:02:27.095Z</time></trkpt><trkpt lat="43.9819665" lon="11.6686391"><ele>555.0</ele><time>2026-04-18T11:02:28.032Z</time></trkpt><trkpt lat="43.9820989" lon="11.6687987"><ele>554.5</ele><time>2026-04-18T11:02:31.081Z</time></trkpt><trkpt lat="43.98217" lon="11.6688756"><ele>554.0</ele><time>2026-04-18T11:02:33.07Z</time></trkpt><trkpt lat="43.9822587" lon="11.6690003"><ele>554.0</ele><time>2026-04-18T11:02:36.007Z</time></trkpt><trkpt lat="43.9823313" lon="11.6690585"><ele>554.0</ele><time>2026-04-18T11:02:37.989Z</time></trkpt><trkpt lat="43.9822507" lon="11.6691855"><ele>554.0</ele><time>2026-04-18T11:02:53.995Z</time></trkpt><trkpt lat="43.9822053" lon="11.6692538"><ele>554.0</ele><time>2026-04-18T11:03:02.087Z</time></trkpt><trkpt lat="43.9823053" lon="11.6691758"><ele>554.0</ele><time>2026-04-18T11:03:13.11Z</time></trkpt><trkpt lat="43.9823167" lon="11.6690877"><ele>554.0</ele><time>2026-04-18T11:03:19.09Z</time></trkpt><trkpt lat="43.9822203" lon="11.6690057"><ele>554.0</ele><time>2026-04-18T11:03:44.014Z</time></trkpt><trkpt lat="43.9821506" lon="11.6690165"><ele>554.0</ele><time>2026-04-18T11:03:50.094Z</time></trkpt><trkpt lat="43.9820585" lon="11.6690354"><ele>554.0</ele><time>2026-04-18T11:04:04.492Z</time></trkpt><trkpt lat="43.9820503" lon="11.6689418"><ele>554.0</ele><time>2026-04-18T11:04:10.046Z</time></trkpt><trkpt lat="43.9820621" lon="11.668848"><ele>554.0</ele><time>2026-04-18T11:04:15.09Z</time></trkpt><trkpt lat="43.9820747" lon="11.6687555"><ele>554.0</ele><time>2026-04-18T11:04:22.126Z</time></trkpt><trkpt lat="43.9820381" lon="11.6686659"><ele>554.0</ele><time>2026-04-18T11:04:29.976Z</time></trkpt><trkpt lat="43.9819797" lon="11.6686044"><ele>554.0</ele><time>2026-04-18T11:04:36.104Z</time></trkpt><trkpt lat="43.981941" lon="11.6685238"><ele>554.0</ele><time>2026-04-18T11:04:43.052Z</time></trkpt><trkpt lat="43.9819212" lon="11.6684341"><ele>554.0</ele><time>2026-04-18T11:04:51.055Z</time></trkpt><trkpt lat="43.9819006" lon="11.6683421"><ele>554.0</ele><time>2026-04-18T11:05:06.01Z</time></trkpt><trkpt lat="43.9818784" lon="11.6682553"><ele>554.0</ele><time>2026-04-18T11:05:13.047Z</time></trkpt><trkpt lat="43.9818398" lon="11.6681744"><ele>556.7142857142857</ele><time>2026-04-18T11:05:20.083Z</time></trkpt><trkpt lat="43.9818292" lon="11.6680867"><ele>559.4285714285713</ele><time>2026-04-18T11:05:28.058Z</time></trkpt><trkpt lat="43.9818387" lon="11.6679977"><ele>562.1428571428571</ele><time>2026-04-18T11:05:40.02Z</time></trkpt><trkpt lat="43.9818037" lon="11.6679111"><ele>564.8571428571429</ele><time>2026-04-18T11:05:49.04Z</time></trkpt><trkpt lat="43.9817991" lon="11.667822"><ele>567.5714285714287</ele><time>2026-04-18T11:06:00.064Z</time></trkpt><trkpt lat="43.9817793" lon="11.6677229"><ele>570.2857142857143</ele><time>2026-04-18T11:06:29.031Z</time></trkpt><trkpt lat="43.9817438" lon="11.6676425"><ele>573.0</ele><time>2026-04-18T11:06:38.061Z</time></trkpt><trkpt lat="43.9817124" lon="11.6675513"><ele>576.2857142857143</ele><time>2026-04-18T11:06:47.09Z</time></trkpt><trkpt lat="43.9817133" lon="11.6674637"><ele>579.5714285714287</ele><time>2026-04-18T11:06:52.992Z</time></trkpt><trkpt lat="43.9817148" lon="11.6673762"><ele>582.8571428571429</ele><time>2026-04-18T11:06:59.053Z</time></trkpt><trkpt lat="43.981723" lon="11.6672819"><ele>586.1428571428571</ele><time>2026-04-18T11:07:05.033Z</time></trkpt><trkpt lat="43.9817268" lon="11.667194"><ele>589.4285714285713</ele><time>2026-04-18T11:07:11.131Z</time></trkpt><trkpt lat="43.9817291" lon="11.6671045"><ele>592.7142857142857</ele><time>2026-04-18T11:07:19.105Z</time></trkpt><trkpt lat="43.9817324" lon="11.66701"><ele>596.0</ele><time>2026-04-18T11:07:26.112Z</time></trkpt><trkpt lat="43.9817367" lon="11.6669186"><ele>597.7142857142857</ele><time>2026-04-18T11:07:32.005Z</time></trkpt><trkpt lat="43.9817264" lon="11.6668166"><ele>599.4285714285713</ele><time>2026-04-18T11:07:40.098Z</time></trkpt><trkpt lat="43.9817111" lon="11.6667225"><ele>601.1428571428571</ele><time>2026-04-18T11:07:46.079Z</time></trkpt><trkpt lat="43.9816996" lon="11.6666361"><ele>602.8571428571429</ele><time>2026-04-18T11:07:52.059Z</time></trkpt><trkpt lat="43.9816857" lon="11.6665453"><ele>604.5714285714287</ele><time>2026-04-18T11:08:00.716Z</time></trkpt><trkpt lat="43.9817078" lon="11.6664592"><ele>606.2857142857142</ele><time>2026-04-18T11:08:08.009Z</time></trkpt><trkpt lat="43.9817163" lon="11.6663684"><ele>608.0</ele><time>2026-04-18T11:08:18.053Z</time></trkpt><trkpt lat="43.9817107" lon="11.666272"><ele>608.0</ele><time>2026-04-18T11:08:31.111Z</time></trkpt><trkpt lat="43.9817432" lon="11.666177"><ele>608.0</ele><time>2026-04-18T11:08:47.059Z</time></trkpt><trkpt lat="43.9818066" lon="11.6661632"><ele>608.0</ele><time>2026-04-18T11:08:57.027Z</time></trkpt><trkpt lat="43.9818162" lon="11.666065"><ele>608.0</ele><time>2026-04-18T11:09:10.045Z</time></trkpt><trkpt lat="43.9818505" lon="11.6659841"><ele>608.0</ele><time>2026-04-18T11:09:19.075Z</time></trkpt><trkpt lat="43.98185" lon="11.665895"><ele>608.0</ele><time>2026-04-18T11:09:28.104Z</time></trkpt><trkpt lat="43.9818292" lon="11.6658087"><ele>608.0</ele><time>2026-04-18T11:09:38.072Z</time></trkpt><trkpt lat="43.9817647" lon="11.6658383"><ele>607.2857142857142</ele><time>2026-04-18T11:09:58.107Z</time></trkpt><trkpt lat="43.9817925" lon="11.6657327"><ele>606.5714285714287</ele><time>2026-04-18T11:10:17.098Z</time></trkpt><trkpt lat="43.9818229" lon="11.6656529"><ele>605.8571428571429</ele><time>2026-04-18T11:10:21.088Z</time></trkpt><trkpt lat="43.9818628" lon="11.6655408"><ele>605.1428571428571</ele><time>2026-04-18T11:10:33.992Z</time></trkpt><trkpt lat="43.9818857" lon="11.6654547"><ele>604.4285714285713</ele><time>2026-04-18T11:10:43.018Z</time></trkpt><trkpt lat="43.9819253" lon="11.6653852"><ele>603.7142857142858</ele><time>2026-04-18T11:10:51.099Z</time></trkpt><trkpt lat="43.9819652" lon="11.6653112"><ele>603.0</ele><time>2026-04-18T11:11:01.078Z</time></trkpt><trkpt lat="43.9819776" lon="11.6652201"><ele>602.0</ele><time>2026-04-18T11:11:07.998Z</time></trkpt><trkpt lat="43.9820281" lon="11.6651676"><ele>601.0</ele><time>2026-04-18T11:11:26.057Z</time></trkpt><trkpt lat="43.9820502" lon="11.6650808"><ele>600.0</ele><time>2026-04-18T11:11:37.081Z</time></trkpt><trkpt lat="43.9820926" lon="11.6650117"><ele>599.0</ele><time>2026-04-18T11:11:43.035Z</time></trkpt><trkpt lat="43.982071" lon="11.6648516"><ele>598.0</ele><time>2026-04-18T11:12:11.992Z</time></trkpt><trkpt lat="43.9820821" lon="11.6647498"><ele>597.0</ele><time>2026-04-18T11:12:19.115Z</time></trkpt><trkpt lat="43.9820957" lon="11.6646607"><ele>597.0000000000001</ele><time>2026-04-18T11:12:24.107Z</time></trkpt><trkpt lat="43.9820841" lon="11.6645684"><ele>597.0</ele><time>2026-04-18T11:12:31.027Z</time></trkpt><trkpt lat="43.9820647" lon="11.6644709"><ele>597.0</ele><time>2026-04-18T11:12:38.993Z</time></trkpt><trkpt lat="43.9820747" lon="11.6643695"><ele>597.0</ele><time>2026-04-18T11:12:47.093Z</time></trkpt><trkpt lat="43.9821235" lon="11.6642992"><ele>597.0</ele><time>2026-04-18T11:12:57.061Z</time></trkpt><trkpt lat="43.9821694" lon="11.664229"><ele>597.0000000000001</ele><time>2026-04-18T11:13:06.09Z</time></trkpt><trkpt lat="43.9821961" lon="11.6641421"><ele>597.0</ele><time>2026-04-18T11:13:16.059Z</time></trkpt><trkpt lat="43.982228" lon="11.6640659"><ele>595.8571428571429</ele><time>2026-04-18T11:13:25.012Z</time></trkpt><trkpt lat="43.9822402" lon="11.6639762"><ele>594.7142857142858</ele><time>2026-04-18T11:13:35.056Z</time></trkpt><trkpt lat="43.9822366" lon="11.6638843"><ele>593.5714285714286</ele><time>2026-04-18T11:13:41.037Z</time></trkpt><trkpt lat="43.9822469" lon="11.6637838"><ele>592.4285714285714</ele><time>2026-04-18T11:13:47.11Z</time></trkpt><trkpt lat="43.9822683" lon="11.6636892"><ele>591.2857142857142</ele><time>2026-04-18T11:13:56.048Z</time></trkpt><trkpt lat="43.9823047" lon="11.6636023"><ele>590.1428571428571</ele><time>2026-04-18T11:14:03.083Z</time></trkpt><trkpt lat="43.9823244" lon="11.6635079"><ele>589.0</ele><time>2026-04-18T11:14:15.108Z</time></trkpt><trkpt lat="43.9823443" lon="11.6634156"><ele>589.0</ele><time>2026-04-18T11:14:22.081Z</time></trkpt><trkpt lat="43.9822683" lon="11.6636892"><ele>589.0</ele><time>2026-04-18T11:13:56.048Z</time></trkpt><trkpt lat="43.9823047" lon="11.6636023"><ele>589.0</ele><time>2026-04-18T11:14:03.083Z</time></trkpt><trkpt lat="43.9823244" lon="11.6635079"><ele>589.0</ele><time>2026-04-18T11:14:15.108Z</time></trkpt><trkpt lat="43.9823443" lon="11.6634156"><ele>589.0</ele><time>2026-04-18T11:14:22.081Z</time></trkpt><trkpt lat="43.982332" lon="11.6633286"><ele>589.0</ele><time>2026-04-18T11:14:30.056Z</time></trkpt><trkpt lat="43.9823333" lon="11.6632389"><ele>589.0</ele><time>2026-04-18T11:14:40.024Z</time></trkpt><trkpt lat="43.9823233" lon="11.6631388"><ele>589.0</ele><time>2026-04-18T11:14:46.005Z</time></trkpt><trkpt lat="43.9822967" lon="11.6630507"><ele>589.0</ele><time>2026-04-18T11:14:57.492Z</time></trkpt><trkpt lat="43.9822464" lon="11.6629953"><ele>589.0</ele><time>2026-04-18T11:15:05.003Z</time></trkpt><trkpt lat="43.9821909" lon="11.6629374"><ele>589.0</ele><time>2026-04-18T11:15:13.095Z</time></trkpt><trkpt lat="43.9821344" lon="11.6628968"><ele>589.0</ele><time>2026-04-18T11:15:21.992Z</time></trkpt><trkpt lat="43.9820641" lon="11.6628889"><ele>589.0</ele><time>2026-04-18T11:15:30.099Z</time></trkpt><trkpt lat="43.9819989" lon="11.6628507"><ele>589.0</ele><time>2026-04-18T11:15:38.106Z</time></trkpt><trkpt lat="43.9819474" lon="11.6627983"><ele>589.0</ele><time>2026-04-18T11:15:43.012Z</time></trkpt><trkpt lat="43.9819145" lon="11.6627177"><ele>589.0</ele><time>2026-04-18T11:15:54.132Z</time></trkpt><trkpt lat="43.9818573" lon="11.6626687"><ele>589.0</ele><time>2026-04-18T11:16:01.058Z</time></trkpt><trkpt lat="43.9818701" lon="11.6625747"><ele>589.0</ele><time>2026-04-18T11:16:09.954Z</time></trkpt><trkpt lat="43.9818698" lon="11.6624776"><ele>589.0</ele><time>2026-04-18T11:16:19.001Z</time></trkpt><trkpt lat="43.981868" lon="11.6623828"><ele>592.2857142857142</ele><time>2026-04-18T11:16:27.093Z</time></trkpt><trkpt lat="43.9818586" lon="11.662276"><ele>595.5714285714286</ele><time>2026-04-18T11:16:34.993Z</time></trkpt><trkpt lat="43.9818422" lon="11.662177"><ele>598.8571428571429</ele><time>2026-04-18T11:16:41.048Z</time></trkpt><trkpt lat="43.9818155" lon="11.6620908"><ele>602.1428571428571</ele><time>2026-04-18T11:16:47.97Z</time></trkpt><trkpt lat="43.9817827" lon="11.6620128"><ele>605.4285714285714</ele><time>2026-04-18T11:16:56.07Z</time></trkpt><trkpt lat="43.9817615" lon="11.6619276"><ele>608.7142857142857</ele><time>2026-04-18T11:17:04.032Z</time></trkpt><trkpt lat="43.9817676" lon="11.6618403"><ele>612.0</ele><time>2026-04-18T11:17:14.118Z</time></trkpt><trkpt lat="43.9817927" lon="11.6617441"><ele>614.7142857142857</ele><time>2026-04-18T11:17:24.086Z</time></trkpt><trkpt lat="43.9818081" lon="11.661657"><ele>617.4285714285714</ele><time>2026-04-18T11:17:31.123Z</time></trkpt><trkpt lat="43.9818327" lon="11.6615744"><ele>620.1428571428571</ele><time>2026-04-18T11:17:39.096Z</time></trkpt><trkpt lat="43.981855" lon="11.6614849"><ele>622.8571428571429</ele><time>2026-04-18T11:17:47.034Z</time></trkpt><trkpt lat="43.9818837" lon="11.6613912"><ele>625.5714285714286</ele><time>2026-04-18T11:17:53.008Z</time></trkpt><trkpt lat="43.9818648" lon="11.6612993"><ele>628.2857142857143</ele><time>2026-04-18T11:17:58.069Z</time></trkpt><trkpt lat="43.9818746" lon="11.6611987"><ele>631.0</ele><time>2026-04-18T11:18:07.002Z</time></trkpt><trkpt lat="43.9818314" lon="11.6611215"><ele>629.8571428571429</ele><time>2026-04-18T11:18:14.992Z</time></trkpt><trkpt lat="43.9817906" lon="11.6610442"><ele>628.7142857142857</ele><time>2026-04-18T11:18:23.007Z</time></trkpt><trkpt lat="43.9817858" lon="11.6609453"><ele>627.5714285714286</ele><time>2026-04-18T11:18:29.079Z</time></trkpt><trkpt lat="43.9817954" lon="11.6608371"><ele>626.4285714285714</ele><time>2026-04-18T11:18:35.106Z</time></trkpt><trkpt lat="43.9817585" lon="11.6607612"><ele>625.2857142857142</ele><time>2026-04-18T11:18:45.028Z</time></trkpt><trkpt lat="43.9816996" lon="11.6607055"><ele>624.1428571428571</ele><time>2026-04-18T11:18:51.995Z</time></trkpt><trkpt lat="43.9816742" lon="11.6606225"><ele>623.0</ele><time>2026-04-18T11:19:00.008Z</time></trkpt><trkpt lat="43.9816899" lon="11.6605163"><ele>623.0</ele><time>2026-04-18T11:19:34.036Z</time></trkpt><trkpt lat="43.9817646" lon="11.660449"><ele>623.0</ele><time>2026-04-18T11:20:00.02Z</time></trkpt><trkpt lat="43.9816996" lon="11.6604761"><ele>623.0</ele><time>2026-04-18T11:20:05.062Z</time></trkpt><trkpt lat="43.9816414" lon="11.6605213"><ele>623.0</ele><time>2026-04-18T11:20:28.029Z</time></trkpt><trkpt lat="43.9815633" lon="11.6605683"><ele>623.0</ele><time>2026-04-18T11:20:58.005Z</time></trkpt><trkpt lat="43.9816184" lon="11.6605217"><ele>623.0</ele><time>2026-04-18T11:21:05.992Z</time></trkpt><trkpt lat="43.9815717" lon="11.6604583"><ele>623.0</ele><time>2026-04-18T11:22:26.994Z</time></trkpt><trkpt lat="43.981525" lon="11.660395"><ele>616.4285714285714</ele><time>2026-04-18T11:22:29.99Z</time></trkpt><trkpt lat="43.9814634" lon="11.660415"><ele>609.8571428571429</ele><time>2026-04-18T11:22:44.99Z</time></trkpt><trkpt lat="43.9813821" lon="11.660369"><ele>603.2857142857142</ele><time>2026-04-18T11:23:41.058Z</time></trkpt><trkpt lat="43.9814246" lon="11.6604416"><ele>596.7142857142858</ele><time>2026-04-18T11:24:11.993Z</time></trkpt><trkpt lat="43.9814848" lon="11.6603771"><ele>590.1428571428571</ele><time>2026-04-18T11:24:42.09Z</time></trkpt><trkpt lat="43.9815191" lon="11.6602951"><ele>583.5714285714286</ele><time>2026-04-18T11:24:46.996Z</time></trkpt><trkpt lat="43.9814958" lon="11.6603768"><ele>577.0</ele><time>2026-04-18T11:25:35.08Z</time></trkpt><trkpt lat="43.981432" lon="11.6603917"><ele>577.0</ele><time>2026-04-18T11:25:43.172Z</time></trkpt><trkpt lat="43.9815354" lon="11.6603673"><ele>577.0</ele><time>2026-04-18T11:26:11.083Z</time></trkpt><trkpt lat="43.9815881" lon="11.660271"><ele>577.0</ele><time>2026-04-18T11:26:59.027Z</time></trkpt><trkpt lat="43.9816782" lon="11.6602906"><ele>577.0</ele><time>2026-04-18T11:34:41.085Z</time></trkpt><trkpt lat="43.9816096" lon="11.6603678"><ele>577.0</ele><time>2026-04-18T11:35:24.003Z</time></trkpt><trkpt lat="43.981541" lon="11.6603938"><ele>577.0</ele><time>2026-04-18T11:35:30.101Z</time></trkpt><trkpt lat="43.9816077" lon="11.6603868"><ele>577.0</ele><time>2026-04-18T11:36:37.998Z</time></trkpt><trkpt lat="43.9815457" lon="11.6603693"><ele>577.0</ele><time>2026-04-18T11:37:23.028Z</time></trkpt><trkpt lat="43.9815805" lon="11.6602902"><ele>577.0</ele><time>2026-04-18T11:52:10.015Z</time></trkpt><trkpt lat="43.9815661" lon="11.6603865"><ele>577.0</ele><time>2026-04-18T11:53:24.009Z</time></trkpt><trkpt lat="43.9815349" lon="11.6604649"><ele>577.0</ele><time>2026-04-18T11:53:29.041Z</time></trkpt><trkpt lat="43.9815916" lon="11.6605195"><ele>577.0</ele><time>2026-04-18T11:53:38.113Z</time></trkpt><trkpt lat="43.9816551" lon="11.6604748"><ele>577.0</ele><time>2026-04-18T11:53:44.051Z</time></trkpt><trkpt lat="43.9816534" lon="11.6603761"><ele>577.7142857142857</ele><time>2026-04-18T11:53:54.018Z</time></trkpt><trkpt lat="43.9816362" lon="11.6602743"><ele>578.4285714285714</ele><time>2026-04-18T11:54:00.011Z</time></trkpt><trkpt lat="43.9816086" lon="11.6601786"><ele>579.1428571428571</ele><time>2026-04-18T11:54:06.093Z</time></trkpt><trkpt lat="43.9816136" lon="11.6600899"><ele>579.8571428571429</ele><time>2026-04-18T11:54:13.132Z</time></trkpt><trkpt lat="43.981613" lon="11.6599992"><ele>580.5714285714286</ele><time>2026-04-18T11:54:20.05Z</time></trkpt><trkpt lat="43.9816284" lon="11.6599061"><ele>581.2857142857142</ele><time>2026-04-18T11:54:26.032Z</time></trkpt><trkpt lat="43.9816502" lon="11.6598126"><ele>582.0</ele><time>2026-04-18T11:54:33.066Z</time></trkpt><trkpt lat="43.9816932" lon="11.6597368"><ele>586.5714285714286</ele><time>2026-04-18T11:54:38.065Z</time></trkpt><trkpt lat="43.9817211" lon="11.6596551"><ele>591.1428571428571</ele><time>2026-04-18T11:54:43.99Z</time></trkpt><trkpt lat="43.9817511" lon="11.6597629"><ele>595.7142857142857</ele><time>2026-04-18T11:54:52.036Z</time></trkpt><trkpt lat="43.9817706" lon="11.6596648"><ele>600.2857142857142</ele><time>2026-04-18T11:55:03.069Z</time></trkpt><trkpt lat="43.981762" lon="11.6595728"><ele>604.8571428571429</ele><time>2026-04-18T11:55:09.05Z</time></trkpt><trkpt lat="43.9817812" lon="11.6594852"><ele>609.4285714285713</ele><time>2026-04-18T11:55:17.118Z</time></trkpt><trkpt lat="43.9818296" lon="11.6594131"><ele>614.0</ele><time>2026-04-18T11:55:37.025Z</time></trkpt><trkpt lat="43.9818531" lon="11.6593258"><ele>613.9999999999999</ele><time>2026-04-18T11:55:46.055Z</time></trkpt><trkpt lat="43.9819043" lon="11.6592634"><ele>614.0</ele><time>2026-04-18T11:55:58.017Z</time></trkpt><trkpt lat="43.9819663" lon="11.6592402"><ele>614.0</ele><time>2026-04-18T11:56:06.109Z</time></trkpt><trkpt lat="43.9820304" lon="11.6592095"><ele>614.0</ele><time>2026-04-18T11:56:17.013Z</time></trkpt><trkpt lat="43.9820853" lon="11.659165"><ele>614.0</ele><time>2026-04-18T11:56:24.049Z</time></trkpt><trkpt lat="43.9821675" lon="11.6591054"><ele>613.9999999999999</ele><time>2026-04-18T11:56:41.151Z</time></trkpt><trkpt lat="43.9822368" lon="11.6590952"><ele>614.0</ele><time>2026-04-18T11:56:49.028Z</time></trkpt><trkpt lat="43.9822542" lon="11.6589908"><ele>613.9999999999999</ele><time>2026-04-18T11:57:04.037Z</time></trkpt><trkpt lat="43.9823179" lon="11.6589798"><ele>614.0</ele><time>2026-04-18T11:57:14.09Z</time></trkpt><trkpt lat="43.9823826" lon="11.6589547"><ele>614.0</ele><time>2026-04-18T11:57:23.033Z</time></trkpt><trkpt lat="43.9824186" lon="11.6588537"><ele>614.0</ele><time>2026-04-18T11:58:05.015Z</time></trkpt><trkpt lat="43.9824621" lon="11.6587586"><ele>614.0</ele><time>2026-04-18T11:58:20.024Z</time></trkpt><trkpt lat="43.9825248" lon="11.6587935"><ele>613.9999999999999</ele><time>2026-04-18T11:58:28.115Z</time></trkpt><trkpt lat="43.9825856" lon="11.6587601"><ele>614.0</ele><time>2026-04-18T11:59:01.07Z</time></trkpt><trkpt lat="43.9825492" lon="11.6586808"><ele>617.7142857142857</ele><time>2026-04-18T11:59:50.089Z</time></trkpt><trkpt lat="43.982565" lon="11.6585842"><ele>621.4285714285714</ele><time>2026-04-18T12:00:00.995Z</time></trkpt><trkpt lat="43.9826226" lon="11.6585396"><ele>625.1428571428571</ele><time>2026-04-18T12:00:07.093Z</time></trkpt><trkpt lat="43.9826698" lon="11.6584694"><ele>628.8571428571429</ele><time>2026-04-18T12:00:15.068Z</time></trkpt><trkpt lat="43.9826781" lon="11.6583666"><ele>632.5714285714286</ele><time>2026-04-18T12:00:24.076Z</time></trkpt><trkpt lat="43.9826965" lon="11.6582751"><ele>636.2857142857142</ele><time>2026-04-18T12:00:33.01Z</time></trkpt><trkpt lat="43.9827141" lon="11.6581835"><ele>640.0</ele><time>2026-04-18T12:00:40.045Z</time></trkpt><trkpt lat="43.9827542" lon="11.6581097"><ele>640.0</ele><time>2026-04-18T12:00:52.006Z</time></trkpt><trkpt lat="43.9827795" lon="11.6580283"><ele>640.0</ele><time>2026-04-18T12:00:59.042Z</time></trkpt><trkpt lat="43.9828109" lon="11.6579496"><ele>640.0</ele><time>2026-04-18T12:01:09.01Z</time></trkpt><trkpt lat="43.9828493" lon="11.6578757"><ele>640.0</ele><time>2026-04-18T12:01:17.101Z</time></trkpt><trkpt lat="43.9829094" lon="11.6578322"><ele>640.0</ele><time>2026-04-18T12:01:25.076Z</time></trkpt><trkpt lat="43.9829754" lon="11.6578581"><ele>640.0</ele><time>2026-04-18T12:01:31.056Z</time></trkpt><trkpt lat="43.9830435" lon="11.657872"><ele>640.0</ele><time>2026-04-18T12:01:38.092Z</time></trkpt><trkpt lat="43.9831077" lon="11.657865"><ele>640.0</ele><time>2026-04-18T12:01:48.01Z</time></trkpt><trkpt lat="43.9831722" lon="11.657871"><ele>640.0</ele><time>2026-04-18T12:02:03.07Z</time></trkpt><trkpt lat="43.9832383" lon="11.6578865"><ele>640.0</ele><time>2026-04-18T12:02:14.093Z</time></trkpt><trkpt lat="43.98321" lon="11.6577148"><ele>640.0</ele><time>2026-04-18T12:02:59.989Z</time></trkpt><trkpt lat="43.9832926" lon="11.6577348"><ele>640.0</ele><time>2026-04-18T12:03:30.165Z</time></trkpt><trkpt lat="43.9832915" lon="11.6575134"><ele>636.6666666666667</ele><time>2026-04-18T12:03:33.039Z</time></trkpt><trkpt lat="43.9832971" lon="11.6576293"><ele>633.3333333333334</ele><time>2026-04-18T12:04:03.99Z</time></trkpt><trkpt lat="43.9833634" lon="11.6576445"><ele>630.0</ele><time>2026-04-18T12:04:17.017Z</time></trkpt><trkpt lat="43.9834213" lon="11.657587"><ele>626.6666666666666</ele><time>2026-04-18T12:04:34.991Z</time></trkpt><trkpt lat="43.9835366" lon="11.657587"><ele>623.3333333333333</ele><time>2026-04-18T12:05:14.082Z</time></trkpt><trkpt lat="43.9836009" lon="11.6575642"><ele>620.0</ele><time>2026-04-18T12:06:18.023Z</time></trkpt><trkpt lat="43.9836659" lon="11.6575776"><ele>626.0</ele><time>2026-04-18T12:06:28.109Z</time></trkpt><trkpt lat="43.9837174" lon="11.6575197"><ele>632.0</ele><time>2026-04-18T12:06:45.116Z</time></trkpt><trkpt lat="43.9837636" lon="11.6574578"><ele>638.0</ele><time>2026-04-18T12:06:52.034Z</time></trkpt><trkpt lat="43.9838385" lon="11.6574603"><ele>644.0</ele><time>2026-04-18T12:07:15.296Z</time></trkpt><trkpt lat="43.9838802" lon="11.6575268"><ele>650.0</ele><time>2026-04-18T12:07:28.069Z</time></trkpt><trkpt lat="43.9839332" lon="11.6574654"><ele>656.0</ele><time>2026-04-18T12:07:37.069Z</time></trkpt><trkpt lat="43.9839588" lon="11.6573814"><ele>662.0</ele><time>2026-04-18T12:07:47.036Z</time></trkpt><trkpt lat="43.983948" lon="11.6572862"><ele>662.0</ele><time>2026-04-18T12:07:57.468Z</time></trkpt><trkpt lat="43.9839595" lon="11.6571983"><ele>662.0</ele><time>2026-04-18T12:08:04.041Z</time></trkpt><trkpt lat="43.9839952" lon="11.6571236"><ele>662.0</ele><time>2026-04-18T12:08:16.004Z</time></trkpt><trkpt lat="43.9840031" lon="11.6570363"><ele>662.0</ele><time>2026-04-18T12:08:24.096Z</time></trkpt><trkpt lat="43.9839891" lon="11.6569436"><ele>662.0</ele><time>2026-04-18T12:08:37.068Z</time></trkpt><trkpt lat="43.9840672" lon="11.6569027"><ele>662.0</ele><time>2026-04-18T12:08:55.049Z</time></trkpt><trkpt lat="43.9841417" lon="11.6568677"><ele>662.0</ele><time>2026-04-18T12:09:09.011Z</time></trkpt><trkpt lat="43.9842034" lon="11.6568342"><ele>666.5</ele><time>2026-04-18T12:09:24.022Z</time></trkpt><trkpt lat="43.9842569" lon="11.656786"><ele>671.0</ele><time>2026-04-18T12:09:31.097Z</time></trkpt><trkpt lat="43.984275" lon="11.6566938"><ele>675.5</ele><time>2026-04-18T12:09:39.032Z</time></trkpt><trkpt lat="43.9843156" lon="11.6566047"><ele>680.0</ele><time>2026-04-18T12:09:46.069Z</time></trkpt><trkpt lat="43.9843675" lon="11.6565525"><ele>684.5</ele><time>2026-04-18T12:09:52.988Z</time></trkpt><trkpt lat="43.9843642" lon="11.6564571"><ele>689.0</ele><time>2026-04-18T12:10:01.079Z</time></trkpt><trkpt lat="43.9844816" lon="11.6564614"><ele>689.0</ele><time>2026-04-18T12:10:34.992Z</time></trkpt><trkpt lat="43.9845445" lon="11.6564741"><ele>689.0</ele><time>2026-04-18T12:10:44.119Z</time></trkpt><trkpt lat="43.9845512" lon="11.6563799"><ele>689.0</ele><time>2026-04-18T12:10:54.087Z</time></trkpt><trkpt lat="43.9845917" lon="11.6563077"><ele>689.0</ele><time>2026-04-18T12:11:04.996Z</time></trkpt><trkpt lat="43.9846453" lon="11.6562589"><ele>689.0</ele><time>2026-04-18T12:11:10.035Z</time></trkpt><trkpt lat="43.9846976" lon="11.6561944"><ele>689.0</ele><time>2026-04-18T12:11:17.071Z</time></trkpt><trkpt lat="43.9847421" lon="11.6561287"><ele>689.0</ele><time>2026-04-18T12:11:27.04Z</time></trkpt><trkpt lat="43.9848009" lon="11.656086"><ele>686.8571428571429</ele><time>2026-04-18T12:11:35.014Z</time></trkpt><trkpt lat="43.9848378" lon="11.6560108"><ele>684.7142857142858</ele><time>2026-04-18T12:11:43.105Z</time></trkpt><trkpt lat="43.9848613" lon="11.6559228"><ele>682.5714285714287</ele><time>2026-04-18T12:11:50.008Z</time></trkpt><trkpt lat="43.98492" lon="11.6558816"><ele>680.4285714285714</ele><time>2026-04-18T12:11:57.054Z</time></trkpt><trkpt lat="43.9849685" lon="11.65581"><ele>678.2857142857143</ele><time>2026-04-18T12:12:05.034Z</time></trkpt><trkpt lat="43.9850064" lon="11.6557325"><ele>676.1428571428572</ele><time>2026-04-18T12:12:14.064Z</time></trkpt><trkpt lat="43.9850113" lon="11.6556423"><ele>674.0</ele><time>2026-04-18T12:12:24.032Z</time></trkpt><trkpt lat="43.9850451" lon="11.6555556"><ele>677.0000000000001</ele><time>2026-04-18T12:12:32.007Z</time></trkpt><trkpt lat="43.9850496" lon="11.6554586"><ele>680.0</ele><time>2026-04-18T12:12:38.105Z</time></trkpt><trkpt lat="43.9850397" lon="11.6553586"><ele>683.0</ele><time>2026-04-18T12:12:43.03Z</time></trkpt><trkpt lat="43.9850539" lon="11.6552684"><ele>686.0</ele><time>2026-04-18T12:12:48.996Z</time></trkpt><trkpt lat="43.9850425" lon="11.6551788"><ele>689.0</ele><time>2026-04-18T12:12:55.157Z</time></trkpt><trkpt lat="43.9850543" lon="11.6550894"><ele>692.0000000000001</ele><time>2026-04-18T12:13:02.028Z</time></trkpt><trkpt lat="43.9850593" lon="11.6549898"><ele>695.0</ele><time>2026-04-18T12:13:12.009Z</time></trkpt><trkpt lat="43.9850954" lon="11.6549127"><ele>695.0000000000001</ele><time>2026-04-18T12:13:19.033Z</time></trkpt><trkpt lat="43.9851032" lon="11.6548128"><ele>695.0</ele><time>2026-04-18T12:13:27.007Z</time></trkpt><trkpt lat="43.9851202" lon="11.6547112"><ele>695.0</ele><time>2026-04-18T12:13:34.043Z</time></trkpt><trkpt lat="43.9851368" lon="11.6546137"><ele>695.0</ele><time>2026-04-18T12:13:40.024Z</time></trkpt><trkpt lat="43.9851576" lon="11.6545306"><ele>695.0</ele><time>2026-04-18T12:13:46.139Z</time></trkpt><trkpt lat="43.9851814" lon="11.6544387"><ele>695.0000000000001</ele><time>2026-04-18T12:13:51.97Z</time></trkpt><trkpt lat="43.9852197" lon="11.6543656"><ele>695.0</ele><time>2026-04-18T12:13:58.009Z</time></trkpt><trkpt lat="43.9852275" lon="11.6542754"><ele>693.2857142857143</ele><time>2026-04-18T12:14:04.966Z</time></trkpt><trkpt lat="43.9852342" lon="11.6541776"><ele>691.5714285714286</ele><time>2026-04-18T12:14:14.033Z</time></trkpt><trkpt lat="43.9852667" lon="11.6541008"><ele>689.8571428571429</ele><time>2026-04-18T12:14:20.013Z</time></trkpt><trkpt lat="43.9853114" lon="11.6540277"><ele>688.1428571428571</ele><time>2026-04-18T12:14:27.111Z</time></trkpt><trkpt lat="43.9853469" lon="11.6539391"><ele>686.4285714285714</ele><time>2026-04-18T12:14:35.024Z</time></trkpt><trkpt lat="43.9853953" lon="11.653869"><ele>684.7142857142858</ele><time>2026-04-18T12:14:41.122Z</time></trkpt><trkpt lat="43.9854524" lon="11.6538308"><ele>683.0</ele><time>2026-04-18T12:14:48.035Z</time></trkpt><trkpt lat="43.9855201" lon="11.6538116"><ele>683.0</ele><time>2026-04-18T12:14:55.077Z</time></trkpt><trkpt lat="43.9855777" lon="11.6537553"><ele>683.0</ele><time>2026-04-18T12:15:02.113Z</time></trkpt><trkpt lat="43.9856217" lon="11.6536927"><ele>683.0</ele><time>2026-04-18T12:15:08.093Z</time></trkpt><trkpt lat="43.9856706" lon="11.6536302"><ele>683.0</ele><time>2026-04-18T12:15:14.075Z</time></trkpt><trkpt lat="43.9857036" lon="11.6535505"><ele>683.0</ele><time>2026-04-18T12:15:21.11Z</time></trkpt><trkpt lat="43.9857309" lon="11.6534689"><ele>683.0</ele><time>2026-04-18T12:15:28.03Z</time></trkpt><trkpt lat="43.9857953" lon="11.6534535"><ele>683.0</ele><time>2026-04-18T12:15:34.394Z</time></trkpt><trkpt lat="43.9858607" lon="11.6534712"><ele>682.5714285714286</ele><time>2026-04-18T12:15:40.109Z</time></trkpt><trkpt lat="43.985932" lon="11.6534395"><ele>682.1428571428571</ele><time>2026-04-18T12:15:47.028Z</time></trkpt><trkpt lat="43.9859903" lon="11.6533838"><ele>681.7142857142858</ele><time>2026-04-18T12:15:53.009Z</time></trkpt><trkpt lat="43.9860324" lon="11.6533072"><ele>681.2857142857142</ele><time>2026-04-18T12:16:00.045Z</time></trkpt><trkpt lat="43.9860518" lon="11.6532228"><ele>680.8571428571428</ele><time>2026-04-18T12:16:05.091Z</time></trkpt><trkpt lat="43.9860938" lon="11.6531567"><ele>680.4285714285714</ele><time>2026-04-18T12:16:11.068Z</time></trkpt><trkpt lat="43.9861288" lon="11.6530828"><ele>680.0</ele><time>2026-04-18T12:16:19.042Z</time></trkpt><trkpt lat="43.986174" lon="11.6530192"><ele>680.0</ele><time>2026-04-18T12:16:26.079Z</time></trkpt><trkpt lat="43.9862337" lon="11.6529556"><ele>680.0</ele><time>2026-04-18T12:16:32.058Z</time></trkpt><trkpt lat="43.9862836" lon="11.6528935"><ele>680.0</ele><time>2026-04-18T12:16:37.102Z</time></trkpt><trkpt lat="43.9863293" lon="11.6528295"><ele>680.0</ele><time>2026-04-18T12:16:43.057Z</time></trkpt><trkpt lat="43.9863317" lon="11.652737"><ele>680.0</ele><time>2026-04-18T12:16:51.056Z</time></trkpt><trkpt lat="43.9863888" lon="11.6526783"><ele>680.0</ele><time>2026-04-18T12:17:00.087Z</time></trkpt><trkpt lat="43.9864519" lon="11.6527096"><ele>680.0</ele><time>2026-04-18T12:17:07.614Z</time></trkpt><trkpt lat="43.9865177" lon="11.6527088"><ele>681.0</ele><time>2026-04-18T12:17:15.096Z</time></trkpt><trkpt lat="43.9865367" lon="11.6526199"><ele>682.0</ele><time>2026-04-18T12:17:22.53Z</time></trkpt><trkpt lat="43.9865689" lon="11.6525319"><ele>683.0</ele><time>2026-04-18T12:17:28.049Z</time></trkpt><trkpt lat="43.9865978" lon="11.6524474"><ele>684.0</ele><time>2026-04-18T12:17:34.095Z</time></trkpt><trkpt lat="43.9866129" lon="11.6523501"><ele>685.0</ele><time>2026-04-18T12:17:42.068Z</time></trkpt><trkpt lat="43.9866596" lon="11.652271"><ele>686.0</ele><time>2026-04-18T12:17:49.105Z</time></trkpt><trkpt lat="43.9867249" lon="11.6522058"><ele>687.0</ele><time>2026-04-18T12:18:19.125Z</time></trkpt><trkpt lat="43.9867925" lon="11.6521722"><ele>687.0</ele><time>2026-04-18T12:18:25.107Z</time></trkpt><trkpt lat="43.9868606" lon="11.6521472"><ele>687.0</ele><time>2026-04-18T12:18:30.031Z</time></trkpt><trkpt lat="43.9869186" lon="11.6520958"><ele>687.0</ele><time>2026-04-18T12:18:34.019Z</time></trkpt><trkpt lat="43.9869818" lon="11.6520483"><ele>687.0</ele><time>2026-04-18T12:18:40Z</time></trkpt><trkpt lat="43.9870027" lon="11.6519592"><ele>687.0</ele><time>2026-04-18T12:18:47.035Z</time></trkpt><trkpt lat="43.9870351" lon="11.651884"><ele>687.0</ele><time>2026-04-18T12:18:53.016Z</time></trkpt><trkpt lat="43.9870796" lon="11.651812"><ele>687.0</ele><time>2026-04-18T12:19:00.053Z</time></trkpt><trkpt lat="43.9871483" lon="11.6517659"><ele>684.0</ele><time>2026-04-18T12:19:06.032Z</time></trkpt><trkpt lat="43.9871938" lon="11.6516998"><ele>681.0</ele><time>2026-04-18T12:19:10.894Z</time></trkpt><trkpt lat="43.9872488" lon="11.6516383"><ele>678.0</ele><time>2026-04-18T12:19:19.112Z</time></trkpt><trkpt lat="43.9872764" lon="11.6515553"><ele>675.0</ele><time>2026-04-18T12:19:27.024Z</time></trkpt><trkpt lat="43.9873047" lon="11.6514744"><ele>672.0</ele><time>2026-04-18T12:19:34.059Z</time></trkpt><trkpt lat="43.9873363" lon="11.6513879"><ele>669.0</ele><time>2026-04-18T12:19:42.096Z</time></trkpt><trkpt lat="43.9873682" lon="11.6512996"><ele>666.0</ele><time>2026-04-18T12:19:48.928Z</time></trkpt><trkpt lat="43.9874023" lon="11.651213"><ele>667.0</ele><time>2026-04-18T12:19:55.993Z</time></trkpt><trkpt lat="43.9874216" lon="11.6511196"><ele>668.0</ele><time>2026-04-18T12:20:02.088Z</time></trkpt><trkpt lat="43.9874502" lon="11.6510338"><ele>669.0</ele><time>2026-04-18T12:20:11.117Z</time></trkpt><trkpt lat="43.9875097" lon="11.6509829"><ele>670.0</ele><time>2026-04-18T12:20:16.043Z</time></trkpt><trkpt lat="43.9875656" lon="11.6509174"><ele>671.0</ele><time>2026-04-18T12:20:22.023Z</time></trkpt><trkpt lat="43.9875838" lon="11.6508336"><ele>672.0</ele><time>2026-04-18T12:20:30.111Z</time></trkpt><trkpt lat="43.9876166" lon="11.6507506"><ele>673.0</ele><time>2026-04-18T12:20:39.093Z</time></trkpt><trkpt lat="43.9876769" lon="11.6506804"><ele>673.0</ele><time>2026-04-18T12:20:44.936Z</time></trkpt><trkpt lat="43.9877438" lon="11.650657"><ele>673.0</ele><time>2026-04-18T12:20:51.111Z</time></trkpt><trkpt lat="43.9878078" lon="11.6506375"><ele>673.0</ele><time>2026-04-18T12:20:59.074Z</time></trkpt><trkpt lat="43.9878622" lon="11.6505915"><ele>673.0</ele><time>2026-04-18T12:21:19.083Z</time></trkpt><trkpt lat="43.987805" lon="11.6505126"><ele>673.0</ele><time>2026-04-18T12:21:40.046Z</time></trkpt><trkpt lat="43.9878284" lon="11.6504199"><ele>673.0</ele><time>2026-04-18T12:21:59.017Z</time></trkpt><trkpt lat="43.9878956" lon="11.6503974"><ele>673.0</ele><time>2026-04-18T12:22:08.047Z</time></trkpt><trkpt lat="43.9879322" lon="11.6504792"><ele>673.0</ele><time>2026-04-18T12:22:17.078Z</time></trkpt><trkpt lat="43.987982" lon="11.6505366"><ele>673.0</ele><time>2026-04-18T12:22:25.988Z</time></trkpt><trkpt lat="43.9880468" lon="11.6505649"><ele>673.0</ele><time>2026-04-18T12:22:34.082Z</time></trkpt><trkpt lat="43.9881163" lon="11.6505554"><ele>673.0</ele><time>2026-04-18T12:22:40.063Z</time></trkpt><trkpt lat="43.9881587" lon="11.6504842"><ele>673.0</ele><time>2026-04-18T12:22:51.074Z</time></trkpt><trkpt lat="43.9881905" lon="11.6503987"><ele>673.0</ele><time>2026-04-18T12:23:03.048Z</time></trkpt><trkpt lat="43.9882397" lon="11.6503315"><ele>673.0</ele><time>2026-04-18T12:23:11.022Z</time></trkpt><trkpt lat="43.9882509" lon="11.6502434"><ele>673.1666666666667</ele><time>2026-04-18T12:23:22.972Z</time></trkpt><trkpt lat="43.9883052" lon="11.6501895"><ele>673.3333333333334</ele><time>2026-04-18T12:23:32.015Z</time></trkpt><trkpt lat="43.9883597" lon="11.6501403"><ele>673.5</ele><time>2026-04-18T12:23:37.749Z</time></trkpt><trkpt lat="43.9884248" lon="11.6499468"><ele>673.6666666666666</ele><time>2026-04-18T12:24:21.07Z</time></trkpt><trkpt lat="43.9883589" lon="11.6499427"><ele>673.8333333333333</ele><time>2026-04-18T12:24:39.042Z</time></trkpt><trkpt lat="43.9883782" lon="11.6498559"><ele>674.0</ele><time>2026-04-18T12:25:26.972Z</time></trkpt><trkpt lat="43.9884552" lon="11.6498487"><ele>674.0000000000001</ele><time>2026-04-18T12:25:54.056Z</time></trkpt><trkpt lat="43.988516" lon="11.6498744"><ele>674.0</ele><time>2026-04-18T12:25:58.043Z</time></trkpt><trkpt lat="43.9885765" lon="11.649912"><ele>674.0</ele><time>2026-04-18T12:26:04.025Z</time></trkpt><trkpt lat="43.9886225" lon="11.649974"><ele>674.0</ele><time>2026-04-18T12:26:12.993Z</time></trkpt><trkpt lat="43.9886847" lon="11.6499454"><ele>674.0</ele><time>2026-04-18T12:26:33.047Z</time></trkpt><trkpt lat="43.9887583" lon="11.6498707"><ele>674.0000000000001</ele><time>2026-04-18T12:26:53.045Z</time></trkpt><trkpt lat="43.98881" lon="11.6498052"><ele>674.0</ele><time>2026-04-18T12:27:01.137Z</time></trkpt><trkpt lat="43.9888697" lon="11.6497609"><ele>674.0</ele><time>2026-04-18T12:27:12.041Z</time></trkpt><trkpt lat="43.9888878" lon="11.6496653"><ele>674.0</ele><time>2026-04-18T12:27:20.991Z</time></trkpt><trkpt lat="43.9889349" lon="11.6495974"><ele>674.0</ele><time>2026-04-18T12:27:31.039Z</time></trkpt><trkpt lat="43.9889628" lon="11.649516"><ele>674.0</ele><time>2026-04-18T12:27:44.056Z</time></trkpt><trkpt lat="43.9888691" lon="11.6494513"><ele>674.0</ele><time>2026-04-18T12:27:45.102Z</time></trkpt><trkpt lat="43.9887527" lon="11.6493764"><ele>674.0</ele><time>2026-04-18T12:28:20.086Z</time></trkpt><trkpt lat="43.9887515" lon="11.6492824"><ele>671.0000000000001</ele><time>2026-04-18T12:28:32.05Z</time></trkpt><trkpt lat="43.9887231" lon="11.6491886"><ele>668.0</ele><time>2026-04-18T12:28:37.092Z</time></trkpt><trkpt lat="43.9887268" lon="11.6490988"><ele>665.0</ele><time>2026-04-18T12:28:42.973Z</time></trkpt><trkpt lat="43.988766" lon="11.6490268"><ele>662.0</ele><time>2026-04-18T12:28:50.104Z</time></trkpt><trkpt lat="43.9888202" lon="11.6489732"><ele>659.0</ele><time>2026-04-18T12:29:01.011Z</time></trkpt><trkpt lat="43.9888843" lon="11.6489303"><ele>656.0000000000001</ele><time>2026-04-18T12:29:07.109Z</time></trkpt><trkpt lat="43.9889511" lon="11.6489024"><ele>653.0</ele><time>2026-04-18T12:29:14.029Z</time></trkpt><trkpt lat="43.9890149" lon="11.6489039"><ele>653.0</ele><time>2026-04-18T12:29:22.12Z</time></trkpt><trkpt lat="43.9890304" lon="11.6487751"><ele>653.0</ele><time>2026-04-18T12:29:39.112Z</time></trkpt><trkpt lat="43.9890152" lon="11.6486871"><ele>653.0</ele><time>2026-04-18T12:29:43.046Z</time></trkpt><trkpt lat="43.9890332" lon="11.6486013"><ele>653.0</ele><time>2026-04-18T12:29:52.076Z</time></trkpt><trkpt lat="43.9894754" lon="11.6487189"><ele>657.0</ele><time>2026-04-18T12:30:14.012Z</time></trkpt><trkpt lat="43.9899143" lon="11.6485894"><ele>661.0</ele><time>2026-04-18T12:30:15.063Z</time></trkpt><trkpt lat="43.9900889" lon="11.6485148"><ele>661.0</ele><time>2026-04-18T12:30:16.065Z</time></trkpt><trkpt lat="43.9899753" lon="11.6484996"><ele>661.0</ele><time>2026-04-18T12:30:17.989Z</time></trkpt><trkpt lat="43.9899017" lon="11.6485036"><ele>661.0</ele><time>2026-04-18T12:30:19.036Z</time></trkpt><trkpt lat="43.9896929" lon="11.6485284"><ele>661.0</ele><time>2026-04-18T12:30:21.031Z</time></trkpt><trkpt lat="43.9894773" lon="11.6485288"><ele>661.0</ele><time>2026-04-18T12:30:23.025Z</time></trkpt><trkpt lat="43.9893807" lon="11.6485233"><ele>661.0</ele><time>2026-04-18T12:30:24.08Z</time></trkpt><trkpt lat="43.989317" lon="11.6485187"><ele>661.0</ele><time>2026-04-18T12:30:26.074Z</time></trkpt><trkpt lat="43.9891404" lon="11.6485274"><ele>661.0</ele><time>2026-04-18T12:30:32.994Z</time></trkpt><trkpt lat="43.9892078" lon="11.6485475"><ele>661.0</ele><time>2026-04-18T12:31:25Z</time></trkpt><trkpt lat="43.9892186" lon="11.6483576"><ele>661.3333333333334</ele><time>2026-04-18T12:31:26.995Z</time></trkpt><trkpt lat="43.9891682" lon="11.6482827"><ele>661.6666666666667</ele><time>2026-04-18T12:32:06.992Z</time></trkpt><trkpt lat="43.989073" lon="11.6483169"><ele>662.0</ele><time>2026-04-18T12:32:16.046Z</time></trkpt><trkpt lat="43.9890292" lon="11.6483957"><ele>662.3333333333334</ele><time>2026-04-18T12:32:22.12Z</time></trkpt><trkpt lat="43.9890126" lon="11.648481"><ele>662.6666666666666</ele><time>2026-04-18T12:32:28.101Z</time></trkpt><trkpt lat="43.9890136" lon="11.6485929"><ele>663.0</ele><time>2026-04-18T12:32:48.035Z</time></trkpt><trkpt lat="43.9889135" lon="11.6486854"><ele>662.9999999999999</ele><time>2026-04-18T12:32:58.973Z</time></trkpt><trkpt lat="43.9888726" lon="11.6487521"><ele>663.0</ele><time>2026-04-18T12:33:06.096Z</time></trkpt><trkpt lat="43.9889424" lon="11.6487294"><ele>663.0</ele><time>2026-04-18T12:33:15.125Z</time></trkpt><trkpt lat="43.9890096" lon="11.6487282"><ele>663.0</ele><time>2026-04-18T12:33:23.099Z</time></trkpt><trkpt lat="43.9890791" lon="11.6487081"><ele>663.0</ele><time>2026-04-18T12:33:40.096Z</time></trkpt><trkpt lat="43.9890346" lon="11.6486362"><ele>662.9999999999999</ele><time>2026-04-18T12:34:02.028Z</time></trkpt><trkpt lat="43.9890975" lon="11.6485946"><ele>663.0</ele><time>2026-04-18T12:34:19.032Z</time></trkpt><trkpt lat="43.9891613" lon="11.6485872"><ele>662.7142857142857</ele><time>2026-04-18T12:34:28.055Z</time></trkpt><trkpt lat="43.9892268" lon="11.6485455"><ele>662.4285714285714</ele><time>2026-04-18T12:34:38.14Z</time></trkpt><trkpt lat="43.9892872" lon="11.6485092"><ele>662.1428571428571</ele><time>2026-04-18T12:34:45.815Z</time></trkpt><trkpt lat="43.9893528" lon="11.648505"><ele>661.8571428571429</ele><time>2026-04-18T12:34:52.094Z</time></trkpt><trkpt lat="43.9894249" lon="11.6485125"><ele>661.5714285714286</ele><time>2026-04-18T12:35:05.112Z</time></trkpt><trkpt lat="43.9894889" lon="11.6485451"><ele>661.2857142857142</ele><time>2026-04-18T12:35:10.069Z</time></trkpt><trkpt lat="43.9895552" lon="11.6485281"><ele>661.0</ele><time>2026-04-18T12:35:18.011Z</time></trkpt><trkpt lat="43.9896193" lon="11.6484939"><ele>661.0</ele><time>2026-04-18T12:35:22.091Z</time></trkpt><trkpt lat="43.9896838" lon="11.6484664"><ele>661.0</ele><time>2026-04-18T12:35:27.04Z</time></trkpt><trkpt lat="43.9897447" lon="11.6484412"><ele>661.0</ele><time>2026-04-18T12:35:35.016Z</time></trkpt><trkpt lat="43.9898188" lon="11.6484222"><ele>661.0</ele><time>2026-04-18T12:35:39.991Z</time></trkpt><trkpt lat="43.9898811" lon="11.6483822"><ele>661.0</ele><time>2026-04-18T12:35:44.996Z</time></trkpt><trkpt lat="43.9899364" lon="11.6483172"><ele>661.0</ele><time>2026-04-18T12:35:50.025Z</time></trkpt><trkpt lat="43.9899946" lon="11.6482825"><ele>661.0</ele><time>2026-04-18T12:36:00.996Z</time></trkpt><trkpt lat="43.9899223" lon="11.6482112"><ele>664.5</ele><time>2026-04-18T12:36:02.999Z</time></trkpt><trkpt lat="43.9900717" lon="11.6482119"><ele>668.0</ele><time>2026-04-18T12:36:37.114Z</time></trkpt><trkpt lat="43.9901357" lon="11.6482242"><ele>671.5</ele><time>2026-04-18T12:36:44.034Z</time></trkpt><trkpt lat="43.9902092" lon="11.6482281"><ele>675.0</ele><time>2026-04-18T12:36:51.014Z</time></trkpt><trkpt lat="43.9902778" lon="11.6481936"><ele>678.5</ele><time>2026-04-18T12:36:57.049Z</time></trkpt><trkpt lat="43.9903417" lon="11.6481694"><ele>682.0</ele><time>2026-04-18T12:37:06.079Z</time></trkpt><trkpt lat="43.9904126" lon="11.6481715"><ele>682.0</ele><time>2026-04-18T12:37:14.053Z</time></trkpt><trkpt lat="43.9904767" lon="11.6481487"><ele>682.0</ele><time>2026-04-18T12:37:19.99Z</time></trkpt><trkpt lat="43.9904559" lon="11.6480176"><ele>682.0</ele><time>2026-04-18T12:37:23Z</time></trkpt><trkpt lat="43.9904381" lon="11.6479301"><ele>682.0</ele><time>2026-04-18T12:37:26.025Z</time></trkpt><trkpt lat="43.9905115" lon="11.6479296"><ele>682.0</ele><time>2026-04-18T12:37:48.053Z</time></trkpt><trkpt lat="43.9905794" lon="11.6479277"><ele>682.0</ele><time>2026-04-18T12:37:53.106Z</time></trkpt><trkpt lat="43.9906402" lon="11.6479027"><ele>682.0</ele><time>2026-04-18T12:37:58.021Z</time></trkpt><trkpt lat="43.9906316" lon="11.6478151"><ele>679.7142857142857</ele><time>2026-04-18T12:38:16.014Z</time></trkpt><trkpt lat="43.9906952" lon="11.6477593"><ele>677.4285714285714</ele><time>2026-04-18T12:38:26.97Z</time></trkpt><trkpt lat="43.9907502" lon="11.6477052"><ele>675.1428571428571</ele><time>2026-04-18T12:38:33.137Z</time></trkpt><trkpt lat="43.9907891" lon="11.6476259"><ele>672.8571428571429</ele><time>2026-04-18T12:38:40.053Z</time></trkpt><trkpt lat="43.9908156" lon="11.6475394"><ele>670.5714285714286</ele><time>2026-04-18T12:38:49.082Z</time></trkpt><trkpt lat="43.9908632" lon="11.6474731"><ele>668.2857142857143</ele><time>2026-04-18T12:38:58.111Z</time></trkpt><trkpt lat="43.9909117" lon="11.6474093"><ele>666.0</ele><time>2026-04-18T12:39:08.068Z</time></trkpt><trkpt lat="43.9909289" lon="11.6473213"><ele>671.0</ele><time>2026-04-18T12:39:19.102Z</time></trkpt><trkpt lat="43.9909724" lon="11.6472241"><ele>676.0</ele><time>2026-04-18T12:39:35.05Z</time></trkpt><trkpt lat="43.9909945" lon="11.6471349"><ele>681.0</ele><time>2026-04-18T12:39:43.065Z</time></trkpt><trkpt lat="43.991031" lon="11.64706"><ele>686.0</ele><time>2026-04-18T12:39:54.048Z</time></trkpt><trkpt lat="43.9910073" lon="11.6469747"><ele>691.0</ele><time>2026-04-18T12:40:30.035Z</time></trkpt><trkpt lat="43.9910699" lon="11.6469652"><ele>696.0</ele><time>2026-04-18T12:40:39.047Z</time></trkpt><trkpt lat="43.9910513" lon="11.647064"><ele>701.0</ele><time>2026-04-18T12:40:54.059Z</time></trkpt><trkpt lat="43.9911158" lon="11.6470575"><ele>701.3333333333333</ele><time>2026-04-18T12:41:10.007Z</time></trkpt><trkpt lat="43.9912223" lon="11.6469148"><ele>701.6666666666666</ele><time>2026-04-18T12:41:44.086Z</time></trkpt><trkpt lat="43.99127" lon="11.6468433"><ele>702.0</ele><time>2026-04-18T12:41:49.011Z</time></trkpt><trkpt lat="43.9912743" lon="11.6467539"><ele>702.3333333333334</ele><time>2026-04-18T12:41:58.092Z</time></trkpt><trkpt lat="43.9912926" lon="11.6466572"><ele>702.6666666666667</ele><time>2026-04-18T12:42:35.098Z</time></trkpt><trkpt lat="43.9912813" lon="11.6465657"><ele>703.0</ele><time>2026-04-18T12:42:42.017Z</time></trkpt><trkpt lat="43.991281" lon="11.6464677"><ele>703.0</ele><time>2026-04-18T12:42:51.047Z</time></trkpt><trkpt lat="43.991293" lon="11.6463758"><ele>703.0</ele><time>2026-04-18T12:43:01.133Z</time></trkpt><trkpt lat="43.9913343" lon="11.6463033"><ele>703.0</ele><time>2026-04-18T12:43:09.107Z</time></trkpt><trkpt lat="43.9913734" lon="11.6462236"><ele>703.0</ele><time>2026-04-18T12:43:17.081Z</time></trkpt><trkpt lat="43.9913602" lon="11.6461363"><ele>703.0</ele><time>2026-04-18T12:43:27.067Z</time></trkpt><trkpt lat="43.9913138" lon="11.6460729"><ele>703.0</ele><time>2026-04-18T12:43:34.989Z</time></trkpt><trkpt lat="43.991274" lon="11.6459976"><ele>703.0</ele><time>2026-04-18T12:43:55.071Z</time></trkpt><trkpt lat="43.9912581" lon="11.6459075"><ele>701.6666666666667</ele><time>2026-04-18T12:44:07.033Z</time></trkpt><trkpt lat="43.9912834" lon="11.6458269"><ele>700.3333333333334</ele><time>2026-04-18T12:44:18.054Z</time></trkpt><trkpt lat="43.991244" lon="11.6457374"><ele>699.0</ele><time>2026-04-18T12:44:24.034Z</time></trkpt><trkpt lat="43.9912724" lon="11.645654"><ele>697.6666666666666</ele><time>2026-04-18T12:44:33.064Z</time></trkpt><trkpt lat="43.9913362" lon="11.6456513"><ele>696.3333333333333</ele><time>2026-04-18T12:44:40.101Z</time></trkpt><trkpt lat="43.9912561" lon="11.6456526"><ele>695.0</ele><time>2026-04-18T12:44:58.058Z</time></trkpt><trkpt lat="43.9911623" lon="11.64557"><ele>695.0</ele><time>2026-04-18T12:45:00.989Z</time></trkpt><trkpt lat="43.9912293" lon="11.6455897"><ele>695.0</ele><time>2026-04-18T12:45:53.114Z</time></trkpt><trkpt lat="43.9912917" lon="11.6456581"><ele>695.0</ele><time>2026-04-18T12:46:22.08Z</time></trkpt><trkpt lat="43.9913458" lon="11.6457493"><ele>695.0</ele><time>2026-04-18T12:46:35.096Z</time></trkpt><trkpt lat="43.9913463" lon="11.6456373"><ele>695.0</ele><time>2026-04-18T12:47:08.065Z</time></trkpt><trkpt lat="43.9912972" lon="11.6455485"><ele>695.0</ele><time>2026-04-18T12:47:48.013Z</time></trkpt><trkpt lat="43.9912583" lon="11.6454785"><ele>695.0000000000001</ele><time>2026-04-18T12:48:11.108Z</time></trkpt><trkpt lat="43.9913016" lon="11.6453816"><ele>695.0</ele><time>2026-04-18T12:48:15.05Z</time></trkpt><trkpt lat="43.9913622" lon="11.645341"><ele>695.0</ele><time>2026-04-18T12:48:19.083Z</time></trkpt><trkpt lat="43.9914334" lon="11.6453031"><ele>695.0</ele><time>2026-04-18T12:48:24.126Z</time></trkpt><trkpt lat="43.9914974" lon="11.6452859"><ele>695.0</ele><time>2026-04-18T12:48:28.111Z</time></trkpt><trkpt lat="43.9915609" lon="11.6452478"><ele>695.0000000000001</ele><time>2026-04-18T12:48:34.092Z</time></trkpt><trkpt lat="43.9916095" lon="11.6451918"><ele>695.0</ele><time>2026-04-18T12:48:43.122Z</time></trkpt><trkpt lat="43.9916717" lon="11.6451635"><ele>696.7142857142858</ele><time>2026-04-18T12:48:51.096Z</time></trkpt><trkpt lat="43.991742" lon="11.6451639"><ele>698.4285714285714</ele><time>2026-04-18T12:48:59.07Z</time></trkpt><trkpt lat="43.9918109" lon="11.6451692"><ele>700.1428571428571</ele><time>2026-04-18T12:49:07.045Z</time></trkpt><trkpt lat="43.9918785" lon="11.6451969"><ele>701.8571428571429</ele><time>2026-04-18T12:49:11.651Z</time></trkpt><trkpt lat="43.9919436" lon="11.6452278"><ele>703.5714285714286</ele><time>2026-04-18T12:49:34.016Z</time></trkpt><trkpt lat="43.9920099" lon="11.6452129"><ele>705.2857142857143</ele><time>2026-04-18T12:49:40.109Z</time></trkpt><trkpt lat="43.9920772" lon="11.645237"><ele>707.0</ele><time>2026-04-18T12:49:47.034Z</time></trkpt><trkpt lat="43.9921494" lon="11.6452232"><ele>707.0</ele><time>2026-04-18T12:50:03.099Z</time></trkpt><trkpt lat="43.9921987" lon="11.6451585"><ele>707.0</ele><time>2026-04-18T12:50:13.068Z</time></trkpt><trkpt lat="43.9922324" lon="11.6450829"><ele>707.0</ele><time>2026-04-18T12:50:25.022Z</time></trkpt><trkpt lat="43.9921669" lon="11.6450652"><ele>707.0</ele><time>2026-04-18T12:50:38.053Z</time></trkpt><trkpt lat="43.9920879" lon="11.6449812"><ele>707.0</ele><time>2026-04-18T12:50:40.993Z</time></trkpt><trkpt lat="43.9921153" lon="11.6450686"><ele>707.0</ele><time>2026-04-18T12:51:08.034Z</time></trkpt><trkpt lat="43.9921842" lon="11.6450584"><ele>707.0</ele><time>2026-04-18T12:51:35.008Z</time></trkpt><trkpt lat="43.9922646" lon="11.6450049"><ele>707.0</ele><time>2026-04-18T12:52:04.092Z</time></trkpt><trkpt lat="43.9923012" lon="11.6449282"><ele>707.0</ele><time>2026-04-18T12:52:10.073Z</time></trkpt><trkpt lat="43.9923563" lon="11.6448853"><ele>707.0</ele><time>2026-04-18T12:52:21.052Z</time></trkpt><trkpt lat="43.9922206" lon="11.6448344"><ele>707.0</ele><time>2026-04-18T12:54:22.084Z</time></trkpt><trkpt lat="43.9921531" lon="11.6448457"><ele>707.0</ele><time>2026-04-18T12:56:15.003Z</time></trkpt><trkpt lat="43.9921244" lon="11.6449292"><ele>707.0</ele><time>2026-04-18T12:56:33.133Z</time></trkpt><trkpt lat="43.9920571" lon="11.6449487"><ele>707.0</ele><time>2026-04-18T12:57:07.07Z</time></trkpt><trkpt lat="43.9919966" lon="11.6449091"><ele>707.0</ele><time>2026-04-18T12:57:12.04Z</time></trkpt><trkpt lat="43.9919392" lon="11.6448715"><ele>707.0</ele><time>2026-04-18T12:57:20.103Z</time></trkpt><trkpt lat="43.9918735" lon="11.6448586"><ele>707.0</ele><time>2026-04-18T12:57:32.046Z</time></trkpt><trkpt lat="43.9918508" lon="11.644772"><ele>707.0</ele><time>2026-04-18T12:57:59.017Z</time></trkpt><trkpt lat="43.991815" lon="11.6446931"><ele>707.0</ele><time>2026-04-18T12:58:07.109Z</time></trkpt><trkpt lat="43.9917694" lon="11.6446262"><ele>707.0</ele><time>2026-04-18T12:58:18.062Z</time></trkpt><trkpt lat="43.9917012" lon="11.6446142"><ele>704.5714285714286</ele><time>2026-04-18T12:58:37.013Z</time></trkpt><trkpt lat="43.9916474" lon="11.6446619"><ele>702.1428571428571</ele><time>2026-04-18T12:58:49.031Z</time></trkpt><trkpt lat="43.9915639" lon="11.6446642"><ele>699.7142857142858</ele><time>2026-04-18T12:59:00.114Z</time></trkpt><trkpt lat="43.9915008" lon="11.644633"><ele>697.2857142857142</ele><time>2026-04-18T12:59:09.025Z</time></trkpt><trkpt lat="43.991447" lon="11.6445855"><ele>694.8571428571429</ele><time>2026-04-18T12:59:20.048Z</time></trkpt><trkpt lat="43.9913792" lon="11.6446137"><ele>692.4285714285714</ele><time>2026-04-18T12:59:28Z</time></trkpt><trkpt lat="43.9913133" lon="11.6446351"><ele>690.0</ele><time>2026-04-18T12:59:34.121Z</time></trkpt><trkpt lat="43.9912431" lon="11.6446525"><ele>690.0</ele><time>2026-04-18T12:59:47.02Z</time></trkpt><trkpt lat="43.9911862" lon="11.6446948"><ele>690.0</ele><time>2026-04-18T12:59:55.11Z</time></trkpt><trkpt lat="43.9911247" lon="11.644662"><ele>690.0</ele><time>2026-04-18T13:00:18.091Z</time></trkpt><trkpt lat="43.9910575" lon="11.644669"><ele>690.0</ele><time>2026-04-18T13:00:27.025Z</time></trkpt><trkpt lat="43.9910013" lon="11.6447135"><ele>690.0</ele><time>2026-04-18T13:01:16.023Z</time></trkpt><trkpt lat="43.9909371" lon="11.6447144"><ele>690.0</ele><time>2026-04-18T13:01:26.108Z</time></trkpt><trkpt lat="43.9908823" lon="11.6446585"><ele>690.0</ele><time>2026-04-18T13:01:34.083Z</time></trkpt><trkpt lat="43.9908245" lon="11.6447131"><ele>692.2857142857143</ele><time>2026-04-18T13:01:55.073Z</time></trkpt><trkpt lat="43.9907907" lon="11.6446319"><ele>694.5714285714286</ele><time>2026-04-18T13:02:08.088Z</time></trkpt><trkpt lat="43.9908138" lon="11.6445455"><ele>696.8571428571429</ele><time>2026-04-18T13:02:14.07Z</time></trkpt><trkpt lat="43.9907628" lon="11.6444844"><ele>699.1428571428571</ele><time>2026-04-18T13:02:44.145Z</time></trkpt><trkpt lat="43.9906991" lon="11.6444841"><ele>701.4285714285714</ele><time>2026-04-18T13:02:52.062Z</time></trkpt><trkpt lat="43.9906493" lon="11.6444274"><ele>703.7142857142857</ele><time>2026-04-18T13:03:01.091Z</time></trkpt><trkpt lat="43.9906085" lon="11.6443573"><ele>706.0</ele><time>2026-04-18T13:03:16.996Z</time></trkpt><trkpt lat="43.9904492" lon="11.6443723"><ele>709.0</ele><time>2026-04-18T13:03:29.991Z</time></trkpt><trkpt lat="43.990376" lon="11.644373"><ele>712.0</ele><time>2026-04-18T13:03:33.025Z</time></trkpt><trkpt lat="43.9903521" lon="11.6442839"><ele>715.0</ele><time>2026-04-18T13:03:41.147Z</time></trkpt><trkpt lat="43.9902783" lon="11.644217"><ele>718.0</ele><time>2026-04-18T13:03:56.547Z</time></trkpt><trkpt lat="43.990219" lon="11.6441686"><ele>721.0</ele><time>2026-04-18T13:04:01.993Z</time></trkpt><trkpt lat="43.9901625" lon="11.6441223"><ele>724.0</ele><time>2026-04-18T13:04:08.091Z</time></trkpt><trkpt lat="43.9900884" lon="11.6441287"><ele>727.0</ele><time>2026-04-18T13:04:24.99Z</time></trkpt><trkpt lat="43.9901369" lon="11.6442019"><ele>727.0</ele><time>2026-04-18T13:04:42.08Z</time></trkpt><trkpt lat="43.9902063" lon="11.6442423"><ele>727.0</ele><time>2026-04-18T13:04:46.068Z</time></trkpt><trkpt lat="43.9902684" lon="11.644303"><ele>727.0</ele><time>2026-04-18T13:04:50.056Z</time></trkpt><trkpt lat="43.9903299" lon="11.6443608"><ele>727.0</ele><time>2026-04-18T13:04:55.094Z</time></trkpt><trkpt lat="43.9902665" lon="11.6443823"><ele>727.0</ele><time>2026-04-18T13:05:32.057Z</time></trkpt><trkpt lat="43.9901977" lon="11.644415"><ele>727.0</ele><time>2026-04-18T13:05:41.087Z</time></trkpt><trkpt lat="43.9901487" lon="11.6444758"><ele>727.0</ele><time>2026-04-18T13:05:51.055Z</time></trkpt><trkpt lat="43.9900768" lon="11.6444602"><ele>725.6666666666667</ele><time>2026-04-18T13:05:59.028Z</time></trkpt><trkpt lat="43.9900392" lon="11.644534"><ele>724.3333333333334</ele><time>2026-04-18T13:06:10.052Z</time></trkpt><trkpt lat="43.9900314" lon="11.6446211"><ele>723.0</ele><time>2026-04-18T13:06:17.994Z</time></trkpt><trkpt lat="43.9898694" lon="11.6447137"><ele>721.6666666666666</ele><time>2026-04-18T13:06:24.073Z</time></trkpt><trkpt lat="43.9898868" lon="11.6448002"><ele>720.3333333333333</ele><time>2026-04-18T13:06:28.06Z</time></trkpt><trkpt lat="43.989952" lon="11.6448512"><ele>719.0</ele><time>2026-04-18T13:06:33.038Z</time></trkpt><trkpt lat="43.9900191" lon="11.6448574"><ele>717.1428571428571</ele><time>2026-04-18T13:06:35.096Z</time></trkpt><trkpt lat="43.9900952" lon="11.644868"><ele>715.2857142857142</ele><time>2026-04-18T13:06:39.083Z</time></trkpt><trkpt lat="43.9901529" lon="11.6449176"><ele>713.4285714285713</ele><time>2026-04-18T13:06:46.121Z</time></trkpt><trkpt lat="43.9900965" lon="11.6449633"><ele>711.5714285714286</ele><time>2026-04-18T13:07:13.099Z</time></trkpt><trkpt lat="43.9900694" lon="11.6450463"><ele>709.7142857142858</ele><time>2026-04-18T13:07:18.024Z</time></trkpt><trkpt lat="43.9901377" lon="11.6450597"><ele>707.8571428571428</ele><time>2026-04-18T13:07:40.113Z</time></trkpt><trkpt lat="43.9901862" lon="11.6450033"><ele>706.0</ele><time>2026-04-18T13:07:45.038Z</time></trkpt><trkpt lat="43.9901175" lon="11.644897"><ele>706.0</ele><time>2026-04-18T13:07:47.031Z</time></trkpt><trkpt lat="43.9900772" lon="11.6448228"><ele>706.0</ele><time>2026-04-18T13:07:50.081Z</time></trkpt><trkpt lat="43.9900441" lon="11.6447398"><ele>706.0</ele><time>2026-04-18T13:07:55.005Z</time></trkpt><trkpt lat="43.9900261" lon="11.6446398"><ele>706.0</ele><time>2026-04-18T13:08:07.068Z</time></trkpt><trkpt lat="43.9900671" lon="11.6445632"><ele>706.0</ele><time>2026-04-18T13:08:19.062Z</time></trkpt><trkpt lat="43.990137" lon="11.6445573"><ele>706.0</ele><time>2026-04-18T13:08:25.184Z</time></trkpt><trkpt lat="43.9902047" lon="11.6445469"><ele>706.0</ele><time>2026-04-18T13:08:32.224Z</time></trkpt><trkpt lat="43.9902687" lon="11.6445369"><ele>706.0</ele><time>2026-04-18T13:08:37.979Z</time></trkpt><trkpt lat="43.9903239" lon="11.6444735"><ele>706.0</ele><time>2026-04-18T13:08:45.318Z</time></trkpt><trkpt lat="43.9903851" lon="11.6444386"><ele>706.0</ele><time>2026-04-18T13:08:50.104Z</time></trkpt><trkpt lat="43.990452" lon="11.6444195"><ele>706.0</ele><time>2026-04-18T13:08:54.027Z</time></trkpt><trkpt lat="43.9905106" lon="11.6443872"><ele>706.0</ele><time>2026-04-18T13:08:59.016Z</time></trkpt><trkpt lat="43.9906501" lon="11.6444135"><ele>706.0</ele><time>2026-04-18T13:09:26.103Z</time></trkpt><trkpt lat="43.9907034" lon="11.6444655"><ele>706.0</ele><time>2026-04-18T13:09:33.023Z</time></trkpt><trkpt lat="43.9907609" lon="11.644507"><ele>706.0</ele><time>2026-04-18T13:09:44.046Z</time></trkpt><trkpt lat="43.9908183" lon="11.6445478"><ele>706.0</ele><time>2026-04-18T13:09:54.013Z</time></trkpt><trkpt lat="43.9907813" lon="11.6446215"><ele>706.0</ele><time>2026-04-18T13:10:04.082Z</time></trkpt><trkpt lat="43.9907855" lon="11.6447141"><ele>706.0</ele><time>2026-04-18T13:10:12.072Z</time></trkpt><trkpt lat="43.9908538" lon="11.6447176"><ele>706.0</ele><time>2026-04-18T13:11:46.117Z</time></trkpt><trkpt lat="43.9909192" lon="11.6447056"><ele>706.0</ele><time>2026-04-18T13:11:53.035Z</time></trkpt><trkpt lat="43.9909827" lon="11.6447216"><ele>703.7142857142857</ele><time>2026-04-18T13:12:02.063Z</time></trkpt><trkpt lat="43.9910445" lon="11.6447471"><ele>701.4285714285714</ele><time>2026-04-18T13:12:09.099Z</time></trkpt><trkpt lat="43.991105" lon="11.6447229"><ele>699.1428571428571</ele><time>2026-04-18T13:12:29.034Z</time></trkpt><trkpt lat="43.9911702" lon="11.6447533"><ele>696.8571428571429</ele><time>2026-04-18T13:12:34.077Z</time></trkpt><trkpt lat="43.9912315" lon="11.6447064"><ele>694.5714285714286</ele><time>2026-04-18T13:12:43.105Z</time></trkpt><trkpt lat="43.9912939" lon="11.6446722"><ele>692.2857142857143</ele><time>2026-04-18T13:12:53.074Z</time></trkpt><trkpt lat="43.9913506" lon="11.6446297"><ele>690.0</ele><time>2026-04-18T13:13:03.042Z</time></trkpt><trkpt lat="43.9914171" lon="11.6446477"><ele>690.0</ele><time>2026-04-18T13:13:07.028Z</time></trkpt><trkpt lat="43.9914938" lon="11.6446586"><ele>690.0</ele><time>2026-04-18T13:13:12.071Z</time></trkpt><trkpt lat="43.9915689" lon="11.6446607"><ele>690.0</ele><time>2026-04-18T13:13:17.113Z</time></trkpt><trkpt lat="43.9916364" lon="11.6446682"><ele>690.0</ele><time>2026-04-18T13:13:24.085Z</time></trkpt><trkpt lat="43.9916926" lon="11.6447097"><ele>690.0</ele><time>2026-04-18T13:13:29.073Z</time></trkpt><trkpt lat="43.9917533" lon="11.6447379"><ele>690.0</ele><time>2026-04-18T13:13:37.048Z</time></trkpt><trkpt lat="43.9918116" lon="11.6447"><ele>690.0</ele><time>2026-04-18T13:13:49.009Z</time></trkpt><trkpt lat="43.9918646" lon="11.6447528"><ele>692.4285714285714</ele><time>2026-04-18T13:13:54.065Z</time></trkpt><trkpt lat="43.9918888" lon="11.6448961"><ele>694.8571428571429</ele><time>2026-04-18T13:14:25.007Z</time></trkpt><trkpt lat="43.9919364" lon="11.6449564"><ele>697.2857142857142</ele><time>2026-04-18T13:14:34.036Z</time></trkpt><trkpt lat="43.9919727" lon="11.6450348"><ele>699.7142857142858</ele><time>2026-04-18T13:14:45.06Z</time></trkpt><trkpt lat="43.9920365" lon="11.6450714"><ele>702.1428571428571</ele><time>2026-04-18T13:14:57.019Z</time></trkpt><trkpt lat="43.9920887" lon="11.6450117"><ele>704.5714285714286</ele><time>2026-04-18T13:15:06.049Z</time></trkpt><trkpt lat="43.9921592" lon="11.6450153"><ele>707.0</ele><time>2026-04-18T13:15:13.085Z</time></trkpt><trkpt lat="43.9922537" lon="11.6450605"><ele>707.0</ele><time>2026-04-18T13:15:43.103Z</time></trkpt><trkpt lat="43.992276" lon="11.6451888"><ele>707.0</ele><time>2026-04-18T13:16:20.1Z</time></trkpt><trkpt lat="43.9922779" lon="11.6450958"><ele>707.0</ele><time>2026-04-18T13:16:30.069Z</time></trkpt><trkpt lat="43.9922045" lon="11.6450742"><ele>707.0</ele><time>2026-04-18T13:16:56.101Z</time></trkpt><trkpt lat="43.9921389" lon="11.6450432"><ele>707.0</ele><time>2026-04-18T13:17:02.162Z</time></trkpt><trkpt lat="43.9920724" lon="11.6450511"><ele>707.0</ele><time>2026-04-18T13:17:12.048Z</time></trkpt><trkpt lat="43.992009" lon="11.6450296"><ele>707.0</ele><time>2026-04-18T13:17:22.016Z</time></trkpt><trkpt lat="43.9919703" lon="11.6451003"><ele>707.0</ele><time>2026-04-18T13:17:36.088Z</time></trkpt><trkpt lat="43.9919096" lon="11.6450652"><ele>707.0</ele><time>2026-04-18T13:17:44.061Z</time></trkpt><trkpt lat="43.991991" lon="11.6451452"><ele>707.0</ele><time>2026-04-18T13:17:55.06Z</time></trkpt><trkpt lat="43.9919089" lon="11.6450327"><ele>707.0</ele><time>2026-04-18T13:18:02.066Z</time></trkpt><trkpt lat="43.9916101" lon="11.6447382"><ele>707.0</ele><time>2026-04-18T13:18:03.006Z</time></trkpt><trkpt lat="43.9915428" lon="11.6446225"><ele>707.0</ele><time>2026-04-18T13:18:04.045Z</time></trkpt><trkpt lat="43.9915498" lon="11.6445309"><ele>707.0</ele><time>2026-04-18T13:18:07.018Z</time></trkpt><trkpt lat="43.9916935" lon="11.6446011"><ele>707.0</ele><time>2026-04-18T13:18:09.089Z</time></trkpt><trkpt lat="43.9916426" lon="11.6446556"><ele>707.0</ele><time>2026-04-18T13:18:22.139Z</time></trkpt><trkpt lat="43.9916317" lon="11.6447628"><ele>705.2857142857143</ele><time>2026-04-18T13:18:28.088Z</time></trkpt><trkpt lat="43.9916234" lon="11.6448616"><ele>703.5714285714286</ele><time>2026-04-18T13:18:31.136Z</time></trkpt><trkpt lat="43.991633" lon="11.6449482"><ele>701.8571428571429</ele><time>2026-04-18T13:18:35.005Z</time></trkpt><trkpt lat="43.9916228" lon="11.6450459"><ele>700.1428571428571</ele><time>2026-04-18T13:18:40.003Z</time></trkpt><trkpt lat="43.9915519" lon="11.6450965"><ele>698.4285714285714</ele><time>2026-04-18T13:18:47.099Z</time></trkpt><trkpt lat="43.9914863" lon="11.6451314"><ele>696.7142857142858</ele><time>2026-04-18T13:18:53.08Z</time></trkpt><trkpt lat="43.991471" lon="11.6452284"><ele>695.0</ele><time>2026-04-18T13:18:59.06Z</time></trkpt><trkpt lat="43.9914354" lon="11.6453058"><ele>695.0</ele><time>2026-04-18T13:19:05.04Z</time></trkpt><trkpt lat="43.9913769" lon="11.6453592"><ele>695.0</ele><time>2026-04-18T13:19:10.166Z</time></trkpt><trkpt lat="43.9913336" lon="11.6454392"><ele>695.0</ele><time>2026-04-18T13:19:16.063Z</time></trkpt><trkpt lat="43.9913135" lon="11.6455245"><ele>695.0</ele><time>2026-04-18T13:19:22.045Z</time></trkpt><trkpt lat="43.9912491" lon="11.6458329"><ele>695.0</ele><time>2026-04-18T13:19:36.993Z</time></trkpt><trkpt lat="43.9912041" lon="11.6459449"><ele>695.0</ele><time>2026-04-18T13:19:38.031Z</time></trkpt><trkpt lat="43.9911997" lon="11.6460614"><ele>695.0</ele><time>2026-04-18T13:19:38.991Z</time></trkpt><trkpt lat="43.9912184" lon="11.6459649"><ele>695.0</ele><time>2026-04-18T13:19:43.998Z</time></trkpt><trkpt lat="43.9912436" lon="11.645883"><ele>695.0</ele><time>2026-04-18T13:19:45.992Z</time></trkpt><trkpt lat="43.9912924" lon="11.6457315"><ele>695.0</ele><time>2026-04-18T13:19:53.064Z</time></trkpt><trkpt lat="43.9913488" lon="11.6456784"><ele>695.0</ele><time>2026-04-18T13:20:22.032Z</time></trkpt><trkpt lat="43.9913522" lon="11.6457692"><ele>695.0000000000001</ele><time>2026-04-18T13:21:14.101Z</time></trkpt><trkpt lat="43.9913476" lon="11.645863"><ele>695.0</ele><time>2026-04-18T13:21:21.021Z</time></trkpt><trkpt lat="43.991328" lon="11.6459736"><ele>695.0</ele><time>2026-04-18T13:21:48.109Z</time></trkpt><trkpt lat="43.9913416" lon="11.6460712"><ele>695.0</ele><time>2026-04-18T13:21:58.94Z</time></trkpt><trkpt lat="43.9913404" lon="11.6461618"><ele>695.0</ele><time>2026-04-18T13:22:06.051Z</time></trkpt><trkpt lat="43.9913246" lon="11.6462512"><ele>695.0000000000001</ele><time>2026-04-18T13:22:16.52Z</time></trkpt><trkpt lat="43.9912941" lon="11.6463351"><ele>695.0</ele><time>2026-04-18T13:22:32.938Z</time></trkpt><trkpt lat="43.9912837" lon="11.6464257"><ele>695.8571428571429</ele><time>2026-04-18T13:22:38.065Z</time></trkpt><trkpt lat="43.9912752" lon="11.6465265"><ele>696.7142857142858</ele><time>2026-04-18T13:22:44.046Z</time></trkpt><trkpt lat="43.9912879" lon="11.6466136"><ele>697.5714285714287</ele><time>2026-04-18T13:22:51.083Z</time></trkpt><trkpt lat="43.9912826" lon="11.6467096"><ele>698.4285714285714</ele><time>2026-04-18T13:23:03.127Z</time></trkpt><trkpt lat="43.991285" lon="11.6468126"><ele>699.2857142857142</ele><time>2026-04-18T13:23:24.034Z</time></trkpt><trkpt lat="43.9912336" lon="11.6468811"><ele>700.1428571428572</ele><time>2026-04-18T13:23:45.107Z</time></trkpt><trkpt lat="43.991193" lon="11.6469489"><ele>701.0</ele><time>2026-04-18T13:23:54.054Z</time></trkpt><trkpt lat="43.9911865" lon="11.6470414"><ele>701.0</ele><time>2026-04-18T13:24:05.843Z</time></trkpt><trkpt lat="43.9912233" lon="11.6471589"><ele>701.0</ele><time>2026-04-18T13:24:38.981Z</time></trkpt><trkpt lat="43.9911573" lon="11.6471977"><ele>701.0</ele><time>2026-04-18T13:24:48.113Z</time></trkpt><trkpt lat="43.9911321" lon="11.6471162"><ele>701.0</ele><time>2026-04-18T13:24:56.081Z</time></trkpt><trkpt lat="43.9911122" lon="11.6470299"><ele>701.0</ele><time>2026-04-18T13:25:09.104Z</time></trkpt><trkpt lat="43.9910891" lon="11.6471163"><ele>701.0</ele><time>2026-04-18T13:25:48.133Z</time></trkpt><trkpt lat="43.9910326" lon="11.6471694"><ele>701.0</ele><time>2026-04-18T13:25:57.065Z</time></trkpt><trkpt lat="43.9909912" lon="11.6470999"><ele>701.0</ele><time>2026-04-18T13:26:09.026Z</time></trkpt><trkpt lat="43.99095" lon="11.6471705"><ele>701.0</ele><time>2026-04-18T13:26:24.036Z</time></trkpt><trkpt lat="43.9909256" lon="11.6472668"><ele>701.0</ele><time>2026-04-18T13:26:29.078Z</time></trkpt><trkpt lat="43.9909506" lon="11.6473477"><ele>701.0</ele><time>2026-04-18T13:26:34.121Z</time></trkpt><trkpt lat="43.9909044" lon="11.6474124"><ele>701.0</ele><time>2026-04-18T13:26:53.001Z</time></trkpt><trkpt lat="43.9909212" lon="11.6475005"><ele>701.0</ele><time>2026-04-18T13:26:58.042Z</time></trkpt><trkpt lat="43.9909352" lon="11.6475963"><ele>701.0</ele><time>2026-04-18T13:27:04.023Z</time></trkpt><trkpt lat="43.9909246" lon="11.647687"><ele>701.0</ele><time>2026-04-18T13:27:11.059Z</time></trkpt><trkpt lat="43.9908671" lon="11.6477453"><ele>701.0</ele><time>2026-04-18T13:27:23.025Z</time></trkpt><trkpt lat="43.9908053" lon="11.6477875"><ele>701.0</ele><time>2026-04-18T13:27:30.061Z</time></trkpt><trkpt lat="43.9907429" lon="11.64782"><ele>701.0</ele><time>2026-04-18T13:27:37.096Z</time></trkpt><trkpt lat="43.9906959" lon="11.6477321"><ele>701.0</ele><time>2026-04-18T13:28:01.603Z</time></trkpt><trkpt lat="43.990623" lon="11.6477429"><ele>701.0</ele><time>2026-04-18T13:28:06.061Z</time></trkpt><trkpt lat="43.9905571" lon="11.6477572"><ele>701.0</ele><time>2026-04-18T13:28:10.047Z</time></trkpt><trkpt lat="43.9905156" lon="11.6478235"><ele>698.2857142857143</ele><time>2026-04-18T13:28:16.029Z</time></trkpt><trkpt lat="43.9904924" lon="11.6479073"><ele>695.5714285714286</ele><time>2026-04-18T13:28:27.051Z</time></trkpt><trkpt lat="43.9904434" lon="11.6479746"><ele>692.8571428571429</ele><time>2026-04-18T13:28:35.026Z</time></trkpt><trkpt lat="43.9903793" lon="11.648035"><ele>690.1428571428571</ele><time>2026-04-18T13:28:44.055Z</time></trkpt><trkpt lat="43.9903113" lon="11.6480643"><ele>687.4285714285714</ele><time>2026-04-18T13:28:50.062Z</time></trkpt><trkpt lat="43.9902351" lon="11.6480572"><ele>684.7142857142857</ele><time>2026-04-18T13:28:56.015Z</time></trkpt><trkpt lat="43.9901711" lon="11.6480246"><ele>682.0</ele><time>2026-04-18T13:29:01.995Z</time></trkpt><trkpt lat="43.9901048" lon="11.6480364"><ele>682.0</ele><time>2026-04-18T13:29:11.025Z</time></trkpt><trkpt lat="43.9900379" lon="11.6480382"><ele>682.0</ele><time>2026-04-18T13:29:16.068Z</time></trkpt><trkpt lat="43.9899831" lon="11.648102"><ele>682.0</ele><time>2026-04-18T13:29:23.089Z</time></trkpt><trkpt lat="43.9899212" lon="11.6481732"><ele>682.0</ele><time>2026-04-18T13:29:35.064Z</time></trkpt><trkpt lat="43.9898646" lon="11.6482289"><ele>682.0</ele><time>2026-04-18T13:29:40.106Z</time></trkpt><trkpt lat="43.9897986" lon="11.6482669"><ele>682.0</ele><time>2026-04-18T13:29:49.09Z</time></trkpt><trkpt lat="43.9897387" lon="11.6483029"><ele>682.0</ele><time>2026-04-18T13:29:55.117Z</time></trkpt><trkpt lat="43.989678" lon="11.6483423"><ele>679.0</ele><time>2026-04-18T13:30:01.046Z</time></trkpt><trkpt lat="43.9896048" lon="11.6483423"><ele>676.0</ele><time>2026-04-18T13:30:07.077Z</time></trkpt><trkpt lat="43.9895417" lon="11.6483545"><ele>673.0</ele><time>2026-04-18T13:30:14.113Z</time></trkpt><trkpt lat="43.9894731" lon="11.648359"><ele>670.0</ele><time>2026-04-18T13:30:21.032Z</time></trkpt><trkpt lat="43.9894108" lon="11.6483332"><ele>667.0</ele><time>2026-04-18T13:30:27.011Z</time></trkpt><trkpt lat="43.989338" lon="11.6483492"><ele>664.0</ele><time>2026-04-18T13:30:34.048Z</time></trkpt><trkpt lat="43.9892729" lon="11.6483859"><ele>661.0</ele><time>2026-04-18T13:30:39.565Z</time></trkpt><trkpt lat="43.9892064" lon="11.6484164"><ele>661.2857142857142</ele><time>2026-04-18T13:30:45.985Z</time></trkpt><trkpt lat="43.9891611" lon="11.6484983"><ele>661.5714285714286</ele><time>2026-04-18T13:30:52.105Z</time></trkpt><trkpt lat="43.98913" lon="11.6485876"><ele>661.8571428571429</ele><time>2026-04-18T13:30:58.086Z</time></trkpt><trkpt lat="43.9890875" lon="11.6486606"><ele>662.1428571428571</ele><time>2026-04-18T13:31:04.066Z</time></trkpt><trkpt lat="43.9890469" lon="11.6487279"><ele>662.4285714285714</ele><time>2026-04-18T13:31:13.096Z</time></trkpt><trkpt lat="43.9890422" lon="11.6488161"><ele>662.7142857142857</ele><time>2026-04-18T13:31:31.038Z</time></trkpt><trkpt lat="43.9889976" lon="11.6488808"><ele>663.0</ele><time>2026-04-18T13:31:41.118Z</time></trkpt><trkpt lat="43.9889483" lon="11.6489479"><ele>661.5714285714286</ele><time>2026-04-18T13:31:48.04Z</time></trkpt><trkpt lat="43.9888982" lon="11.6490068"><ele>660.1428571428571</ele><time>2026-04-18T13:31:53.062Z</time></trkpt><trkpt lat="43.9888606" lon="11.6490927"><ele>658.7142857142858</ele><time>2026-04-18T13:31:58.088Z</time></trkpt><trkpt lat="43.9888318" lon="11.6491799"><ele>657.2857142857142</ele><time>2026-04-18T13:32:03.896Z</time></trkpt><trkpt lat="43.9888342" lon="11.6492692"><ele>655.8571428571429</ele><time>2026-04-18T13:32:11.023Z</time></trkpt><trkpt lat="43.9888216" lon="11.6493623"><ele>654.4285714285714</ele><time>2026-04-18T13:32:18.059Z</time></trkpt><trkpt lat="43.9888253" lon="11.6494612"><ele>653.0</ele><time>2026-04-18T13:32:28.026Z</time></trkpt><trkpt lat="43.9888586" lon="11.649549"><ele>656.0000000000001</ele><time>2026-04-18T13:32:35.063Z</time></trkpt><trkpt lat="43.9889102" lon="11.6496258"><ele>659.0</ele><time>2026-04-18T13:32:39.05Z</time></trkpt><trkpt lat="43.9889087" lon="11.6497156"><ele>662.0</ele><time>2026-04-18T13:32:46.983Z</time></trkpt><trkpt lat="43.9888428" lon="11.6497562"><ele>665.0</ele><time>2026-04-18T13:32:56.052Z</time></trkpt><trkpt lat="43.9887928" lon="11.6498253"><ele>668.0</ele><time>2026-04-18T13:33:04.217Z</time></trkpt><trkpt lat="43.9887275" lon="11.6498615"><ele>671.0000000000001</ele><time>2026-04-18T13:33:12.118Z</time></trkpt><trkpt lat="43.988661" lon="11.649875"><ele>674.0</ele><time>2026-04-18T13:33:22.084Z</time></trkpt><trkpt lat="43.9885934" lon="11.6498393"><ele>674.0</ele><time>2026-04-18T13:33:29.004Z</time></trkpt><trkpt lat="43.9885327" lon="11.6498636"><ele>674.0</ele><time>2026-04-18T13:33:37.095Z</time></trkpt><trkpt lat="43.9884763" lon="11.6499075"><ele>674.0</ele><time>2026-04-18T13:33:55.035Z</time></trkpt><trkpt lat="43.9884214" lon="11.649972"><ele>674.0</ele><time>2026-04-18T13:34:17.99Z</time></trkpt><trkpt lat="43.9884206" lon="11.6501864"><ele>674.0</ele><time>2026-04-18T13:34:23.064Z</time></trkpt><trkpt lat="43.9883783" lon="11.6501213"><ele>674.0</ele><time>2026-04-18T13:34:36.086Z</time></trkpt><trkpt lat="43.9883339" lon="11.6502113"><ele>673.8571428571429</ele><time>2026-04-18T13:34:57.076Z</time></trkpt><trkpt lat="43.9883185" lon="11.6502975"><ele>673.7142857142858</ele><time>2026-04-18T13:35:11.029Z</time></trkpt><trkpt lat="43.9882627" lon="11.6503401"><ele>673.5714285714287</ele><time>2026-04-18T13:35:27.095Z</time></trkpt><trkpt lat="43.9881989" lon="11.6503422"><ele>673.4285714285714</ele><time>2026-04-18T13:35:47.031Z</time></trkpt><trkpt lat="43.9881542" lon="11.6504083"><ele>673.2857142857142</ele><time>2026-04-18T13:36:00.991Z</time></trkpt><trkpt lat="43.9880974" lon="11.6504548"><ele>673.1428571428572</ele><time>2026-04-18T13:36:09.076Z</time></trkpt><trkpt lat="43.9880332" lon="11.650486"><ele>673.0</ele><time>2026-04-18T13:36:19.043Z</time></trkpt><trkpt lat="43.9879646" lon="11.650497"><ele>673.0</ele><time>2026-04-18T13:36:30.067Z</time></trkpt><trkpt lat="43.9878957" lon="11.6504808"><ele>673.0</ele><time>2026-04-18T13:36:40.036Z</time></trkpt><trkpt lat="43.9878349" lon="11.6505155"><ele>673.0</ele><time>2026-04-18T13:36:51.961Z</time></trkpt><trkpt lat="43.9877714" lon="11.6505444"><ele>673.0</ele><time>2026-04-18T13:37:03.02Z</time></trkpt><trkpt lat="43.9877636" lon="11.650641"><ele>673.0</ele><time>2026-04-18T13:37:23.073Z</time></trkpt><trkpt lat="43.9878087" lon="11.6505405"><ele>673.0</ele><time>2026-04-18T13:38:10.097Z</time></trkpt><trkpt lat="43.987888" lon="11.6505204"><ele>673.0</ele><time>2026-04-18T13:38:33.083Z</time></trkpt><trkpt lat="43.9877721" lon="11.6505602"><ele>673.0</ele><time>2026-04-18T13:41:11.078Z</time></trkpt><trkpt lat="43.9877051" lon="11.6505959"><ele>673.0</ele><time>2026-04-18T13:41:16.121Z</time></trkpt><trkpt lat="43.9876372" lon="11.6506517"><ele>673.0</ele><time>2026-04-18T13:41:22.045Z</time></trkpt><trkpt lat="43.9875926" lon="11.6507174"><ele>673.0</ele><time>2026-04-18T13:41:28.365Z</time></trkpt><trkpt lat="43.9875667" lon="11.6508135"><ele>673.0</ele><time>2026-04-18T13:41:35.001Z</time></trkpt><trkpt lat="43.9875263" lon="11.65089"><ele>673.0</ele><time>2026-04-18T13:41:40.044Z</time></trkpt><trkpt lat="43.9874793" lon="11.6509688"><ele>673.0</ele><time>2026-04-18T13:41:46.024Z</time></trkpt><trkpt lat="43.9874434" lon="11.651051"><ele>672.0</ele><time>2026-04-18T13:41:52.123Z</time></trkpt><trkpt lat="43.9874" lon="11.6511168"><ele>671.0</ele><time>2026-04-18T13:41:59.043Z</time></trkpt><trkpt lat="43.9873368" lon="11.6511456"><ele>670.0</ele><time>2026-04-18T13:42:07.017Z</time></trkpt><trkpt lat="43.9873368" lon="11.6512366"><ele>669.0</ele><time>2026-04-18T13:42:14.052Z</time></trkpt><trkpt lat="43.9873379" lon="11.6513385"><ele>668.0</ele><time>2026-04-18T13:42:20.034Z</time></trkpt><trkpt lat="43.9873154" lon="11.6514263"><ele>667.0</ele><time>2026-04-18T13:42:28.125Z</time></trkpt><trkpt lat="43.9872505" lon="11.6514679"><ele>666.0</ele><time>2026-04-18T13:42:35.044Z</time></trkpt><trkpt lat="43.9872036" lon="11.6515337"><ele>666.0</ele><time>2026-04-18T13:42:40.087Z</time></trkpt><trkpt lat="43.9871822" lon="11.6516173"><ele>666.0</ele><time>2026-04-18T13:42:46.062Z</time></trkpt><trkpt lat="43.9871738" lon="11.6517117"><ele>666.0</ele><time>2026-04-18T13:42:52.12Z</time></trkpt><trkpt lat="43.9871288" lon="11.6517834"><ele>666.0</ele><time>2026-04-18T13:42:57.092Z</time></trkpt><trkpt lat="43.9870606" lon="11.6518183"><ele>666.0</ele><time>2026-04-18T13:43:04.011Z</time></trkpt><trkpt lat="43.9870006" lon="11.6518674"><ele>666.0</ele><time>2026-04-18T13:43:10.108Z</time></trkpt><trkpt lat="43.9869455" lon="11.6519114"><ele>666.0</ele><time>2026-04-18T13:43:15.088Z</time></trkpt><trkpt lat="43.9868874" lon="11.6519493"><ele>665.8571428571429</ele><time>2026-04-18T13:43:20.077Z</time></trkpt><trkpt lat="43.986827" lon="11.6519802"><ele>665.7142857142857</ele><time>2026-04-18T13:43:27.113Z</time></trkpt><trkpt lat="43.9867935" lon="11.6520618"><ele>665.5714285714286</ele><time>2026-04-18T13:43:35.088Z</time></trkpt><trkpt lat="43.9867369" lon="11.6521199"><ele>665.4285714285714</ele><time>2026-04-18T13:43:45.758Z</time></trkpt><trkpt lat="43.9866646" lon="11.6521424"><ele>665.2857142857142</ele><time>2026-04-18T13:43:53.029Z</time></trkpt><trkpt lat="43.9866125" lon="11.6522004"><ele>665.1428571428571</ele><time>2026-04-18T13:44:03.021Z</time></trkpt><trkpt lat="43.9865852" lon="11.6522873"><ele>665.0</ele><time>2026-04-18T13:44:11.043Z</time></trkpt><trkpt lat="43.9865596" lon="11.6523763"><ele>665.0</ele><time>2026-04-18T13:44:17.07Z</time></trkpt><trkpt lat="43.9865267" lon="11.6524511"><ele>665.0</ele><time>2026-04-18T13:44:22.047Z</time></trkpt><trkpt lat="43.9865231" lon="11.6525422"><ele>665.0</ele><time>2026-04-18T13:44:30.002Z</time></trkpt><trkpt lat="43.9864705" lon="11.6526144"><ele>665.0</ele><time>2026-04-18T13:44:37.124Z</time></trkpt><trkpt lat="43.9864035" lon="11.6526412"><ele>665.0</ele><time>2026-04-18T13:44:43.105Z</time></trkpt><trkpt lat="43.986333" lon="11.6526504"><ele>665.0</ele><time>2026-04-18T13:44:49.058Z</time></trkpt><trkpt lat="43.9862752" lon="11.6526907"><ele>665.0</ele><time>2026-04-18T13:45:00.022Z</time></trkpt><trkpt lat="43.9862666" lon="11.6527874"><ele>667.1428571428571</ele><time>2026-04-18T13:45:06.964Z</time></trkpt><trkpt lat="43.9862494" lon="11.6528716"><ele>669.2857142857142</ele><time>2026-04-18T13:45:14.063Z</time></trkpt><trkpt lat="43.9862174" lon="11.6529616"><ele>671.4285714285714</ele><time>2026-04-18T13:45:23.094Z</time></trkpt><trkpt lat="43.9861584" lon="11.6530025"><ele>673.5714285714286</ele><time>2026-04-18T13:45:28.019Z</time></trkpt><trkpt lat="43.9861031" lon="11.6530621"><ele>675.7142857142857</ele><time>2026-04-18T13:45:35.055Z</time></trkpt><trkpt lat="43.9860535" lon="11.6531296"><ele>677.8571428571429</ele><time>2026-04-18T13:45:42.091Z</time></trkpt><trkpt lat="43.9860256" lon="11.6532207"><ele>680.0</ele><time>2026-04-18T13:45:49.805Z</time></trkpt><trkpt lat="43.9859868" lon="11.6532932"><ele>680.0</ele><time>2026-04-18T13:46:00.033Z</time></trkpt><trkpt lat="43.9859395" lon="11.6533647"><ele>680.0</ele><time>2026-04-18T13:46:07.07Z</time></trkpt><trkpt lat="43.9858734" lon="11.6533925"><ele>680.0</ele><time>2026-04-18T13:46:13.05Z</time></trkpt><trkpt lat="43.9858034" lon="11.6533899"><ele>680.0</ele><time>2026-04-18T13:46:19.024Z</time></trkpt><trkpt lat="43.9857349" lon="11.6534035"><ele>680.0</ele><time>2026-04-18T13:46:28.084Z</time></trkpt><trkpt lat="43.9856855" lon="11.6534646"><ele>680.0</ele><time>2026-04-18T13:46:36.035Z</time></trkpt><trkpt lat="43.9856221" lon="11.6534894"><ele>680.0</ele><time>2026-04-18T13:46:42.686Z</time></trkpt><trkpt lat="43.9855699" lon="11.6535546"><ele>680.4285714285714</ele><time>2026-04-18T13:46:48.019Z</time></trkpt><trkpt lat="43.985548" lon="11.6536387"><ele>680.8571428571428</ele><time>2026-04-18T13:46:53.981Z</time></trkpt><trkpt lat="43.9855204" lon="11.6537228"><ele>681.2857142857142</ele><time>2026-04-18T13:47:04.106Z</time></trkpt><trkpt lat="43.9854659" lon="11.6537763"><ele>681.7142857142858</ele><time>2026-04-18T13:47:10.043Z</time></trkpt><trkpt lat="43.9853961" lon="11.6537973"><ele>682.1428571428571</ele><time>2026-04-18T13:47:16.108Z</time></trkpt><trkpt lat="43.9853426" lon="11.6538556"><ele>682.5714285714286</ele><time>2026-04-18T13:47:26.11Z</time></trkpt><trkpt lat="43.9852726" lon="11.6539031"><ele>683.0</ele><time>2026-04-18T13:47:32.145Z</time></trkpt><trkpt lat="43.9852149" lon="11.6539639"><ele>683.0</ele><time>2026-04-18T13:47:38.065Z</time></trkpt><trkpt lat="43.9851834" lon="11.6540557"><ele>683.0</ele><time>2026-04-18T13:47:45.041Z</time></trkpt><trkpt lat="43.9851844" lon="11.654153"><ele>683.0</ele><time>2026-04-18T13:47:50.983Z</time></trkpt><trkpt lat="43.9851704" lon="11.6542544"><ele>683.0</ele><time>2026-04-18T13:47:58.008Z</time></trkpt><trkpt lat="43.9851522" lon="11.6543382"><ele>683.0</ele><time>2026-04-18T13:48:03.991Z</time></trkpt><trkpt lat="43.9851142" lon="11.6544241"><ele>683.0</ele><time>2026-04-18T13:48:11.025Z</time></trkpt><trkpt lat="43.9851844" lon="11.654153"><ele>683.0</ele><time>2026-04-18T13:47:50.983Z</time></trkpt><trkpt lat="43.9851704" lon="11.6542544"><ele>683.0</ele><time>2026-04-18T13:47:58.008Z</time></trkpt><trkpt lat="43.9851522" lon="11.6543382"><ele>683.0</ele><time>2026-04-18T13:48:03.991Z</time></trkpt><trkpt lat="43.9851142" lon="11.6544241"><ele>683.0</ele><time>2026-04-18T13:48:11.025Z</time></trkpt><trkpt lat="43.9850967" lon="11.6545104"><ele>683.0</ele><time>2026-04-18T13:48:17.005Z</time></trkpt><trkpt lat="43.9850751" lon="11.6546117"><ele>683.0</ele><time>2026-04-18T13:48:23.104Z</time></trkpt><trkpt lat="43.9850701" lon="11.6547109"><ele>683.0</ele><time>2026-04-18T13:48:29.085Z</time></trkpt><trkpt lat="43.9850687" lon="11.6547994"><ele>684.7142857142858</ele><time>2026-04-18T13:48:35.899Z</time></trkpt><trkpt lat="43.985055" lon="11.6548926"><ele>686.4285714285714</ele><time>2026-04-18T13:48:42.101Z</time></trkpt><trkpt lat="43.9850541" lon="11.6549802"><ele>688.1428571428571</ele><time>2026-04-18T13:48:51.13Z</time></trkpt><trkpt lat="43.9850524" lon="11.6550754"><ele>689.8571428571429</ele><time>2026-04-18T13:48:57.111Z</time></trkpt><trkpt lat="43.9850476" lon="11.655176"><ele>691.5714285714286</ele><time>2026-04-18T13:49:04.083Z</time></trkpt><trkpt lat="43.985054" lon="11.6552638"><ele>693.2857142857143</ele><time>2026-04-18T13:49:10.012Z</time></trkpt><trkpt lat="43.9850369" lon="11.6553626"><ele>695.0</ele><time>2026-04-18T13:49:16.109Z</time></trkpt><trkpt lat="43.9850166" lon="11.6554598"><ele>697.0000000000001</ele><time>2026-04-18T13:49:21.034Z</time></trkpt><trkpt lat="43.9850328" lon="11.6555495"><ele>699.0</ele><time>2026-04-18T13:49:28.065Z</time></trkpt><trkpt lat="43.9849978" lon="11.6556416"><ele>701.0</ele><time>2026-04-18T13:49:37.101Z</time></trkpt><trkpt lat="43.9849556" lon="11.6557171"><ele>703.0</ele><time>2026-04-18T13:49:42.958Z</time></trkpt><trkpt lat="43.9849163" lon="11.6557909"><ele>705.0</ele><time>2026-04-18T13:49:50.147Z</time></trkpt><trkpt lat="43.9848764" lon="11.6558785"><ele>707.0000000000001</ele><time>2026-04-18T13:49:56.098Z</time></trkpt><trkpt lat="43.9848193" lon="11.6559482"><ele>709.0</ele><time>2026-04-18T13:50:02.08Z</time></trkpt><trkpt lat="43.9847695" lon="11.6560166"><ele>706.1428571428572</ele><time>2026-04-18T13:50:09.115Z</time></trkpt><trkpt lat="43.9847231" lon="11.6560962"><ele>703.2857142857143</ele><time>2026-04-18T13:50:17.09Z</time></trkpt><trkpt lat="43.9846848" lon="11.6561744"><ele>700.4285714285714</ele><time>2026-04-18T13:50:23.07Z</time></trkpt><trkpt lat="43.9846292" lon="11.656217"><ele>697.5714285714287</ele><time>2026-04-18T13:50:33.141Z</time></trkpt><trkpt lat="43.984564" lon="11.656266"><ele>694.7142857142858</ele><time>2026-04-18T13:50:39.921Z</time></trkpt><trkpt lat="43.984508" lon="11.6563144"><ele>691.8571428571429</ele><time>2026-04-18T13:50:45.001Z</time></trkpt><trkpt lat="43.9844632" lon="11.6563849"><ele>689.0</ele><time>2026-04-18T13:50:51.098Z</time></trkpt><trkpt lat="43.9844078" lon="11.6564385"><ele>689.0</ele><time>2026-04-18T13:51:06.109Z</time></trkpt><trkpt lat="43.9843572" lon="11.6565073"><ele>689.0</ele><time>2026-04-18T13:51:13.965Z</time></trkpt><trkpt lat="43.984308" lon="11.6565724"><ele>689.0</ele><time>2026-04-18T13:51:20.063Z</time></trkpt><trkpt lat="43.9842753" lon="11.6566608"><ele>689.0</ele><time>2026-04-18T13:51:27.1Z</time></trkpt><trkpt lat="43.9842362" lon="11.6567341"><ele>689.0</ele><time>2026-04-18T13:51:38.123Z</time></trkpt><trkpt lat="43.9841969" lon="11.6568137"><ele>689.0</ele><time>2026-04-18T13:51:51.023Z</time></trkpt><trkpt lat="43.9841355" lon="11.6568479"><ele>689.0</ele><time>2026-04-18T13:52:00.992Z</time></trkpt><trkpt lat="43.9840738" lon="11.6568826"><ele>685.1428571428571</ele><time>2026-04-18T13:52:10.02Z</time></trkpt><trkpt lat="43.9840209" lon="11.6569443"><ele>681.2857142857143</ele><time>2026-04-18T13:52:18.112Z</time></trkpt><trkpt lat="43.9839699" lon="11.657004"><ele>677.4285714285714</ele><time>2026-04-18T13:52:26.085Z</time></trkpt><trkpt lat="43.9839609" lon="11.6570914"><ele>673.5714285714286</ele><time>2026-04-18T13:52:37.109Z</time></trkpt><trkpt lat="43.9839443" lon="11.6571943"><ele>669.7142857142857</ele><time>2026-04-18T13:52:44.027Z</time></trkpt><trkpt lat="43.9839139" lon="11.6572755"><ele>665.8571428571429</ele><time>2026-04-18T13:52:49.07Z</time></trkpt><trkpt lat="43.9838798" lon="11.6573655"><ele>662.0</ele><time>2026-04-18T13:52:58.1Z</time></trkpt><trkpt lat="43.9838742" lon="11.6574561"><ele>662.0</ele><time>2026-04-18T13:53:07.013Z</time></trkpt><trkpt lat="43.9838283" lon="11.6575326"><ele>662.0</ele><time>2026-04-18T13:53:25.071Z</time></trkpt><trkpt lat="43.9837746" lon="11.6574869"><ele>662.0</ele><time>2026-04-18T13:53:42.075Z</time></trkpt><trkpt lat="43.9837117" lon="11.6575086"><ele>662.0</ele><time>2026-04-18T13:53:52.982Z</time></trkpt><trkpt lat="43.9836607" lon="11.6575624"><ele>662.0</ele><time>2026-04-18T13:53:59.079Z</time></trkpt><trkpt lat="43.9836182" lon="11.6576358"><ele>662.0</ele><time>2026-04-18T13:54:11.041Z</time></trkpt><trkpt lat="43.9835612" lon="11.6576731"><ele>662.0</ele><time>2026-04-18T13:54:21.1Z</time></trkpt><trkpt lat="43.9835174" lon="11.6577462"><ele>662.0</ele><time>2026-04-18T13:54:30.038Z</time></trkpt><trkpt lat="43.9835404" lon="11.6576505"><ele>662.0</ele><time>2026-04-18T13:54:50.091Z</time></trkpt><trkpt lat="43.9835546" lon="11.6575635"><ele>662.0</ele><time>2026-04-18T13:54:58.066Z</time></trkpt><trkpt lat="43.9834962" lon="11.6576216"><ele>662.0</ele><time>2026-04-18T13:55:12.982Z</time></trkpt><trkpt lat="43.9834632" lon="11.6576964"><ele>662.0</ele><time>2026-04-18T13:55:19.057Z</time></trkpt><trkpt lat="43.9834706" lon="11.6577897"><ele>662.0</ele><time>2026-04-18T13:55:25.939Z</time></trkpt><trkpt lat="43.9834177" lon="11.6578498"><ele>662.0</ele><time>2026-04-18T13:55:45.09Z</time></trkpt><trkpt lat="43.9833579" lon="11.6578799"><ele>658.8571428571429</ele><time>2026-04-18T13:55:57.026Z</time></trkpt><trkpt lat="43.9832869" lon="11.6578783"><ele>655.7142857142857</ele><time>2026-04-18T13:56:08.04Z</time></trkpt><trkpt lat="43.9832294" lon="11.657838"><ele>652.5714285714286</ele><time>2026-04-18T13:56:20.037Z</time></trkpt><trkpt lat="43.9831651" lon="11.6578016"><ele>649.4285714285714</ele><time>2026-04-18T13:56:40.09Z</time></trkpt><trkpt lat="43.9831013" lon="11.6577537"><ele>646.2857142857143</ele><time>2026-04-18T13:56:46.071Z</time></trkpt><trkpt lat="43.983035" lon="11.6577326"><ele>643.1428571428571</ele><time>2026-04-18T13:56:53.106Z</time></trkpt><trkpt lat="43.9829715" lon="11.6577337"><ele>640.0</ele><time>2026-04-18T13:57:06Z</time></trkpt><trkpt lat="43.9829123" lon="11.6577752"><ele>640.0</ele><time>2026-04-18T13:57:14.097Z</time></trkpt><trkpt lat="43.9828501" lon="11.6578426"><ele>640.0</ele><time>2026-04-18T13:57:23.883Z</time></trkpt><trkpt lat="43.98279" lon="11.657884"><ele>640.0</ele><time>2026-04-18T13:57:29.108Z</time></trkpt><trkpt lat="43.9827533" lon="11.6579572"><ele>640.0</ele><time>2026-04-18T13:57:39.077Z</time></trkpt><trkpt lat="43.9827413" lon="11.6580439"><ele>640.0</ele><time>2026-04-18T13:57:45.995Z</time></trkpt><trkpt lat="43.9827252" lon="11.6581398"><ele>640.0</ele><time>2026-04-18T13:57:57.119Z</time></trkpt><trkpt lat="43.9826951" lon="11.6582225"><ele>640.0</ele><time>2026-04-18T13:58:03.116Z</time></trkpt><trkpt lat="43.9826546" lon="11.658299"><ele>640.0</ele><time>2026-04-18T13:58:10.035Z</time></trkpt><trkpt lat="43.9826758" lon="11.658391"><ele>640.0</ele><time>2026-04-18T13:58:16.059Z</time></trkpt><trkpt lat="43.9826607" lon="11.6584801"><ele>640.0</ele><time>2026-04-18T13:58:23.053Z</time></trkpt><trkpt lat="43.9826137" lon="11.6585565"><ele>640.0</ele><time>2026-04-18T13:58:31.026Z</time></trkpt><trkpt lat="43.982544" lon="11.6585878"><ele>640.0</ele><time>2026-04-18T13:58:38.105Z</time></trkpt><trkpt lat="43.9825073" lon="11.6586648"><ele>640.0</ele><time>2026-04-18T13:58:46.08Z</time></trkpt><trkpt lat="43.9824568" lon="11.6587226"><ele>640.0</ele><time>2026-04-18T13:58:54.011Z</time></trkpt><trkpt lat="43.9823931" lon="11.6587529"><ele>636.2857142857142</ele><time>2026-04-18T13:59:03.042Z</time></trkpt><trkpt lat="43.9823261" lon="11.6587766"><ele>632.5714285714286</ele><time>2026-04-18T13:59:13.126Z</time></trkpt><trkpt lat="43.9822605" lon="11.6587952"><ele>628.8571428571429</ele><time>2026-04-18T13:59:23.095Z</time></trkpt><trkpt lat="43.9822736" lon="11.6588942"><ele>625.1428571428571</ele><time>2026-04-18T13:59:35.995Z</time></trkpt><trkpt lat="43.9822224" lon="11.6589642"><ele>621.4285714285714</ele><time>2026-04-18T13:59:51.029Z</time></trkpt><trkpt lat="43.9821662" lon="11.6590216"><ele>617.7142857142857</ele><time>2026-04-18T13:59:57.103Z</time></trkpt><trkpt lat="43.982143" lon="11.6591076"><ele>614.0</ele><time>2026-04-18T14:00:13.051Z</time></trkpt><trkpt lat="43.9820823" lon="11.6591357"><ele>613.9999999999999</ele><time>2026-04-18T14:00:21.142Z</time></trkpt><trkpt lat="43.9820222" lon="11.6591665"><ele>614.0</ele><time>2026-04-18T14:00:30.056Z</time></trkpt><trkpt lat="43.9819587" lon="11.6591867"><ele>614.0</ele><time>2026-04-18T14:00:38.996Z</time></trkpt><trkpt lat="43.9819018" lon="11.6592353"><ele>614.0</ele><time>2026-04-18T14:00:46.121Z</time></trkpt><trkpt lat="43.9818843" lon="11.6593256"><ele>614.0</ele><time>2026-04-18T14:00:55.033Z</time></trkpt><trkpt lat="43.9818345" lon="11.6593874"><ele>613.9999999999999</ele><time>2026-04-18T14:01:03.008Z</time></trkpt><trkpt lat="43.9817851" lon="11.6594604"><ele>614.0</ele><time>2026-04-18T14:01:10.044Z</time></trkpt><trkpt lat="43.9817437" lon="11.6595268"><ele>614.8571428571428</ele><time>2026-04-18T14:01:17.011Z</time></trkpt><trkpt lat="43.9816869" lon="11.6595757"><ele>615.7142857142857</ele><time>2026-04-18T14:01:26.005Z</time></trkpt><trkpt lat="43.9816497" lon="11.6596678"><ele>616.5714285714286</ele><time>2026-04-18T14:01:31.036Z</time></trkpt><trkpt lat="43.9816168" lon="11.6597573"><ele>617.4285714285713</ele><time>2026-04-18T14:01:41.004Z</time></trkpt><trkpt lat="43.9815834" lon="11.6598391"><ele>618.2857142857142</ele><time>2026-04-18T14:01:47.102Z</time></trkpt><trkpt lat="43.9815667" lon="11.6599326"><ele>619.1428571428571</ele><time>2026-04-18T14:01:53.126Z</time></trkpt><trkpt lat="43.9815553" lon="11.6600284"><ele>620.0</ele><time>2026-04-18T14:02:02.085Z</time></trkpt><trkpt lat="43.9815688" lon="11.6601181"><ele>620.4285714285714</ele><time>2026-04-18T14:02:09.062Z</time></trkpt><trkpt lat="43.9815797" lon="11.6602171"><ele>620.8571428571429</ele><time>2026-04-18T14:02:16.066Z</time></trkpt><trkpt lat="43.9815943" lon="11.6603156"><ele>621.2857142857142</ele><time>2026-04-18T14:02:22.047Z</time></trkpt><trkpt lat="43.9816247" lon="11.6604096"><ele>621.7142857142858</ele><time>2026-04-18T14:02:27.089Z</time></trkpt><trkpt lat="43.9816387" lon="11.6605079"><ele>622.1428571428571</ele><time>2026-04-18T14:02:32.014Z</time></trkpt><trkpt lat="43.9816136" lon="11.6605925"><ele>622.5714285714286</ele><time>2026-04-18T14:02:38.113Z</time></trkpt><trkpt lat="43.9816467" lon="11.6606739"><ele>623.0</ele><time>2026-04-18T14:02:53.781Z</time></trkpt><trkpt lat="43.9816992" lon="11.6607478"><ele>623.0</ele><time>2026-04-18T14:02:58.119Z</time></trkpt><trkpt lat="43.9817612" lon="11.6608023"><ele>623.0</ele><time>2026-04-18T14:03:03.09Z</time></trkpt><trkpt lat="43.9818092" lon="11.6608606"><ele>623.0</ele><time>2026-04-18T14:03:09.07Z</time></trkpt><trkpt lat="43.9818213" lon="11.6609536"><ele>623.0</ele><time>2026-04-18T14:03:15.052Z</time></trkpt><trkpt lat="43.9818289" lon="11.6610425"><ele>623.0</ele><time>2026-04-18T14:03:23.966Z</time></trkpt><trkpt lat="43.9818387" lon="11.6611374"><ele>623.0</ele><time>2026-04-18T14:03:36.106Z</time></trkpt><trkpt lat="43.9818455" lon="11.661232"><ele>623.0</ele><time>2026-04-18T14:03:42.022Z</time></trkpt><trkpt lat="43.9818454" lon="11.6613349"><ele>624.1428571428571</ele><time>2026-04-18T14:03:49.093Z</time></trkpt><trkpt lat="43.9818296" lon="11.6614262"><ele>625.2857142857142</ele><time>2026-04-18T14:03:58.088Z</time></trkpt><trkpt lat="43.9818052" lon="11.6615222"><ele>626.4285714285714</ele><time>2026-04-18T14:04:03.13Z</time></trkpt><trkpt lat="43.9817845" lon="11.6616116"><ele>627.5714285714286</ele><time>2026-04-18T14:04:09.058Z</time></trkpt><trkpt lat="43.9817601" lon="11.6617002"><ele>628.7142857142857</ele><time>2026-04-18T14:04:17.037Z</time></trkpt><trkpt lat="43.9817291" lon="11.6617819"><ele>629.8571428571429</ele><time>2026-04-18T14:04:26.067Z</time></trkpt><trkpt lat="43.9817443" lon="11.6618749"><ele>631.0</ele><time>2026-04-18T14:04:34.045Z</time></trkpt><trkpt lat="43.9817372" lon="11.6620189"><ele>628.2857142857143</ele><time>2026-04-18T14:04:56.951Z</time></trkpt><trkpt lat="43.9817333" lon="11.662108"><ele>625.5714285714286</ele><time>2026-04-18T14:05:06.645Z</time></trkpt><trkpt lat="43.9817894" lon="11.6621525"><ele>622.8571428571429</ele><time>2026-04-18T14:05:13.048Z</time></trkpt><trkpt lat="43.9818258" lon="11.6622467"><ele>620.1428571428571</ele><time>2026-04-18T14:05:21.49Z</time></trkpt><trkpt lat="43.9818109" lon="11.6623424"><ele>617.4285714285714</ele><time>2026-04-18T14:05:30.039Z</time></trkpt><trkpt lat="43.9818211" lon="11.6624296"><ele>614.7142857142857</ele><time>2026-04-18T14:05:38.131Z</time></trkpt><trkpt lat="43.9818408" lon="11.6625236"><ele>612.0</ele><time>2026-04-18T14:05:46.105Z</time></trkpt><trkpt lat="43.981856" lon="11.6626092"><ele>612.0</ele><time>2026-04-18T14:05:54.023Z</time></trkpt><trkpt lat="43.9818577" lon="11.6627049"><ele>612.0</ele><time>2026-04-18T14:06:02.053Z</time></trkpt><trkpt lat="43.9818976" lon="11.6627745"><ele>612.0</ele><time>2026-04-18T14:06:06.04Z</time></trkpt><trkpt lat="43.9819597" lon="11.6627941"><ele>612.0</ele><time>2026-04-18T14:06:15.07Z</time></trkpt><trkpt lat="43.9820133" lon="11.6628504"><ele>612.0</ele><time>2026-04-18T14:06:23.045Z</time></trkpt><trkpt lat="43.982074" lon="11.6628853"><ele>612.0</ele><time>2026-04-18T14:06:28.989Z</time></trkpt><trkpt lat="43.9821367" lon="11.6629176"><ele>612.0</ele><time>2026-04-18T14:06:37.102Z</time></trkpt><trkpt lat="43.9821796" lon="11.662999"><ele>608.7142857142857</ele><time>2026-04-18T14:06:42.027Z</time></trkpt><trkpt lat="43.9822146" lon="11.6630787"><ele>605.4285714285714</ele><time>2026-04-18T14:06:48.008Z</time></trkpt><trkpt lat="43.9822589" lon="11.6631513"><ele>602.1428571428571</ele><time>2026-04-18T14:06:53.052Z</time></trkpt><trkpt lat="43.9822998" lon="11.663228"><ele>598.8571428571429</ele><time>2026-04-18T14:06:59.031Z</time></trkpt><trkpt lat="43.9823319" lon="11.6633096"><ele>595.5714285714286</ele><time>2026-04-18T14:07:05.014Z</time></trkpt><trkpt lat="43.9823373" lon="11.6634014"><ele>592.2857142857142</ele><time>2026-04-18T14:07:14.043Z</time></trkpt><trkpt lat="43.9823021" lon="11.6634776"><ele>589.0</ele><time>2026-04-18T14:07:21.009Z</time></trkpt><trkpt lat="43.9822713" lon="11.6635617"><ele>588.8571428571429</ele><time>2026-04-18T14:07:31.047Z</time></trkpt><trkpt lat="43.9822278" lon="11.6636287"><ele>588.7142857142857</ele><time>2026-04-18T14:07:37.028Z</time></trkpt><trkpt lat="43.9821967" lon="11.6637121"><ele>588.5714285714286</ele><time>2026-04-18T14:07:42.988Z</time></trkpt><trkpt lat="43.9821998" lon="11.6638057"><ele>588.4285714285714</ele><time>2026-04-18T14:07:50.045Z</time></trkpt><trkpt lat="43.9822005" lon="11.6638976"><ele>588.2857142857142</ele><time>2026-04-18T14:07:57.13Z</time></trkpt><trkpt lat="43.9822272" lon="11.6639883"><ele>588.1428571428571</ele><time>2026-04-18T14:08:04.105Z</time></trkpt><trkpt lat="43.982209" lon="11.6640828"><ele>588.0</ele><time>2026-04-18T14:08:12.093Z</time></trkpt><trkpt lat="43.9821908" lon="11.664176"><ele>588.0</ele><time>2026-04-18T14:08:18.073Z</time></trkpt><trkpt lat="43.9821543" lon="11.6642602"><ele>588.0</ele><time>2026-04-18T14:08:25.109Z</time></trkpt><trkpt lat="43.9821037" lon="11.66433"><ele>588.0</ele><time>2026-04-18T14:08:34.107Z</time></trkpt><trkpt lat="43.9820438" lon="11.6643788"><ele>588.0</ele><time>2026-04-18T14:08:40.057Z</time></trkpt><trkpt lat="43.9820362" lon="11.6644809"><ele>588.0</ele><time>2026-04-18T14:08:48.093Z</time></trkpt><trkpt lat="43.9820389" lon="11.6645738"><ele>588.0</ele><time>2026-04-18T14:08:55.012Z</time></trkpt><trkpt lat="43.9820614" lon="11.6646648"><ele>588.0</ele><time>2026-04-18T14:09:00.056Z</time></trkpt><trkpt lat="43.9820221" lon="11.664745"><ele>589.2857142857143</ele><time>2026-04-18T14:09:06.035Z</time></trkpt><trkpt lat="43.9819942" lon="11.6648285"><ele>590.5714285714286</ele><time>2026-04-18T14:09:13.155Z</time></trkpt><trkpt lat="43.9820015" lon="11.6649246"><ele>591.8571428571429</ele><time>2026-04-18T14:09:21.045Z</time></trkpt><trkpt lat="43.9820226" lon="11.6650104"><ele>593.1428571428571</ele><time>2026-04-18T14:09:28.083Z</time></trkpt><trkpt lat="43.9819844" lon="11.6650829"><ele>594.4285714285714</ele><time>2026-04-18T14:09:35.002Z</time></trkpt><trkpt lat="43.9819419" lon="11.6651558"><ele>595.7142857142858</ele><time>2026-04-18T14:09:44.032Z</time></trkpt><trkpt lat="43.981884" lon="11.6651946"><ele>597.0</ele><time>2026-04-18T14:09:56.11Z</time></trkpt><trkpt lat="43.9818691" lon="11.6652871"><ele>597.8571428571429</ele><time>2026-04-18T14:10:03.028Z</time></trkpt><trkpt lat="43.9818829" lon="11.6653822"><ele>598.7142857142858</ele><time>2026-04-18T14:10:08.071Z</time></trkpt><trkpt lat="43.9818988" lon="11.6654734"><ele>599.5714285714287</ele><time>2026-04-18T14:10:14.109Z</time></trkpt><trkpt lat="43.9818989" lon="11.6655686"><ele>600.4285714285714</ele><time>2026-04-18T14:10:21.089Z</time></trkpt><trkpt lat="43.9819137" lon="11.6656615"><ele>601.2857142857142</ele><time>2026-04-18T14:10:35.001Z</time></trkpt><trkpt lat="43.9818889" lon="11.6657976"><ele>602.1428571428572</ele><time>2026-04-18T14:10:52.047Z</time></trkpt><trkpt lat="43.9818271" lon="11.6658231"><ele>603.0</ele><time>2026-04-18T14:11:03.069Z</time></trkpt><trkpt lat="43.9818411" lon="11.6659135"><ele>603.0</ele><time>2026-04-18T14:11:11.044Z</time></trkpt><trkpt lat="43.9818201" lon="11.6660035"><ele>603.0</ele><time>2026-04-18T14:11:19.02Z</time></trkpt><trkpt lat="43.9817712" lon="11.666062"><ele>603.0</ele><time>2026-04-18T14:11:30.042Z</time></trkpt><trkpt lat="43.9817685" lon="11.6661544"><ele>603.0</ele><time>2026-04-18T14:11:40.011Z</time></trkpt><trkpt lat="43.9817048" lon="11.6661597"><ele>603.0</ele><time>2026-04-18T14:11:54.083Z</time></trkpt><trkpt lat="43.9816923" lon="11.6662509"><ele>603.0</ele><time>2026-04-18T14:12:02.056Z</time></trkpt><trkpt lat="43.9816802" lon="11.6663395"><ele>603.0</ele><time>2026-04-18T14:12:10.03Z</time></trkpt><trkpt lat="43.9816771" lon="11.6664292"><ele>598.5714285714286</ele><time>2026-04-18T14:12:18.002Z</time></trkpt><trkpt lat="43.9816498" lon="11.6665126"><ele>594.1428571428571</ele><time>2026-04-18T14:12:26.096Z</time></trkpt><trkpt lat="43.9816318" lon="11.6666045"><ele>589.7142857142857</ele><time>2026-04-18T14:12:37.003Z</time></trkpt><trkpt lat="43.9816575" lon="11.6667007"><ele>585.2857142857142</ele><time>2026-04-18T14:12:42.044Z</time></trkpt><trkpt lat="43.9816712" lon="11.6668016"><ele>580.8571428571429</ele><time>2026-04-18T14:12:47.088Z</time></trkpt><trkpt lat="43.9816679" lon="11.6668899"><ele>576.4285714285713</ele><time>2026-04-18T14:12:52.013Z</time></trkpt><trkpt lat="43.9816672" lon="11.6669861"><ele>572.0</ele><time>2026-04-18T14:13:02.098Z</time></trkpt><trkpt lat="43.9816734" lon="11.6670756"><ele>570.7142857142857</ele><time>2026-04-18T14:13:08.079Z</time></trkpt><trkpt lat="43.9816841" lon="11.6671727"><ele>569.4285714285714</ele><time>2026-04-18T14:13:15.114Z</time></trkpt><trkpt lat="43.9816749" lon="11.6672695"><ele>568.1428571428571</ele><time>2026-04-18T14:13:21.095Z</time></trkpt><trkpt lat="43.9816703" lon="11.6673677"><ele>566.8571428571429</ele><time>2026-04-18T14:13:30.007Z</time></trkpt><trkpt lat="43.9816828" lon="11.6674552"><ele>565.5714285714286</ele><time>2026-04-18T14:13:35.05Z</time></trkpt><trkpt lat="43.9817017" lon="11.6675453"><ele>564.2857142857142</ele><time>2026-04-18T14:13:41.108Z</time></trkpt><trkpt lat="43.9816792" lon="11.6676319"><ele>563.0</ele><time>2026-04-18T14:13:50.998Z</time></trkpt><trkpt lat="43.9817095" lon="11.6677242"><ele>564.4285714285714</ele><time>2026-04-18T14:13:58.034Z</time></trkpt><trkpt lat="43.981754" lon="11.6678119"><ele>565.8571428571429</ele><time>2026-04-18T14:14:03.076Z</time></trkpt><trkpt lat="43.981797" lon="11.6678816"><ele>567.2857142857143</ele><time>2026-04-18T14:14:12.067Z</time></trkpt><trkpt lat="43.981775" lon="11.6679653"><ele>568.7142857142858</ele><time>2026-04-18T14:14:21.018Z</time></trkpt><trkpt lat="43.9817746" lon="11.6680579"><ele>570.1428571428572</ele><time>2026-04-18T14:14:29.111Z</time></trkpt><trkpt lat="43.9817835" lon="11.668159"><ele>571.5714285714286</ele><time>2026-04-18T14:14:45.043Z</time></trkpt><trkpt lat="43.9818263" lon="11.6682396"><ele>573.0</ele><time>2026-04-18T14:14:55.011Z</time></trkpt><trkpt lat="43.9818594" lon="11.6683166"><ele>573.0</ele><time>2026-04-18T14:15:02.048Z</time></trkpt><trkpt lat="43.9818666" lon="11.6684138"><ele>573.0</ele><time>2026-04-18T14:15:11.078Z</time></trkpt><trkpt lat="43.9819118" lon="11.6684756"><ele>573.0</ele><time>2026-04-18T14:15:18.114Z</time></trkpt><trkpt lat="43.9819666" lon="11.668539"><ele>573.0</ele><time>2026-04-18T14:15:23.038Z</time></trkpt><trkpt lat="43.9820263" lon="11.6686062"><ele>573.0</ele><time>2026-04-18T14:15:30.109Z</time></trkpt><trkpt lat="43.9820786" lon="11.6686836"><ele>573.0</ele><time>2026-04-18T14:15:36.993Z</time></trkpt><trkpt lat="43.9821085" lon="11.6687613"><ele>573.0</ele><time>2026-04-18T14:15:43.091Z</time></trkpt><trkpt lat="43.9821541" lon="11.6688278"><ele>570.2857142857143</ele><time>2026-04-18T14:15:50.991Z</time></trkpt><trkpt lat="43.9822098" lon="11.6688828"><ele>567.5714285714287</ele><time>2026-04-18T14:15:57.047Z</time></trkpt><trkpt lat="43.9822687" lon="11.6689275"><ele>564.8571428571429</ele><time>2026-04-18T14:16:03.095Z</time></trkpt><trkpt lat="43.9823353" lon="11.6689618"><ele>562.1428571428571</ele><time>2026-04-18T14:16:10.063Z</time></trkpt><trkpt lat="43.9823925" lon="11.6690045"><ele>559.4285714285713</ele><time>2026-04-18T14:16:16.007Z</time></trkpt><trkpt lat="43.9823743" lon="11.6691498"><ele>556.7142857142857</ele><time>2026-04-18T14:16:53.1Z</time></trkpt><trkpt lat="43.9823455" lon="11.669231"><ele>554.0</ele><time>2026-04-18T14:16:58.986Z</time></trkpt><trkpt lat="43.9823592" lon="11.6693436"><ele>554.0</ele><time>2026-04-18T14:17:14.091Z</time></trkpt><trkpt lat="43.9823328" lon="11.6694235"><ele>554.0</ele><time>2026-04-18T14:17:21.01Z</time></trkpt><trkpt lat="43.982318" lon="11.6695199"><ele>554.0</ele><time>2026-04-18T14:17:29.101Z</time></trkpt><trkpt lat="43.982364" lon="11.6696004"><ele>554.0</ele><time>2026-04-18T14:17:36.019Z</time></trkpt><trkpt lat="43.9823902" lon="11.6696812"><ele>554.0</ele><time>2026-04-18T14:17:44.111Z</time></trkpt><trkpt lat="43.982378" lon="11.6697758"><ele>554.0</ele><time>2026-04-18T14:17:50.091Z</time></trkpt><trkpt lat="43.982364" lon="11.6698672"><ele>554.0</ele><time>2026-04-18T14:17:55.087Z</time></trkpt><trkpt lat="43.9823647" lon="11.6699555"><ele>554.1428571428571</ele><time>2026-04-18T14:18:01.109Z</time></trkpt><trkpt lat="43.9823748" lon="11.6700439"><ele>554.2857142857142</ele><time>2026-04-18T14:18:08.553Z</time></trkpt><trkpt lat="43.982312" lon="11.6700902"><ele>554.4285714285714</ele><time>2026-04-18T14:19:12.011Z</time></trkpt><trkpt lat="43.9823146" lon="11.6701777"><ele>554.5714285714286</ele><time>2026-04-18T14:19:15.999Z</time></trkpt><trkpt lat="43.982294" lon="11.670275"><ele>554.7142857142858</ele><time>2026-04-18T14:19:23.035Z</time></trkpt><trkpt lat="43.9822759" lon="11.6703599"><ele>554.8571428571429</ele><time>2026-04-18T14:19:29.043Z</time></trkpt><trkpt lat="43.9822504" lon="11.6704469"><ele>555.0</ele><time>2026-04-18T14:19:40.04Z</time></trkpt><trkpt lat="43.9822187" lon="11.6705264"><ele>555.2857142857143</ele><time>2026-04-18T14:19:46.02Z</time></trkpt><trkpt lat="43.9821993" lon="11.6706167"><ele>555.5714285714286</ele><time>2026-04-18T14:19:52.002Z</time></trkpt><trkpt lat="43.9821698" lon="11.6707013"><ele>555.8571428571429</ele><time>2026-04-18T14:19:58.109Z</time></trkpt><trkpt lat="43.9821286" lon="11.6707803"><ele>556.1428571428571</ele><time>2026-04-18T14:20:08.067Z</time></trkpt><trkpt lat="43.9820687" lon="11.6708448"><ele>556.4285714285714</ele><time>2026-04-18T14:20:15.103Z</time></trkpt><trkpt lat="43.9820564" lon="11.6709319"><ele>556.7142857142858</ele><time>2026-04-18T14:20:20.966Z</time></trkpt><trkpt lat="43.9820697" lon="11.6710217"><ele>557.0</ele><time>2026-04-18T14:20:29.105Z</time></trkpt><trkpt lat="43.9820832" lon="11.6711155"><ele>556.1428571428571</ele><time>2026-04-18T14:20:37.032Z</time></trkpt><trkpt lat="43.98209" lon="11.6712158"><ele>555.2857142857142</ele><time>2026-04-18T14:20:44.712Z</time></trkpt><trkpt lat="43.9821211" lon="11.6712994"><ele>554.4285714285713</ele><time>2026-04-18T14:20:52.043Z</time></trkpt><trkpt lat="43.9821553" lon="11.6713767"><ele>553.5714285714286</ele><time>2026-04-18T14:20:58.022Z</time></trkpt><trkpt lat="43.9821951" lon="11.6714492"><ele>552.7142857142857</ele><time>2026-04-18T14:21:03.066Z</time></trkpt><trkpt lat="43.9822498" lon="11.6715109"><ele>551.8571428571428</ele><time>2026-04-18T14:21:11.04Z</time></trkpt><trkpt lat="43.9822878" lon="11.6715819"><ele>551.0</ele><time>2026-04-18T14:21:18.076Z</time></trkpt><trkpt lat="43.9823241" lon="11.6716827"><ele>550.9999999999999</ele><time>2026-04-18T14:21:36.135Z</time></trkpt><trkpt lat="43.9823644" lon="11.6717565"><ele>551.0</ele><time>2026-04-18T14:21:44.108Z</time></trkpt><trkpt lat="43.9823633" lon="11.6718512"><ele>551.0</ele><time>2026-04-18T14:21:52.169Z</time></trkpt><trkpt lat="43.982391" lon="11.6719379"><ele>551.0</ele><time>2026-04-18T14:21:59.002Z</time></trkpt><trkpt lat="43.9824123" lon="11.6720285"><ele>551.0</ele><time>2026-04-18T14:22:06.037Z</time></trkpt><trkpt lat="43.9823889" lon="11.672111"><ele>550.9999999999999</ele><time>2026-04-18T14:22:17.06Z</time></trkpt><trkpt lat="43.9823136" lon="11.6721698"><ele>551.0</ele><time>2026-04-18T14:23:16.044Z</time></trkpt><trkpt lat="43.9823677" lon="11.6722226"><ele>550.5714285714286</ele><time>2026-04-18T14:23:19.68Z</time></trkpt><trkpt lat="43.9823681" lon="11.6723204"><ele>550.1428571428571</ele><time>2026-04-18T14:23:26.012Z</time></trkpt><trkpt lat="43.9823366" lon="11.6723982"><ele>549.7142857142858</ele><time>2026-04-18T14:23:35.028Z</time></trkpt><trkpt lat="43.9822771" lon="11.6724425"><ele>549.2857142857142</ele><time>2026-04-18T14:23:45.009Z</time></trkpt><trkpt lat="43.9822298" lon="11.672505"><ele>548.8571428571429</ele><time>2026-04-18T14:23:51.107Z</time></trkpt><trkpt lat="43.9821773" lon="11.6725618"><ele>548.4285714285714</ele><time>2026-04-18T14:23:58.025Z</time></trkpt><trkpt lat="43.9821566" lon="11.672651"><ele>548.0</ele><time>2026-04-18T14:24:05.061Z</time></trkpt><trkpt lat="43.9821857" lon="11.6727422"><ele>547.4285714285714</ele><time>2026-04-18T14:24:11.042Z</time></trkpt><trkpt lat="43.9822033" lon="11.6728353"><ele>546.8571428571429</ele><time>2026-04-18T14:24:19.016Z</time></trkpt><trkpt lat="43.9822335" lon="11.6729187"><ele>546.2857142857142</ele><time>2026-04-18T14:24:24.984Z</time></trkpt><trkpt lat="43.9822747" lon="11.6729967"><ele>545.7142857142858</ele><time>2026-04-18T14:24:33.007Z</time></trkpt><trkpt lat="43.9823024" lon="11.6730827"><ele>545.1428571428571</ele><time>2026-04-18T14:24:41.06Z</time></trkpt><trkpt lat="43.982349" lon="11.6731474"><ele>544.5714285714286</ele><time>2026-04-18T14:24:47.042Z</time></trkpt><trkpt lat="43.9824017" lon="11.673197"><ele>544.0</ele><time>2026-04-18T14:24:54.077Z</time></trkpt><trkpt lat="43.9824428" lon="11.6732823"><ele>543.9999999999999</ele><time>2026-04-18T14:25:02.051Z</time></trkpt><trkpt lat="43.982471" lon="11.6733757"><ele>544.0</ele><time>2026-04-18T14:25:10.025Z</time></trkpt><trkpt lat="43.9824952" lon="11.6734764"><ele>544.0</ele><time>2026-04-18T14:25:16.006Z</time></trkpt><trkpt lat="43.9825405" lon="11.6735492"><ele>544.0</ele><time>2026-04-18T14:25:22.103Z</time></trkpt><trkpt lat="43.9825867" lon="11.6736172"><ele>544.0</ele><time>2026-04-18T14:25:28.883Z</time></trkpt><trkpt lat="43.9826255" lon="11.6736898"><ele>543.9999999999999</ele><time>2026-04-18T14:25:37.023Z</time></trkpt><trkpt lat="43.9826744" lon="11.6737695"><ele>544.0</ele><time>2026-04-18T14:25:46.142Z</time></trkpt><trkpt lat="43.9827172" lon="11.6738371"><ele>547.5714285714286</ele><time>2026-04-18T14:25:52.972Z</time></trkpt><trkpt lat="43.982754" lon="11.673912"><ele>551.1428571428571</ele><time>2026-04-18T14:26:03.007Z</time></trkpt><trkpt lat="43.9827854" lon="11.6739962"><ele>554.7142857142858</ele><time>2026-04-18T14:26:12.058Z</time></trkpt><trkpt lat="43.9828405" lon="11.6740468"><ele>558.2857142857142</ele><time>2026-04-18T14:26:21.087Z</time></trkpt><trkpt lat="43.9828287" lon="11.6741351"><ele>561.8571428571429</ele><time>2026-04-18T14:26:29.999Z</time></trkpt><trkpt lat="43.9828077" lon="11.6742196"><ele>565.4285714285714</ele><time>2026-04-18T14:26:38.09Z</time></trkpt><trkpt lat="43.9828112" lon="11.6743095"><ele>569.0</ele><time>2026-04-18T14:26:45.944Z</time></trkpt><trkpt lat="43.9828168" lon="11.6744013"><ele>567.2857142857143</ele><time>2026-04-18T14:26:54.037Z</time></trkpt><trkpt lat="43.9827916" lon="11.6744892"><ele>565.5714285714286</ele><time>2026-04-18T14:27:00.018Z</time></trkpt><trkpt lat="43.9827979" lon="11.6745829"><ele>563.8571428571429</ele><time>2026-04-18T14:27:05.999Z</time></trkpt><trkpt lat="43.9827754" lon="11.6746786"><ele>562.1428571428571</ele><time>2026-04-18T14:27:16.083Z</time></trkpt><trkpt lat="43.9827459" lon="11.6747595"><ele>560.4285714285714</ele><time>2026-04-18T14:27:23.144Z</time></trkpt><trkpt lat="43.9827163" lon="11.6748497"><ele>558.7142857142858</ele><time>2026-04-18T14:27:32.032Z</time></trkpt><trkpt lat="43.9826811" lon="11.6749395"><ele>557.0</ele><time>2026-04-18T14:27:39.104Z</time></trkpt><trkpt lat="43.982647" lon="11.6750144"><ele>557.0</ele><time>2026-04-18T14:27:46.007Z</time></trkpt><trkpt lat="43.9826371" lon="11.6751181"><ele>557.0</ele><time>2026-04-18T14:28:22.249Z</time></trkpt><trkpt lat="43.9827114" lon="11.6751134"><ele>557.0</ele><time>2026-04-18T14:28:46.04Z</time></trkpt><trkpt lat="43.9827461" lon="11.6751909"><ele>557.0</ele><time>2026-04-18T14:28:58.072Z</time></trkpt><trkpt lat="43.982742" lon="11.6752903"><ele>557.0</ele><time>2026-04-18T14:29:07.047Z</time></trkpt><trkpt lat="43.9827923" lon="11.6753711"><ele>557.0</ele><time>2026-04-18T14:29:12.091Z</time></trkpt><trkpt lat="43.9828392" lon="11.6754399"><ele>557.0</ele><time>2026-04-18T14:29:27.023Z</time></trkpt><trkpt lat="43.982891" lon="11.6754911"><ele>554.5714285714286</ele><time>2026-04-18T14:29:33.003Z</time></trkpt><trkpt lat="43.9829269" lon="11.6755694"><ele>552.1428571428571</ele><time>2026-04-18T14:29:41.004Z</time></trkpt><trkpt lat="43.9829756" lon="11.6756339"><ele>549.7142857142857</ele><time>2026-04-18T14:29:48.014Z</time></trkpt><trkpt lat="43.9830261" lon="11.6757172"><ele>547.2857142857142</ele><time>2026-04-18T14:29:56.064Z</time></trkpt><trkpt lat="43.9830657" lon="11.6757854"><ele>544.8571428571428</ele><time>2026-04-18T14:30:20.006Z</time></trkpt><trkpt lat="43.9831253" lon="11.6758416"><ele>542.4285714285714</ele><time>2026-04-18T14:30:26.006Z</time></trkpt><trkpt lat="43.9831971" lon="11.6758627"><ele>540.0</ele><time>2026-04-18T14:30:32.126Z</time></trkpt><trkpt lat="43.9832256" lon="11.6759455"><ele>540.0</ele><time>2026-04-18T14:30:38.008Z</time></trkpt><trkpt lat="43.9831934" lon="11.6760217"><ele>540.0</ele><time>2026-04-18T14:30:43.013Z</time></trkpt><trkpt lat="43.9831439" lon="11.6760762"><ele>540.0</ele><time>2026-04-18T14:30:48.994Z</time></trkpt><trkpt lat="43.9831912" lon="11.6760182"><ele>540.0</ele><time>2026-04-18T14:31:54.076Z</time></trkpt><trkpt lat="43.9831337" lon="11.6760853"><ele>540.0</ele><time>2026-04-18T14:36:40.084Z</time></trkpt><trkpt lat="43.9832035" lon="11.6760597"><ele>540.0</ele><time>2026-04-18T14:47:54.078Z</time></trkpt><trkpt lat="43.9832202" lon="11.6759471"><ele>540.0</ele><time>2026-04-18T14:56:25.037Z</time></trkpt><trkpt lat="43.9832613" lon="11.676023"><ele>540.0</ele><time>2026-04-18T14:56:37.113Z</time></trkpt><trkpt lat="43.9833009" lon="11.6760955"><ele>540.0</ele><time>2026-04-18T14:56:43.094Z</time></trkpt><trkpt lat="43.983339" lon="11.6761727"><ele>540.0</ele><time>2026-04-18T14:56:50.011Z</time></trkpt><trkpt lat="43.9833751" lon="11.6762486"><ele>540.0</ele><time>2026-04-18T14:56:59.039Z</time></trkpt><trkpt lat="43.9833855" lon="11.6763384"><ele>540.0</ele><time>2026-04-18T14:57:04.946Z</time></trkpt><trkpt lat="43.9833991" lon="11.676441"><ele>540.0</ele><time>2026-04-18T14:57:11.005Z</time></trkpt><trkpt lat="43.9834202" lon="11.6765387"><ele>540.0</ele><time>2026-04-18T14:57:17.096Z</time></trkpt><trkpt lat="43.983445" lon="11.6766327"><ele>544.0</ele><time>2026-04-18T14:57:23.077Z</time></trkpt><trkpt lat="43.983448" lon="11.6767235"><ele>548.0</ele><time>2026-04-18T14:57:31.994Z</time></trkpt><trkpt lat="43.9834687" lon="11.6768225"><ele>552.0</ele><time>2026-04-18T14:57:40.079Z</time></trkpt><trkpt lat="43.9835074" lon="11.6769013"><ele>556.0</ele><time>2026-04-18T14:57:46.058Z</time></trkpt><trkpt lat="43.9835399" lon="11.6769766"><ele>560.0</ele><time>2026-04-18T14:57:53.129Z</time></trkpt><trkpt lat="43.9835303" lon="11.6770738"><ele>564.0</ele><time>2026-04-18T14:58:00.013Z</time></trkpt><trkpt lat="43.9835108" lon="11.6771575"><ele>568.0</ele><time>2026-04-18T14:58:06.064Z</time></trkpt><trkpt lat="43.9835073" lon="11.6772483"><ele>568.0</ele><time>2026-04-18T14:58:12.089Z</time></trkpt><trkpt lat="43.983509" lon="11.6773395"><ele>568.0</ele><time>2026-04-18T14:58:20.063Z</time></trkpt><trkpt lat="43.9834691" lon="11.6774164"><ele>568.0</ele><time>2026-04-18T14:58:29.091Z</time></trkpt><trkpt lat="43.9834367" lon="11.6774971"><ele>568.0</ele><time>2026-04-18T14:58:35.071Z</time></trkpt><trkpt lat="43.9833702" lon="11.6775239"><ele>568.0</ele><time>2026-04-18T14:58:56.06Z</time></trkpt><trkpt lat="43.9832987" lon="11.6775344"><ele>568.0</ele><time>2026-04-18T14:58:59.945Z</time></trkpt><trkpt lat="43.9832319" lon="11.677559"><ele>568.0</ele><time>2026-04-18T14:59:06.089Z</time></trkpt><trkpt lat="43.9831811" lon="11.677621"><ele>563.5714285714286</ele><time>2026-04-18T14:59:17.139Z</time></trkpt><trkpt lat="43.983111" lon="11.6776267"><ele>559.1428571428571</ele><time>2026-04-18T14:59:24.085Z</time></trkpt><trkpt lat="43.9830539" lon="11.6776662"><ele>554.7142857142857</ele><time>2026-04-18T14:59:29.971Z</time></trkpt><trkpt lat="43.983025" lon="11.6777443"><ele>550.2857142857142</ele><time>2026-04-18T14:59:37.086Z</time></trkpt><trkpt lat="43.9830118" lon="11.6778441"><ele>545.8571428571429</ele><time>2026-04-18T14:59:45.075Z</time></trkpt><trkpt lat="43.9830073" lon="11.6779395"><ele>541.4285714285713</ele><time>2026-04-18T14:59:51.054Z</time></trkpt><trkpt lat="43.9830133" lon="11.6780303"><ele>537.0</ele><time>2026-04-18T14:59:57.035Z</time></trkpt><trkpt lat="43.9830232" lon="11.6781333"><ele>536.9999999999999</ele><time>2026-04-18T15:00:03.125Z</time></trkpt><trkpt lat="43.9830468" lon="11.6782197"><ele>537.0</ele><time>2026-04-18T15:00:10.051Z</time></trkpt><trkpt lat="43.9830737" lon="11.6783054"><ele>537.0</ele><time>2026-04-18T15:00:17.09Z</time></trkpt><trkpt lat="43.9830891" lon="11.6783941"><ele>537.0</ele><time>2026-04-18T15:00:24.026Z</time></trkpt><trkpt lat="43.9831263" lon="11.6784708"><ele>537.0</ele><time>2026-04-18T15:00:31.111Z</time></trkpt><trkpt lat="43.9831636" lon="11.6785583"><ele>536.9999999999999</ele><time>2026-04-18T15:00:38.076Z</time></trkpt><trkpt lat="43.9831561" lon="11.6786529"><ele>537.0</ele><time>2026-04-18T15:00:46.071Z</time></trkpt><trkpt lat="43.9831365" lon="11.6787443"><ele>538.4285714285713</ele><time>2026-04-18T15:00:55.071Z</time></trkpt><trkpt lat="43.9831054" lon="11.6788303"><ele>539.8571428571429</ele><time>2026-04-18T15:01:01.057Z</time></trkpt><trkpt lat="43.9830471" lon="11.678889"><ele>541.2857142857142</ele><time>2026-04-18T15:01:07.109Z</time></trkpt><trkpt lat="43.9829926" lon="11.678946"><ele>542.7142857142857</ele><time>2026-04-18T15:01:15.011Z</time></trkpt><trkpt lat="43.9829659" lon="11.679038"><ele>544.1428571428571</ele><time>2026-04-18T15:01:20.711Z</time></trkpt><trkpt lat="43.9829514" lon="11.6791405"><ele>545.5714285714286</ele><time>2026-04-18T15:01:28.471Z</time></trkpt><trkpt lat="43.9829608" lon="11.6792315"><ele>547.0</ele><time>2026-04-18T15:01:35.063Z</time></trkpt><trkpt lat="43.9829217" lon="11.6793024"><ele>547.0</ele><time>2026-04-18T15:01:50.073Z</time></trkpt><trkpt lat="43.9828651" lon="11.6793611"><ele>547.0</ele><time>2026-04-18T15:01:59.102Z</time></trkpt><trkpt lat="43.9828347" lon="11.6794427"><ele>547.0</ele><time>2026-04-18T15:02:04.026Z</time></trkpt><trkpt lat="43.9827892" lon="11.6795102"><ele>547.0</ele><time>2026-04-18T15:02:09.068Z</time></trkpt><trkpt lat="43.9827368" lon="11.6795766"><ele>547.0</ele><time>2026-04-18T15:02:14.025Z</time></trkpt><trkpt lat="43.9827318" lon="11.6796644"><ele>547.0</ele><time>2026-04-18T15:02:20.007Z</time></trkpt><trkpt lat="43.9826988" lon="11.6797422"><ele>547.0</ele><time>2026-04-18T15:02:28.064Z</time></trkpt><trkpt lat="43.9826489" lon="11.679808"><ele>548.4285714285714</ele><time>2026-04-18T15:02:33.107Z</time></trkpt><trkpt lat="43.9826275" lon="11.6798997"><ele>549.8571428571428</ele><time>2026-04-18T15:02:38.031Z</time></trkpt><trkpt lat="43.9826004" lon="11.6799836"><ele>551.2857142857142</ele><time>2026-04-18T15:02:45.066Z</time></trkpt><trkpt lat="43.9825485" lon="11.6800472"><ele>552.7142857142857</ele><time>2026-04-18T15:02:52.103Z</time></trkpt><trkpt lat="43.9825035" lon="11.680116"><ele>554.1428571428571</ele><time>2026-04-18T15:03:00.076Z</time></trkpt><trkpt lat="43.9824612" lon="11.6801919"><ele>555.5714285714286</ele><time>2026-04-18T15:03:07.104Z</time></trkpt><trkpt lat="43.9824431" lon="11.6802794"><ele>557.0</ele><time>2026-04-18T15:03:13.623Z</time></trkpt><trkpt lat="43.9823805" lon="11.6803183"><ele>552.8571428571429</ele><time>2026-04-18T15:03:24.036Z</time></trkpt><trkpt lat="43.9823159" lon="11.6803218"><ele>548.7142857142857</ele><time>2026-04-18T15:03:34.01Z</time></trkpt><trkpt lat="43.9822239" lon="11.6803432"><ele>544.5714285714286</ele><time>2026-04-18T15:04:25.028Z</time></trkpt><trkpt lat="43.9821562" lon="11.6803179"><ele>540.4285714285714</ele><time>2026-04-18T15:04:32.019Z</time></trkpt><trkpt lat="43.9820943" lon="11.6803395"><ele>536.2857142857143</ele><time>2026-04-18T15:04:39.055Z</time></trkpt><trkpt lat="43.9820309" lon="11.6803585"><ele>532.1428571428571</ele><time>2026-04-18T15:04:45.023Z</time></trkpt><trkpt lat="43.9819637" lon="11.6803803"><ele>528.0</ele><time>2026-04-18T15:04:52.129Z</time></trkpt><trkpt lat="43.9818938" lon="11.6803814"><ele>528.0</ele><time>2026-04-18T15:05:02.038Z</time></trkpt><trkpt lat="43.9818408" lon="11.6804553"><ele>528.0</ele><time>2026-04-18T15:05:08.271Z</time></trkpt><trkpt lat="43.9818078" lon="11.6805489"><ele>528.0</ele><time>2026-04-18T15:05:14.644Z</time></trkpt><trkpt lat="43.9818184" lon="11.6806477"><ele>528.0</ele><time>2026-04-18T15:05:21.036Z</time></trkpt><trkpt lat="43.981848" lon="11.6807279"><ele>528.0</ele><time>2026-04-18T15:05:25.989Z</time></trkpt><trkpt lat="43.9818798" lon="11.6808081"><ele>528.0</ele><time>2026-04-18T15:05:31.003Z</time></trkpt><trkpt lat="43.9819039" lon="11.680894"><ele>528.0</ele><time>2026-04-18T15:05:40.111Z</time></trkpt><trkpt lat="43.9819548" lon="11.6809589"><ele>528.0</ele><time>2026-04-18T15:05:52.051Z</time></trkpt><trkpt lat="43.9820216" lon="11.6810136"><ele>528.0</ele><time>2026-04-18T15:05:57.035Z</time></trkpt><trkpt lat="43.9820795" lon="11.6810747"><ele>528.0</ele><time>2026-04-18T15:06:03.017Z</time></trkpt><trkpt lat="43.9821131" lon="11.6811555"><ele>528.0</ele><time>2026-04-18T15:06:10.053Z</time></trkpt><trkpt lat="43.9821484" lon="11.6812478"><ele>528.0</ele><time>2026-04-18T15:06:17.105Z</time></trkpt><trkpt lat="43.9821684" lon="11.6813394"><ele>528.0</ele><time>2026-04-18T15:06:23.069Z</time></trkpt><trkpt lat="43.9821932" lon="11.6814244"><ele>528.0</ele><time>2026-04-18T15:06:29.049Z</time></trkpt><trkpt lat="43.9822178" lon="11.6815177"><ele>527.1428571428571</ele><time>2026-04-18T15:06:35.089Z</time></trkpt><trkpt lat="43.9822512" lon="11.681603"><ele>526.2857142857143</ele><time>2026-04-18T15:06:40.072Z</time></trkpt><trkpt lat="43.982312" lon="11.6816284"><ele>525.4285714285714</ele><time>2026-04-18T15:06:45.136Z</time></trkpt><trkpt lat="43.9823787" lon="11.6816607"><ele>524.5714285714286</ele><time>2026-04-18T15:06:51.903Z</time></trkpt><trkpt lat="43.982427" lon="11.6817341"><ele>523.7142857142857</ele><time>2026-04-18T15:06:58.013Z</time></trkpt><trkpt lat="43.9824669" lon="11.6818115"><ele>522.8571428571429</ele><time>2026-04-18T15:07:05.05Z</time></trkpt><trkpt lat="43.9824586" lon="11.6818995"><ele>522.0</ele><time>2026-04-18T15:07:18.542Z</time></trkpt><trkpt lat="43.9823992" lon="11.6819288"><ele>522.1428571428571</ele><time>2026-04-18T15:07:30.026Z</time></trkpt><trkpt lat="43.9823818" lon="11.6820218"><ele>522.2857142857142</ele><time>2026-04-18T15:07:39.056Z</time></trkpt><trkpt lat="43.9823487" lon="11.6821219"><ele>522.4285714285713</ele><time>2026-04-18T15:07:45.036Z</time></trkpt><trkpt lat="43.982343" lon="11.6822161"><ele>522.5714285714286</ele><time>2026-04-18T15:08:03.009Z</time></trkpt><trkpt lat="43.9823279" lon="11.6823216"><ele>522.7142857142857</ele><time>2026-04-18T15:08:09.043Z</time></trkpt><trkpt lat="43.982336" lon="11.6824222"><ele>522.8571428571428</ele><time>2026-04-18T15:08:13.03Z</time></trkpt><trkpt lat="43.9823756" lon="11.6825009"><ele>523.0</ele><time>2026-04-18T15:08:19.011Z</time></trkpt><trkpt lat="43.9822045" lon="11.6828646"><ele>524.0</ele><time>2026-04-18T15:08:46.946Z</time></trkpt><trkpt lat="43.9819488" lon="11.6835512"><ele>524.0</ele><time>2026-04-18T15:08:48.071Z</time></trkpt><trkpt lat="43.981899" lon="11.6837116"><ele>524.0</ele><time>2026-04-18T15:08:49.011Z</time></trkpt><trkpt lat="43.9818989" lon="11.6835521"><ele>524.0</ele><time>2026-04-18T15:08:51.003Z</time></trkpt><trkpt lat="43.9819061" lon="11.6834017"><ele>524.0</ele><time>2026-04-18T15:08:52.059Z</time></trkpt><trkpt lat="43.981945" lon="11.6832548"><ele>524.0</ele><time>2026-04-18T15:08:59.096Z</time></trkpt><trkpt lat="43.9819952" lon="11.6830841"><ele>524.0</ele><time>2026-04-18T15:09:00.034Z</time></trkpt><trkpt lat="43.9821601" lon="11.6829534"><ele>524.0</ele><time>2026-04-18T15:09:04.139Z</time></trkpt><trkpt lat="43.9822238" lon="11.6829372"><ele>524.0</ele><time>2026-04-18T15:09:07.071Z</time></trkpt><trkpt lat="43.9822881" lon="11.6829157"><ele>523.8333333333333</ele><time>2026-04-18T15:09:11.997Z</time></trkpt><trkpt lat="43.982278" lon="11.6827496"><ele>523.6666666666666</ele><time>2026-04-18T15:09:17.037Z</time></trkpt><trkpt lat="43.9822828" lon="11.6826622"><ele>523.5</ele><time>2026-04-18T15:09:27.122Z</time></trkpt><trkpt lat="43.9822984" lon="11.6825771"><ele>523.3333333333334</ele><time>2026-04-18T15:09:40.021Z</time></trkpt><trkpt lat="43.9822366" lon="11.682558"><ele>523.1666666666667</ele><time>2026-04-18T15:09:55.032Z</time></trkpt><trkpt lat="43.9822927" lon="11.6824549"><ele>523.0</ele><time>2026-04-18T15:10:15.986Z</time></trkpt><trkpt lat="43.9822475" lon="11.6825368"><ele>522.9999999999999</ele><time>2026-04-18T15:10:33.062Z</time></trkpt><trkpt lat="43.9822287" lon="11.6826321"><ele>523.0</ele><time>2026-04-18T15:10:39.044Z</time></trkpt><trkpt lat="43.9822036" lon="11.6827178"><ele>523.0</ele><time>2026-04-18T15:10:52.061Z</time></trkpt><trkpt lat="43.9822512" lon="11.6828065"><ele>523.0</ele><time>2026-04-18T15:11:33.105Z</time></trkpt><trkpt lat="43.982271" lon="11.682891"><ele>523.0</ele><time>2026-04-18T15:11:39.011Z</time></trkpt><trkpt lat="43.9822716" lon="11.6830011"><ele>522.9999999999999</ele><time>2026-04-18T15:12:03.129Z</time></trkpt><trkpt lat="43.9822741" lon="11.6830951"><ele>523.0</ele><time>2026-04-18T15:12:08.064Z</time></trkpt><trkpt lat="43.9822515" lon="11.6831807"><ele>523.1428571428571</ele><time>2026-04-18T15:12:15.129Z</time></trkpt><trkpt lat="43.9822655" lon="11.6832799"><ele>523.2857142857142</ele><time>2026-04-18T15:12:25.054Z</time></trkpt><trkpt lat="43.9822567" lon="11.6833692"><ele>523.4285714285714</ele><time>2026-04-18T15:12:33.134Z</time></trkpt><trkpt lat="43.9822499" lon="11.6834592"><ele>523.5714285714286</ele><time>2026-04-18T15:12:46.067Z</time></trkpt><trkpt lat="43.9822178" lon="11.6835525"><ele>523.7142857142858</ele><time>2026-04-18T15:12:54.991Z</time></trkpt><trkpt lat="43.9822066" lon="11.6836413"><ele>523.8571428571429</ele><time>2026-04-18T15:13:00Z</time></trkpt><trkpt lat="43.9821862" lon="11.6837273"><ele>524.0</ele><time>2026-04-18T15:13:10.049Z</time></trkpt><trkpt lat="43.9821511" lon="11.6838075"><ele>523.5</ele><time>2026-04-18T15:13:18.004Z</time></trkpt><trkpt lat="43.9820979" lon="11.6838551"><ele>523.0</ele><time>2026-04-18T15:13:54.061Z</time></trkpt><trkpt lat="43.9821733" lon="11.6840167"><ele>522.5</ele><time>2026-04-18T15:14:07.991Z</time></trkpt><trkpt lat="43.9822398" lon="11.6840336"><ele>522.0</ele><time>2026-04-18T15:14:45.072Z</time></trkpt><trkpt lat="43.9823089" lon="11.6840306"><ele>521.5</ele><time>2026-04-18T15:14:53.047Z</time></trkpt><trkpt lat="43.9823766" lon="11.6840313"><ele>521.0</ele><time>2026-04-18T15:15:00.082Z</time></trkpt><trkpt lat="43.9824342" lon="11.6840749"><ele>521.0</ele><time>2026-04-18T15:15:14.038Z</time></trkpt><trkpt lat="43.9824326" lon="11.6841675"><ele>521.0</ele><time>2026-04-18T15:15:25.06Z</time></trkpt><trkpt lat="43.9824326" lon="11.6842609"><ele>521.0</ele><time>2026-04-18T15:15:33.034Z</time></trkpt><trkpt lat="43.982446" lon="11.6843532"><ele>521.0</ele><time>2026-04-18T15:15:40.071Z</time></trkpt><trkpt lat="43.9824571" lon="11.6844466"><ele>521.0</ele><time>2026-04-18T15:15:49.101Z</time></trkpt><trkpt lat="43.9824694" lon="11.6845409"><ele>521.0</ele><time>2026-04-18T15:15:57.074Z</time></trkpt><trkpt lat="43.982455" lon="11.6846401"><ele>521.0</ele><time>2026-04-18T15:16:09.036Z</time></trkpt><trkpt lat="43.9824385" lon="11.6847252"><ele>521.1428571428571</ele><time>2026-04-18T15:16:16.072Z</time></trkpt><trkpt lat="43.9824304" lon="11.6848324"><ele>521.2857142857143</ele><time>2026-04-18T15:16:35.069Z</time></trkpt><trkpt lat="43.9823864" lon="11.6849071"><ele>521.4285714285714</ele><time>2026-04-18T15:16:41.111Z</time></trkpt><trkpt lat="43.9823595" lon="11.6849867"><ele>521.5714285714286</ele><time>2026-04-18T15:16:46.027Z</time></trkpt><trkpt lat="43.9823024" lon="11.68504"><ele>521.7142857142857</ele><time>2026-04-18T15:16:52.072Z</time></trkpt><trkpt lat="43.9822459" lon="11.6850913"><ele>521.8571428571429</ele><time>2026-04-18T15:16:59.109Z</time></trkpt><trkpt lat="43.9822054" lon="11.6851613"><ele>522.0</ele><time>2026-04-18T15:17:09.071Z</time></trkpt><trkpt lat="43.9821638" lon="11.6852329"><ele>522.5714285714286</ele><time>2026-04-18T15:17:17.05Z</time></trkpt><trkpt lat="43.9821401" lon="11.6853264"><ele>523.1428571428571</ele><time>2026-04-18T15:17:24.114Z</time></trkpt><trkpt lat="43.9821118" lon="11.6854183"><ele>523.7142857142857</ele><time>2026-04-18T15:17:30.067Z</time></trkpt><trkpt lat="43.9821101" lon="11.6855186"><ele>524.2857142857142</ele><time>2026-04-18T15:17:37.008Z</time></trkpt><trkpt lat="43.982103" lon="11.6856186"><ele>524.8571428571428</ele><time>2026-04-18T15:17:43.082Z</time></trkpt><trkpt lat="43.9820885" lon="11.6857084"><ele>525.4285714285714</ele><time>2026-04-18T15:17:48.009Z</time></trkpt><trkpt lat="43.9820708" lon="11.6857954"><ele>526.0</ele><time>2026-04-18T15:17:53.05Z</time></trkpt><trkpt lat="43.9820665" lon="11.6858926"><ele>526.0</ele><time>2026-04-18T15:17:59.031Z</time></trkpt><trkpt lat="43.9820654" lon="11.685992"><ele>526.0</ele><time>2026-04-18T15:18:04.073Z</time></trkpt><trkpt lat="43.9820721" lon="11.6860877"><ele>526.0</ele><time>2026-04-18T15:18:12.968Z</time></trkpt><trkpt lat="43.98207" lon="11.6861782"><ele>529.0</ele><time>2026-04-18T15:18:18.342Z</time></trkpt><trkpt lat="43.9820496" lon="11.6862629"><ele>529.0</ele><time>2026-04-18T15:18:24.125Z</time></trkpt><trkpt lat="43.9820175" lon="11.6863411"><ele>529.0</ele><time>2026-04-18T15:18:32.099Z</time></trkpt><trkpt lat="43.9819498" lon="11.6863497"><ele>529.0</ele><time>2026-04-18T15:19:45.038Z</time></trkpt></trkseg></trk></gpx>